Provisional Data: Sing Sing Creek near Big Flats, NY


Please select a monitoring station.
Please select start date.
Please select start date.

Toggle Unit: C/F Toggle Unit: C/F
Sample Time Temperature (C) Temperature (F) Specific Conductivity (mS/cm) pH   Turbidity (NTU+) DO (mg/L)
2/4/2021 12:00:00 AM 1.41 34.538 0.621 7.68 2.54 13.26
2/4/2021 12:15:00 AM 1.36 34.448 0.62 7.69 2.53 13.23
2/4/2021 12:30:00 AM 1.32 34.376 0.619 7.67 2.53 13.16
2/4/2021 12:45:00 AM 1.3 34.34 0.618 7.66 2.67 13.1
2/4/2021 1:00:00 AM 1.26 34.268 0.617 7.64 2.46 13.03
2/4/2021 1:15:00 AM 1.22 34.196 0.616 7.64 2.42 13
2/4/2021 1:30:00 AM 1.2 34.16 0.616 7.62 2.45 12.95
2/4/2021 1:45:00 AM 1.17 34.106 0.615 7.61 2.46 12.9
2/4/2021 2:00:00 AM 1.15 34.07 0.615 7.6 2.54 12.85
2/4/2021 2:15:00 AM 1.12 34.016 0.615 7.6 2.63 12.83
2/4/2021 2:30:00 AM 1.09 33.962 0.615 7.58 2.2 12.79
2/4/2021 2:45:00 AM 1.06 33.908 0.615 7.58 2.24 12.77
2/4/2021 3:00:00 AM 1.03 33.854 0.616 7.57 2.32 12.73
2/4/2021 3:15:00 AM 1 33.8 0.617 7.56 2.2 12.71
2/4/2021 3:30:00 AM 0.96 33.728 0.618 7.54 2.09 12.71
2/4/2021 3:45:00 AM 0.93 33.674 0.621 7.54 2.28 12.69
2/4/2021 4:00:00 AM 0.9 33.62 0.623 7.53 2.49 12.68
2/4/2021 4:15:00 AM 0.87 33.566 0.626 7.53 2.33 12.67
2/4/2021 4:30:00 AM 0.83 33.494 0.63 7.53 2.18 12.67
2/4/2021 4:45:00 AM 0.81 33.458 0.635 7.52 2.62 12.66
2/4/2021 5:00:00 AM 0.78 33.404 0.641 7.52 2.7 12.65
2/4/2021 5:15:00 AM 0.75 33.35 0.646 7.5 8.56 12.62
2/4/2021 5:30:00 AM 0.71 33.278 0.653 7.51 2.55 12.66
2/4/2021 5:45:00 AM 0.68 33.224 0.659 7.5 2.41 12.65
2/4/2021 6:00:00 AM 0.64 33.152 0.665 7.5 2.41 12.66
2/4/2021 6:15:00 AM 0.61 33.098 0.673 7.5 2.55 12.67
2/4/2021 6:30:00 AM 0.57 33.026 0.678 7.49 2.23 12.68
2/4/2021 6:45:00 AM 0.55 32.99 0.684 7.49 2.47 12.68
2/4/2021 7:00:00 AM 0.5 32.9 0.689 7.48 2.27 12.72
2/4/2021 7:15:00 AM 0.46 32.828 0.694 7.49 2.51 12.73
2/4/2021 7:30:00 AM 0.42 32.756 0.698 7.49 2.59 12.74
2/4/2021 7:45:00 AM 0.39 32.702 0.7 7.48 2.39 12.78
2/4/2021 8:00:00 AM 0.36 32.648 0.702 7.48 2.77 12.83
2/4/2021 8:15:00 AM 0.33 32.594 0.703 7.49 2.54 12.89
2/4/2021 8:30:00 AM 0.3 32.54 0.703 7.48 2.6 12.95
2/4/2021 8:45:00 AM 0.28 32.504 0.703 7.49 2.46 13.03
2/4/2021 9:00:00 AM 0.27 32.486 0.702 7.5 2.66 13.08
2/4/2021 9:15:00 AM 0.26 32.468 0.7 7.51 2.58 13.18
2/4/2021 9:30:00 AM 0.26 32.468 0.698 7.51 2.25 13.21
2/4/2021 9:45:00 AM 0.27 32.486 0.695 7.49 2.45 13.31
2/4/2021 10:00:00 AM 0.28 32.504 0.692 7.52 2.31 13.39
2/4/2021 10:15:00 AM 0.34 32.612 0.689 7.53 2.21 13.49
2/4/2021 10:30:00 AM 0.41 32.738 0.686 7.54 2.19 13.55
2/4/2021 10:45:00 AM 0.51 32.918 0.682 7.54 2.06 13.66
2/4/2021 11:00:00 AM 0.63 33.134 0.678 7.56 2.23 13.78
2/4/2021 11:15:00 AM 0.72 33.296 0.674 7.57 2.24 13.87
2/4/2021 11:30:00 AM 0.83 33.494 0.671 7.58 2.26 13.96
2/4/2021 11:45:00 AM 0.92 33.656 0.668 7.59 2.17 14.01
2/4/2021 12:00:00 PM 1.07 33.926 0.664 7.6 2.27 14.16
2/4/2021 12:15:00 PM 1.2 34.16 0.661 7.61 2.15 14.24
2/4/2021 12:30:00 PM 1.33 34.394 0.659 7.62 2.32 14.34
2/4/2021 12:45:00 PM 1.45 34.61 0.656 7.63 1.88 14.43
2/4/2021 1:00:00 PM 1.56 34.808 0.654 7.65 1.86 14.54
2/4/2021 1:15:00 PM 1.66 34.988 0.651 7.66 1.96 14.64
2/4/2021 1:30:00 PM 1.73 35.114 0.649 7.66 2.03 14.68
2/4/2021 1:45:00 PM 1.84 35.312 0.646 7.68 1.94 14.82
2/4/2021 2:00:00 PM 1.92 35.456 0.644 7.69 1.81 14.88
2/4/2021 2:15:00 PM 2.02 35.636 0.642 7.71 2.01 15.01
2/4/2021 2:30:00 PM 2.1 35.78 0.64 7.72 1.92 15.08
2/4/2021 2:45:00 PM 2.15 35.87 0.639 7.73 1.91 15.13
2/4/2021 3:00:00 PM 2.19 35.942 0.637 7.73 1.88 15.2
2/4/2021 3:15:00 PM 2.22 35.996 0.636 7.76 1.9 15.3
2/4/2021 3:30:00 PM 2.25 36.05 0.635 7.77 1.89 15.34
2/4/2021 3:45:00 PM 2.27 36.086 0.633 7.78 1.96 15.38
2/4/2021 4:00:00 PM 2.32 36.176 0.631 7.81 2.04 15.43
2/4/2021 4:15:00 PM 2.37 36.266 0.63 7.82 1.88 15.46
2/4/2021 4:30:00 PM 2.45 36.41 0.628 7.85 2.16 15.51
2/4/2021 4:45:00 PM 2.51 36.518 0.628 7.86 2.21 15.51
2/4/2021 5:00:00 PM 2.58 36.644 0.627 7.88 2.46 15.52
2/4/2021 5:15:00 PM 2.63 36.734 0.627 7.9 2.17 15.51
2/4/2021 5:30:00 PM 2.67 36.806 0.628 7.91 2.34 15.48
2/4/2021 5:45:00 PM 2.71 36.878 0.63 7.93 2.38 15.44
2/4/2021 6:00:00 PM 2.72 36.896 0.631 7.92 2.49 15.36
2/4/2021 6:15:00 PM 2.74 36.932 0.633 7.94 2.27 15.3
2/4/2021 6:30:00 PM 2.74 36.932 0.635 7.94 2.02 15.22
2/4/2021 6:45:00 PM 2.73 36.914 0.637 7.93 2.32 15.12
2/4/2021 7:00:00 PM 2.71 36.878 0.64 7.91 2.57 15
2/4/2021 7:15:00 PM 2.69 36.842 0.642 7.91 2.71 14.9
2/4/2021 7:30:00 PM 2.67 36.806 0.644 7.9 2.45 14.79
2/4/2021 7:45:00 PM 2.63 36.734 0.647 7.88 2.69 14.63
2/4/2021 8:00:00 PM 2.59 36.662 0.649 7.87 2.44 14.49
2/4/2021 8:15:00 PM 2.56 36.608 0.651 7.84 2.73 14.36
2/4/2021 8:30:00 PM 2.52 36.536 0.652 7.83 2.92 14.23
2/4/2021 8:45:00 PM 2.48 36.464 0.652 7.81 2.83 14.1
2/4/2021 9:00:00 PM 2.45 36.41 0.652 7.79 3.08 13.98
2/4/2021 9:15:00 PM 2.42 36.356 0.65 7.79 3.09 13.86
2/4/2021 9:30:00 PM 2.38 36.284 0.649 7.76 3.53 13.73
2/4/2021 9:45:00 PM 2.33 36.194 0.646 7.77 3.11 13.65
2/4/2021 10:00:00 PM 2.29 36.122 0.644 7.75 3.59 13.53
2/4/2021 10:15:00 PM 2.26 36.068 0.642 7.75 3.41 13.46
2/4/2021 10:30:00 PM 2.22 35.996 0.641 7.74 3.27 13.38
2/4/2021 10:45:00 PM 2.18 35.924 0.639 7.72 3.33 13.29
2/4/2021 11:00:00 PM 2.15 35.87 0.638 7.71 3.13 13.21
2/4/2021 11:15:00 PM 2.12 35.816 0.638 7.71 3.21 13.14
2/4/2021 11:30:00 PM 2.09 35.762 0.637 7.7 2.77 13.08
2/4/2021 11:45:00 PM 2.07 35.726 0.637 7.7 2.71 13.01
2/5/2021 12:00:00 AM 2.05 35.69 0.638 7.69 2.85 12.95
2/5/2021 12:15:00 AM 2.04 35.672 0.638 7.67 2.77 12.89
2/5/2021 12:30:00 AM 2.02 35.636 0.638 7.66 2.85 12.82
2/5/2021 12:45:00 AM 2.01 35.618 0.638 7.66 2.62 12.76
2/5/2021 1:00:00 AM 2 35.6 0.639 7.66 2.3 12.72
2/5/2021 1:15:00 AM 1.99 35.582 0.638 7.65 2.56 12.66
2/5/2021 1:30:00 AM 1.99 35.582 0.639 7.64 2.28 12.61
2/5/2021 1:45:00 AM 1.98 35.564 0.638 7.62 2.41 12.55
2/5/2021 2:00:00 AM 1.95 35.51 0.638 7.62 2.5 12.53
2/5/2021 2:15:00 AM 1.93 35.474 0.637 7.61 2.38 12.49
2/5/2021 2:30:00 AM 1.92 35.456 0.636 7.6 2.42 12.46
2/5/2021 2:45:00 AM 1.92 35.456 0.634 7.6 2.2 12.44
2/5/2021 3:00:00 AM 1.93 35.474 0.633 7.59 2.35 12.4
2/5/2021 3:15:00 AM 1.93 35.474 0.631 7.58 2.23 12.36
2/5/2021 3:30:00 AM 1.93 35.474 0.629 7.58 2.42 12.34
2/5/2021 3:45:00 AM 1.93 35.474 0.626 7.57 2.22 12.31
2/5/2021 4:00:00 AM 1.91 35.438 0.623 7.56 2.24 12.32
2/5/2021 4:15:00 AM 1.91 35.438 0.62 7.55 2.66 12.32
2/5/2021 4:30:00 AM 1.91 35.438 0.617 7.54 2.52 12.31
2/5/2021 4:45:00 AM 1.91 35.438 0.613 7.54 2.31 12.29
2/5/2021 5:00:00 AM 1.9 35.42 0.61 7.53 2.5 12.27
2/5/2021 5:15:00 AM 1.9 35.42 0.608 7.52 2.92 12.27
2/5/2021 5:30:00 AM 1.9 35.42 0.605 7.51 2.64 12.27
2/5/2021 5:45:00 AM 1.9 35.42 0.601 7.51 2.68 12.25
2/5/2021 6:00:00 AM 1.91 35.438 0.599 7.49 2.59 12.25
2/5/2021 6:15:00 AM 1.91 35.438 0.597 7.49 2.63 12.24
2/5/2021 6:30:00 AM 1.9 35.42 0.595 7.48 2.34 12.22
2/5/2021 6:45:00 AM 1.9 35.42 0.593 7.48 2.51 12.24
2/5/2021 7:00:00 AM 1.91 35.438 0.592 7.48 2.5 12.23
2/5/2021 7:15:00 AM 1.92 35.456 0.592 7.48 2.62 12.21
2/5/2021 7:30:00 AM 1.92 35.456 0.591 7.48 2.47 12.19
2/5/2021 7:45:00 AM 1.92 35.456 0.592 7.46 2.64 12.21
2/5/2021 8:00:00 AM 1.92 35.456 0.592 7.47 19.84 12.21
2/5/2021 8:15:00 AM 1.91 35.438 0.593 7.49 2.85 12.31
2/5/2021 8:30:00 AM 1.91 35.438 0.595 7.48 2.51 12.36
2/5/2021 8:45:00 AM 1.9 35.42 0.596 7.49 2.6 12.44
2/5/2021 9:00:00 AM 1.9 35.42 0.599 7.49 2.7 12.5
2/5/2021 9:15:00 AM 1.91 35.438 0.6 7.5 2.63 12.59
2/5/2021 9:30:00 AM 1.92 35.456 0.602 7.51 2.46 12.67
2/5/2021 9:45:00 AM 1.95 35.51 0.605 7.53 2.67 12.75
2/5/2021 10:00:00 AM 1.99 35.582 0.608 7.53 2.37 12.86
2/5/2021 10:15:00 AM 2.06 35.708 0.61 7.54 2.51 12.97
2/5/2021 10:30:00 AM 2.12 35.816 0.612 7.55 2.58 13.05
2/5/2021 10:45:00 AM 2.16 35.888 0.615 7.56 2.54 13.17
2/5/2021 11:00:00 AM 2.17 35.906 0.617 7.57 2.36 13.23
2/5/2021 11:15:00 AM 2.19 35.942 0.62 7.59 2.27 13.37
2/5/2021 11:30:00 AM 2.29 36.122 0.622 7.6 2.25 13.48
2/5/2021 11:45:00 AM 2.43 36.374 0.625 7.62 2.27 13.61
2/5/2021 12:00:00 PM 2.49 36.482 0.628 7.64 2.16 13.74
2/5/2021 12:15:00 PM 2.53 36.554 0.632 7.65 2.35 13.84
2/5/2021 12:30:00 PM 2.62 36.716 0.637 7.68 2.31 13.98
2/5/2021 12:45:00 PM 2.71 36.878 0.641 7.69 2.4 14.12
2/5/2021 1:00:00 PM 2.85 37.13 0.648 7.72 2.52 14.26
2/5/2021 1:15:00 PM 2.96 37.328 0.654 7.74 2.36 14.41
2/5/2021 1:30:00 PM 2.98 37.364 0.661 7.76 2.55 14.49
2/5/2021 1:45:00 PM 3.07 37.526 0.669 7.79 2.65 14.63
2/5/2021 2:00:00 PM 3.15 37.67 0.679 7.8 2.68 14.76
2/5/2021 2:15:00 PM 3.24 37.832 0.686 7.82 2.43 14.83
2/5/2021 2:30:00 PM 3.25 37.85 0.697 7.84 2.56 14.91
2/5/2021 2:45:00 PM 3.27 37.886 0.708 7.86 3 14.98
2/5/2021 3:00:00 PM 3.29 37.922 0.718 7.87 4.03 15.06
2/5/2021 3:15:00 PM 3.32 37.976 0.727 7.89 3.62 15.13
2/5/2021 3:30:00 PM 3.37 38.066 0.738 7.91 3.45 15.23
2/5/2021 3:45:00 PM 3.38 38.084 0.746 7.92 3.73 15.26
2/5/2021 4:00:00 PM 3.42 38.156 0.756 7.93 3.21 15.32
2/5/2021 4:15:00 PM 3.47 38.246 0.763 7.96 3.45 15.37
2/5/2021 4:30:00 PM 3.52 38.336 0.77 7.98 3.24 15.41
2/5/2021 4:45:00 PM 3.55 38.39 0.776 7.99 3.04 15.45
2/5/2021 5:00:00 PM 3.57 38.426 0.779 8 2.77 15.44
2/5/2021 5:15:00 PM 3.57 38.426 0.784 8.01 2.86 15.43
2/5/2021 5:30:00 PM 3.56 38.408 0.786 8 2.86 15.34
2/5/2021 5:45:00 PM 3.54 38.372 0.788 8.01 3.38 15.26
2/5/2021 6:00:00 PM 3.53 38.354 0.789 8.02 3.84 15.2
2/5/2021 6:15:00 PM 3.52 38.336 0.788 8.02 2.87 15.12
2/5/2021 6:30:00 PM 3.5 38.3 0.788 8.01 2.88 15
2/5/2021 6:45:00 PM 3.47 38.246 0.785 8.02 2.89 14.92
2/5/2021 7:00:00 PM 3.43 38.174 0.783 8.02 2.97 14.82
2/5/2021 7:15:00 PM 3.4 38.12 0.78 8.01 3.13 14.7
2/5/2021 7:30:00 PM 3.37 38.066 0.777 7.99 2.72 14.58
2/5/2021 7:45:00 PM 3.33 37.994 0.772 7.99 2.62 14.48
2/5/2021 8:00:00 PM 3.3 37.94 0.77 7.98 2.74 14.35
2/5/2021 8:15:00 PM 3.27 37.886 0.764 7.94 2.9 14.22
2/5/2021 8:30:00 PM 3.25 37.85 0.759 7.95 3.77 14.09
2/5/2021 8:45:00 PM 3.22 37.796 0.755 7.92 3.15 13.96
2/5/2021 9:00:00 PM 3.18 37.724 0.75 7.91 3.14 13.81
2/5/2021 9:15:00 PM 3.15 37.67 0.745 7.89 3.32 13.71
2/5/2021 9:30:00 PM 3.11 37.598 0.741 7.87 3.25 13.59
2/5/2021 9:45:00 PM 3.06 37.508 0.735 7.87 2.81 13.5
2/5/2021 10:00:00 PM 3.02 37.436 0.73 7.84 2.97 13.36
2/5/2021 10:15:00 PM 2.96 37.328 0.726 7.83 2.84 13.32
2/5/2021 10:30:00 PM 2.93 37.274 0.722 7.82 3.02 13.22
2/5/2021 10:45:00 PM 2.87 37.166 0.717 7.8 3.22 13.17
2/5/2021 11:00:00 PM 2.82 37.076 0.712 7.8 2.82 13.1
2/5/2021 11:15:00 PM 2.78 37.004 0.708 7.78 3.2 13.03
2/5/2021 11:30:00 PM 2.73 36.914 0.703 7.78 2.95 12.97
2/5/2021 11:45:00 PM 2.69 36.842 0.699 7.76 3.16 12.9
2/6/2021 12:00:00 AM 2.65 36.77 0.696 7.75 3.14 12.83
2/6/2021 12:15:00 AM 2.59 36.662 0.692 7.74 2.83 12.76
2/6/2021 12:30:00 AM 2.54 36.572 0.688 7.72 2.92 12.7
2/6/2021 12:45:00 AM 2.47 36.446 0.683 7.71 3.07 12.66
2/6/2021 1:00:00 AM 2.43 36.374 0.68 7.69 3.29 12.6
2/6/2021 1:15:00 AM 2.39 36.302 0.677 7.68 2.75 12.55
2/6/2021 1:30:00 AM 2.34 36.212 0.673 7.66 2.68 12.52
2/6/2021 1:45:00 AM 2.31 36.158 0.67 7.66 2.56 12.48
2/6/2021 2:00:00 AM 2.27 36.086 0.666 7.64 2.44 12.44
2/6/2021 2:15:00 AM 2.23 36.014 0.664 7.62 2.51 12.41
2/6/2021 2:30:00 AM 2.19 35.942 0.661 7.62 2.43 12.37
2/6/2021 2:45:00 AM 2.15 35.87 0.658 7.61 2.38 12.35
2/6/2021 3:00:00 AM 2.1 35.78 0.656 7.6 2.29 12.33
2/6/2021 3:15:00 AM 2.06 35.708 0.653 7.58 2.46 12.31
2/6/2021 3:30:00 AM 2.03 35.654 0.651 7.57 2.33 12.29
2/6/2021 3:45:00 AM 2 35.6 0.649 7.57 2.35 12.25
2/6/2021 4:00:00 AM 1.95 35.51 0.647 7.56 2.6 12.27
2/6/2021 4:15:00 AM 1.9 35.42 0.646 7.55 2.68 12.27
2/6/2021 4:30:00 AM 1.86 35.348 0.645 7.55 2.51 12.25
2/6/2021 4:45:00 AM 1.82 35.276 0.644 7.53 2.8 12.26
2/6/2021 5:00:00 AM 1.78 35.204 0.643 7.54 2.77 12.27
2/6/2021 5:15:00 AM 1.73 35.114 0.643 7.53 2.57 12.27
2/6/2021 5:30:00 AM 1.7 35.06 0.643 7.53 2.47 12.28
2/6/2021 5:45:00 AM 1.68 35.024 0.644 7.51 2.62 12.28
2/6/2021 6:00:00 AM 1.65 34.97 0.644 7.51 2.31 12.27
2/6/2021 6:15:00 AM 1.6 34.88 0.645 7.52 2.48 12.29
2/6/2021 6:30:00 AM 1.55 34.79 0.645 7.51 2.49 12.3
2/6/2021 6:45:00 AM 1.5 34.7 0.646 7.51 2.31 12.3
2/6/2021 7:00:00 AM 1.47 34.646 0.646 7.5 2.45 12.31
2/6/2021 7:15:00 AM 1.42 34.556 0.646 7.5 2.28 12.33
2/6/2021 7:30:00 AM 1.39 34.502 0.646 7.5 2.55 12.33
2/6/2021 7:45:00 AM 1.35 34.43 0.646 7.5 2.56 12.38
2/6/2021 8:00:00 AM 1.3 34.34 0.645 7.5 3.02 12.44
2/6/2021 8:15:00 AM 1.27 34.286 0.645 7.51 2.61 12.52
2/6/2021 8:30:00 AM 1.22 34.196 0.644 7.51 2.77 12.59
2/6/2021 8:45:00 AM 1.19 34.142 0.644 7.51 2.81 12.68
2/6/2021 9:00:00 AM 1.15 34.07 0.644 7.52 2.59 12.76
2/6/2021 9:15:00 AM 1.13 34.034 0.644 7.52 2.87 12.82
2/6/2021 9:30:00 AM 1.1 33.98 0.645 7.52 2.89 12.92
2/6/2021 9:45:00 AM 1.08 33.944 0.646 7.53 2.74 13.03
2/6/2021 10:00:00 AM 1.06 33.908 0.647 7.54 2.76 13.14
2/6/2021 10:15:00 AM 1.09 33.962 0.649 7.55 2.97 13.24
2/6/2021 10:30:00 AM 1.13 34.034 0.651 7.56 3.03 13.36
2/6/2021 10:45:00 AM 1.19 34.142 0.654 7.57 3.23 13.47
2/6/2021 11:00:00 AM 1.23 34.214 0.656 7.58 2.96 13.54
2/6/2021 11:15:00 AM 1.3 34.34 0.661 7.6 3.04 13.7
2/6/2021 11:30:00 AM 1.37 34.466 0.665 7.6 2.73 13.81
2/6/2021 11:45:00 AM 1.44 34.592 0.67 7.61 3.19 13.93
2/6/2021 12:00:00 PM 1.54 34.772 0.677 7.63 2.88 14.08
2/6/2021 12:15:00 PM 1.63 34.934 0.683 7.65 3.02 14.2
2/6/2021 12:30:00 PM 1.73 35.114 0.69 7.66 3.07 14.33
2/6/2021 12:45:00 PM 1.81 35.258 0.697 7.68 2.8 14.39
2/6/2021 1:00:00 PM 1.87 35.366 0.705 7.69 3.16 14.5
2/6/2021 1:15:00 PM 1.93 35.474 0.713 7.71 3.27 14.59
2/6/2021 1:30:00 PM 1.98 35.564 0.72 7.72 3.45 14.68
2/6/2021 1:45:00 PM 2.05 35.69 0.729 7.73 3.29 14.82
2/6/2021 2:00:00 PM 2.12 35.816 0.736 7.75 3.02 14.88
2/6/2021 2:15:00 PM 2.19 35.942 0.744 7.77 3.05 14.98
2/6/2021 2:30:00 PM 2.27 36.086 0.749 7.78 2.91 15.05
2/6/2021 2:45:00 PM 2.33 36.194 0.755 7.8 2.75 15.17
2/6/2021 3:00:00 PM 2.37 36.266 0.76 7.82 3.39 15.25
2/6/2021 3:15:00 PM 2.39 36.302 0.764 7.84 3.51 15.37
2/6/2021 3:30:00 PM 2.43 36.374 0.768 7.86 3.59 15.44
2/6/2021 3:45:00 PM 2.45 36.41 0.77 7.87 2.98 15.49
2/6/2021 4:00:00 PM 2.48 36.464 0.771 7.89 3.6 15.54
2/6/2021 4:15:00 PM 2.52 36.536 0.773 7.9 2.92 15.57
2/6/2021 4:30:00 PM 2.54 36.572 0.773 7.93 3.82 15.6
2/6/2021 4:45:00 PM 2.55 36.59 0.772 7.94 4.12 15.59
2/6/2021 5:00:00 PM 2.57 36.626 0.771 7.94 4.28 15.6
2/6/2021 5:15:00 PM 2.59 36.662 0.77 7.95 3.82 15.57
2/6/2021 5:30:00 PM 2.59 36.662 0.768 7.96 3.29 15.51
2/6/2021 5:45:00 PM 2.6 36.68 0.765 7.96 2.91 15.47
2/6/2021 6:00:00 PM 2.6 36.68 0.762 7.97 2.7 15.42
2/6/2021 6:15:00 PM 2.59 36.662 0.759 7.96 2.82 15.33
2/6/2021 6:30:00 PM 2.56 36.608 0.755 7.97 2.72 15.28
2/6/2021 6:45:00 PM 2.55 36.59 0.751 7.97 3.33 15.2
2/6/2021 7:00:00 PM 2.51 36.518 0.747 7.96 3.44 15.1
2/6/2021 7:15:00 PM 2.48 36.464 0.743 7.95 2.88 15.02
2/6/2021 7:30:00 PM 2.41 36.338 0.736 7.96 3.06 14.93
2/6/2021 7:45:00 PM 2.36 36.248 0.732 7.94 2.81 14.81
2/6/2021 8:00:00 PM 2.3 36.14 0.727 7.93 2.92 14.72
2/6/2021 8:15:00 PM 2.23 36.014 0.722 7.92 3 14.59
2/6/2021 8:30:00 PM 2.17 35.906 0.718 7.91 3.3 14.48
2/6/2021 8:45:00 PM 2.1 35.78 0.714 7.89 3.31 14.37
2/6/2021 9:00:00 PM 2.03 35.654 0.708 7.87 3.57 14.23
2/6/2021 9:15:00 PM 1.93 35.474 0.704 7.85 4.02 14.12
2/6/2021 9:30:00 PM 1.85 35.33 0.699 7.83 3.71 14
2/6/2021 9:45:00 PM 1.78 35.204 0.695 7.82 3.69 13.92
2/6/2021 10:00:00 PM 1.7 35.06 0.69 7.8 3.89 13.84
2/6/2021 10:15:00 PM 1.65 34.97 0.689 7.79 4.36 13.75
2/6/2021 10:30:00 PM 1.56 34.808 0.683 7.77 4.02 13.67
2/6/2021 10:45:00 PM 1.49 34.682 0.679 7.75 3.5 13.62
2/6/2021 11:00:00 PM 1.39 34.502 0.675 7.74 3.6 13.56
2/6/2021 11:15:00 PM 1.33 34.394 0.672 7.73 3.04 13.5
2/6/2021 11:30:00 PM 1.25 34.25 0.668 7.71 3.18 13.45
2/6/2021 11:45:00 PM 1.16 34.088 0.665 7.7 3.03 13.41
2/7/2021 12:00:00 AM 1.08 33.944 0.662 7.69 2.55 13.37
2/7/2021 12:15:00 AM 0.99 33.782 0.659 7.68 2.62 13.34
2/7/2021 12:30:00 AM 0.93 33.674 0.657 7.66 2.62 13.29
2/7/2021 12:45:00 AM 0.83 33.494 0.654 7.66 2.68 13.24
2/7/2021 1:00:00 AM 0.76 33.368 0.652 7.65 2.97 13.21
2/7/2021 1:15:00 AM 0.66 33.188 0.649 7.63 2.66 13.19
2/7/2021 1:30:00 AM 0.59 33.062 0.647 7.63 2.46 13.16
2/7/2021 1:45:00 AM 0.51 32.918 0.645 7.62 2.6 13.15
2/7/2021 2:00:00 AM 0.43 32.774 0.643 7.6 2.31 13.14
2/7/2021 2:15:00 AM 0.35 32.63 0.641 7.6 2.19 13.13
2/7/2021 2:30:00 AM 0.28 32.504 0.639 7.59 2.36 13.13
2/7/2021 2:45:00 AM 0.23 32.414 0.638 7.58 2.23 13.11
2/7/2021 3:00:00 AM 0.17 32.306 0.636 7.58 2.3 13.11
2/7/2021 3:15:00 AM 0.14 32.252 0.635 7.56 2.51 13.08
2/7/2021 3:30:00 AM 0.1 32.18 0.634 7.56 2.34 13.07
2/7/2021 3:45:00 AM 0.05 32.09 0.632 7.56 2 13.08
2/7/2021 4:00:00 AM 0 32 0.631 7.55 2.34 13.09
2/7/2021 4:15:00 AM 0 32 0.631 7.53 2.67 13.06
2/7/2021 4:30:00 AM -0.04 31.928 0.629 7.53 2.41 13.07
2/7/2021 4:45:00 AM -0.07 31.874 0.628 7.53 2.27 13.08
2/7/2021 5:00:00 AM -0.08 31.856 0.627 7.52 2.3 13.07
2/7/2021 5:15:00 AM -0.1 31.82 0.627 7.52 2.27 13.08
2/7/2021 5:30:00 AM -0.11 31.802 0.626 7.52 2.4 13.08
2/7/2021 5:45:00 AM -0.09 31.838 0.627 7.51 2.38 13.05
2/7/2021 6:00:00 AM -0.1 31.82 0.625 7.49 2.44 13.04
2/7/2021 6:15:00 AM -0.11 31.802 0.626 7.5 2.15 13.06
2/7/2021 6:30:00 AM -0.11 31.802 0.626 7.5 2.41 13.07
2/7/2021 6:45:00 AM -0.11 31.802 0.626 7.5 2.37 13.04
2/7/2021 7:00:00 AM -0.1 31.82 0.626 7.49 2.29 13.04
2/7/2021 7:15:00 AM -0.1 31.82 0.627 7.48 2.41 13.02
2/7/2021 7:30:00 AM -0.09 31.838 0.627 7.47 2.35 13.03
2/7/2021 7:45:00 AM -0.08 31.856 0.628 7.47 2.79 13.03
2/7/2021 8:00:00 AM -0.06 31.892 0.629 7.46 2.58 13.04
2/7/2021 8:15:00 AM -0.06 31.892 0.629 7.47 2.41 13.07
2/7/2021 8:30:00 AM -0.04 31.928 0.629 7.47 2.41 13.12
2/7/2021 8:45:00 AM -0.02 31.964 0.63 7.47 2.6 13.18
2/7/2021 9:00:00 AM 0 32 0.629 7.48 2.67 13.26
2/7/2021 9:15:00 AM 0.04 32.072 0.629 7.48 2.69 13.36
2/7/2021 9:30:00 AM 0.09 32.162 0.63 7.49 2.96 13.44
2/7/2021 9:45:00 AM 0.14 32.252 0.628 7.49 2.89 13.58
2/7/2021 10:00:00 AM 0.18 32.324 0.628 7.5 2.72 13.65
2/7/2021 10:15:00 AM 0.24 32.432 0.626 7.5 2.74 13.74
2/7/2021 10:30:00 AM 0.3 32.54 0.625 7.52 2.6 13.86
2/7/2021 10:45:00 AM 0.35 32.63 0.623 7.53 2.36 13.99
2/7/2021 11:00:00 AM 0.41 32.738 0.62 7.54 2.57 14.08
2/7/2021 11:15:00 AM 0.45 32.81 0.617 7.55 2.25 14.19
2/7/2021 11:30:00 AM 0.51 32.918 0.616 7.56 2.36 14.29
2/7/2021 11:45:00 AM 0.54 32.972 0.612 7.57 2.35 14.44
2/7/2021 12:00:00 PM 0.57 33.026 0.608 7.59 2.36 14.55
2/7/2021 12:15:00 PM 0.61 33.098 0.605 7.6 2.22 14.69
2/7/2021 12:30:00 PM 0.67 33.206 0.603 7.62 2.26 14.82
2/7/2021 12:45:00 PM 0.74 33.332 0.6 7.65 2.4 15
2/7/2021 1:00:00 PM 0.79 33.422 0.598 7.66 2.44 15.11
2/7/2021 1:15:00 PM 0.83 33.494 0.596 7.68 2.54 15.23
2/7/2021 1:30:00 PM 0.89 33.602 0.594 7.69 2.22 15.36
2/7/2021 1:45:00 PM 0.96 33.728 0.593 7.7 2.05 15.43
2/7/2021 2:00:00 PM 1.03 33.854 0.59 7.72 2.67 15.59
2/7/2021 2:15:00 PM 1.02 33.836 0.589 7.72 2.45 15.66
2/7/2021 2:30:00 PM 1.01 33.818 0.589 7.75 3.05 15.72
2/7/2021 2:45:00 PM 0.97 33.746 0.588 7.75 3.33 15.79
2/7/2021 3:00:00 PM 0.95 33.71 0.588 7.77 2.57 15.85
2/7/2021 3:15:00 PM 0.93 33.674 0.588 7.79 2.99 15.93
2/7/2021 3:30:00 PM 0.91 33.638 0.588 7.8 2.57 15.96
2/7/2021 3:45:00 PM 0.89 33.602 0.589 7.81 2.97 16
2/7/2021 4:00:00 PM 0.88 33.584 0.59 7.82 2.8 16.04
2/7/2021 4:15:00 PM 0.84 33.512 0.591 7.84 2.89 16.09
2/7/2021 4:30:00 PM 0.82 33.476 0.592 7.85 2.63 16.11
2/7/2021 4:45:00 PM 0.77 33.386 0.594 7.86 2.7 16.1
2/7/2021 5:00:00 PM 0.74 33.332 0.596 7.87 2.5 16.11
2/7/2021 5:15:00 PM 0.7 33.26 0.597 7.89 2.87 16.12
2/7/2021 5:30:00 PM 0.68 33.224 0.599 7.89 2.79 16.07
2/7/2021 5:45:00 PM 0.65 33.17 0.601 7.88 2.71 15.98
2/7/2021 6:00:00 PM 0.61 33.098 0.602 7.9 2.38 15.97
2/7/2021 6:15:00 PM 0.58 33.044 0.604 7.9 2.31 15.92
2/7/2021 6:30:00 PM 0.57 33.026 0.606 7.89 4.57 15.83
2/7/2021 6:45:00 PM 0.54 32.972 0.607 7.89 2.6 15.78
2/7/2021 7:00:00 PM 0.53 32.954 0.61 7.88 3.15 15.69
2/7/2021 7:15:00 PM 0.49 32.882 0.611 7.87 2.56 15.63
2/7/2021 7:30:00 PM 0.46 32.828 0.613 7.88 2.68 15.55
2/7/2021 7:45:00 PM 0.42 32.756 0.615 7.87 3.02 15.46
2/7/2021 8:00:00 PM 0.39 32.702 0.617 7.86 3.06 15.33
2/7/2021 8:15:00 PM 0.34 32.612 0.618 7.85 2.97 15.23
2/7/2021 8:30:00 PM 0.31 32.558 0.62 7.84 2.84 15.12
2/7/2021 8:45:00 PM 0.27 32.486 0.622 7.82 2.79 15
2/7/2021 9:00:00 PM 0.25 32.45 0.623 7.82 2.97 14.9
2/7/2021 9:15:00 PM 0.23 32.414 0.625 7.81 3.51 14.78
2/7/2021 9:30:00 PM 0.22 32.396 0.626 7.8 3.29 14.67
2/7/2021 9:45:00 PM 0.21 32.378 0.628 7.79 2.98 14.56
2/7/2021 10:00:00 PM 0.22 32.396 0.629 7.78 3.73 14.46
2/7/2021 10:15:00 PM 0.19 32.342 0.631 7.77 3.22 14.38
2/7/2021 10:30:00 PM 0.18 32.324 0.633 7.77 3.3 14.29
2/7/2021 10:45:00 PM 0.17 32.306 0.634 7.76 3.5 14.19
2/7/2021 11:00:00 PM 0.14 32.252 0.636 7.76 3.31 14.14
2/7/2021 11:15:00 PM 0.12 32.216 0.638 7.76 2.77 14.07
2/7/2021 11:30:00 PM 0.12 32.216 0.639 7.74 3.3 13.98
2/7/2021 11:45:00 PM 0.09 32.162 0.64 7.74 3.01 13.92
2/8/2021 12:00:00 AM 0.07 32.126 0.641 7.74 2.78 13.86
2/8/2021 12:15:00 AM 0.05 32.09 0.641 7.73 2.51 13.79
2/8/2021 12:30:00 AM 0.05 32.09 0.642 7.72 3.09 13.71
2/8/2021 12:45:00 AM 0.02 32.036 0.642 7.71 2.68 13.68
2/8/2021 1:00:00 AM 0.02 32.036 0.642 7.68 2.73 13.61
2/8/2021 1:15:00 AM -0.01 31.982 0.641 7.68 2.42 13.58
2/8/2021 1:30:00 AM -0.02 31.964 0.64 7.68 3.06 13.52
2/8/2021 1:45:00 AM -0.05 31.91 0.638 7.68 2.85 13.51
2/8/2021 2:00:00 AM -0.08 31.856 0.636 7.66 3.02 13.46
2/8/2021 2:15:00 AM -0.1 31.82 0.635 7.66 2.67 13.44
2/8/2021 2:30:00 AM -0.11 31.802 0.633 7.65 2.91 13.41
2/8/2021 2:45:00 AM -0.13 31.766 0.631 7.63 2.7 13.38
2/8/2021 3:00:00 AM -0.15 31.73 0.629 7.62 3.05 13.38
2/8/2021 3:15:00 AM -0.14 31.748 0.628 7.61 2.84 13.33
2/8/2021 3:30:00 AM -0.15 31.73 0.626 7.6 3.01 13.33
2/8/2021 3:45:00 AM -0.16 31.712 0.623 7.59 2.99 13.34
2/8/2021 4:00:00 AM -0.15 31.73 0.621 7.58 2.96 13.32
2/8/2021 4:15:00 AM -0.15 31.73 0.62 7.56 2.83 13.29
2/8/2021 4:30:00 AM -0.14 31.748 0.619 7.55 2.51 13.27
2/8/2021 4:45:00 AM -0.14 31.748 0.618 7.55 2.62 13.28
2/8/2021 5:00:00 AM -0.13 31.766 0.617 7.54 2.61 13.26
2/8/2021 5:15:00 AM -0.13 31.766 0.616 7.52 2.44 13.26
2/8/2021 5:30:00 AM -0.13 31.766 0.614 7.52 2.84 13.25
2/8/2021 5:45:00 AM -0.13 31.766 0.613 7.51 2.61 13.25
2/8/2021 6:00:00 AM -0.12 31.784 0.613 7.5 2.46 13.23
2/8/2021 6:15:00 AM -0.1 31.82 0.613 7.49 2.54 13.22
2/8/2021 6:30:00 AM -0.11 31.802 0.612 7.48 2.47 13.2
2/8/2021 6:45:00 AM -0.1 31.82 0.612 7.47 2.43 13.19
2/8/2021 7:00:00 AM -0.11 31.802 0.612 7.46 2.63 13.17
2/8/2021 7:15:00 AM -0.1 31.82 0.611 7.46 2.64 13.12
2/8/2021 7:30:00 AM -0.09 31.838 0.611 7.45 2.53 13.1
2/8/2021 7:45:00 AM -0.09 31.838 0.61 7.44 2.58 13.11
2/8/2021 8:00:00 AM -0.09 31.838 0.61 7.42 2.55 13.13
2/8/2021 8:15:00 AM -0.08 31.856 0.608 7.43 2.55 13.17
2/8/2021 8:30:00 AM -0.06 31.892 0.607 7.43 2.61 13.26
2/8/2021 8:45:00 AM -0.04 31.928 0.605 7.42 2.7 13.32
2/8/2021 9:00:00 AM 0.01 32.018 0.606 7.42 2.71 13.36
2/8/2021 9:15:00 AM 0.05 32.09 0.603 7.43 2.68 13.45
2/8/2021 9:30:00 AM 0.09 32.162 0.601 7.43 2.7 13.53
2/8/2021 9:45:00 AM 0.11 32.198 0.599 7.44 2.43 13.65
2/8/2021 10:00:00 AM 0.13 32.234 0.597 7.46 2.58 13.79
2/8/2021 10:15:00 AM 0.15 32.27 0.595 7.48 2.72 13.9
2/8/2021 10:30:00 AM 0.17 32.306 0.595 7.49 2.65 14.04
2/8/2021 10:45:00 AM 0.21 32.378 0.594 7.51 2.71 14.2
2/8/2021 11:00:00 AM 0.24 32.432 0.593 7.52 2.69 14.31
2/8/2021 11:15:00 AM 0.29 32.522 0.593 7.54 2.56 14.46
2/8/2021 11:30:00 AM 0.33 32.594 0.591 7.56 2.31 14.6
2/8/2021 11:45:00 AM 0.38 32.684 0.591 7.58 2.53 14.75
2/8/2021 12:00:00 PM 0.43 32.774 0.59 7.61 2.3 14.9
2/8/2021 12:15:00 PM 0.48 32.864 0.59 7.61 2.44 15.02
2/8/2021 12:30:00 PM 0.55 32.99 0.591 7.63 2.72 15.15
2/8/2021 12:45:00 PM 0.56 33.008 0.591 7.65 2.72 15.27
2/8/2021 1:00:00 PM 0.56 33.008 0.592 7.66 2.58 15.4
2/8/2021 1:15:00 PM 0.57 33.026 0.593 7.66 2.46 15.48
2/8/2021 1:30:00 PM 0.6 33.08 0.594 7.67 2.72 15.58
2/8/2021 1:45:00 PM 0.62 33.116 0.595 7.69 2.49 15.68
2/8/2021 2:00:00 PM 0.64 33.152 0.596 7.69 3.53 15.75
2/8/2021 2:15:00 PM 0.66 33.188 0.597 7.7 2.88 15.81
2/8/2021 2:30:00 PM 0.66 33.188 0.597 7.7 2.64 15.86
2/8/2021 2:45:00 PM 0.65 33.17 0.597 7.71 2.82 15.96
2/8/2021 3:00:00 PM 0.65 33.17 0.597 7.72 3.21 16.03
2/8/2021 3:15:00 PM 0.66 33.188 0.597 7.73 2.75 16.11
2/8/2021 3:30:00 PM 0.65 33.17 0.597 7.74 2.48 16.17
2/8/2021 3:45:00 PM 0.62 33.116 0.597 7.74 3.09 16.25
2/8/2021 4:00:00 PM 0.56 33.008 0.596 7.76 3.19 16.33
2/8/2021 4:15:00 PM 0.52 32.936 0.595 7.78 3.17 16.41
2/8/2021 4:30:00 PM 0.49 32.882 0.595 7.79 2.97 16.45
2/8/2021 4:45:00 PM 0.43 32.774 0.594 7.8 2.73 16.49
2/8/2021 5:00:00 PM 0.38 32.684 0.592 7.81 2.84 16.51
2/8/2021 5:15:00 PM 0.33 32.594 0.59 7.83 3.21 16.52
2/8/2021 5:30:00 PM 0.28 32.504 0.589 7.84 2.71 16.52
2/8/2021 5:45:00 PM 0.25 32.45 0.588 7.84 2.46 16.49
2/8/2021 6:00:00 PM 0.22 32.396 0.587 7.85 3.09 16.43
2/8/2021 6:15:00 PM 0.2 32.36 0.585 7.86 2.88 16.37
2/8/2021 6:30:00 PM 0.18 32.324 0.584 7.86 2.35 16.3
2/8/2021 6:45:00 PM 0.17 32.306 0.584 7.86 2.56 16.23
2/8/2021 7:00:00 PM 0.16 32.288 0.583 7.86 2.69 16.13
2/8/2021 7:15:00 PM 0.14 32.252 0.583 7.85 2.36 16.04
2/8/2021 7:30:00 PM 0.14 32.252 0.583 7.85 2.62 15.94
2/8/2021 7:45:00 PM 0.13 32.234 0.584 7.83 2.5 15.84
2/8/2021 8:00:00 PM 0.12 32.216 0.584 7.83 2.79 15.71
2/8/2021 8:15:00 PM 0.1 32.18 0.585 7.82 2.62 15.62
2/8/2021 8:30:00 PM 0.1 32.18 0.586 7.81 2.98 15.49
2/8/2021 8:45:00 PM 0.09 32.162 0.587 7.8 2.87 15.39
2/8/2021 9:00:00 PM 0.09 32.162 0.588 7.78 2.76 15.28
2/8/2021 9:15:00 PM 0.09 32.162 0.589 7.76 3.1 15.16
2/8/2021 9:30:00 PM 0.09 32.162 0.59 7.76 3.18 15.05
2/8/2021 9:45:00 PM 0.08 32.144 0.591 7.75 3.19 14.94
2/8/2021 10:00:00 PM 0.09 32.162 0.593 7.74 3.09 14.84
2/8/2021 10:15:00 PM 0.08 32.144 0.594 7.74 2.64 14.75
2/8/2021 10:30:00 PM 0.08 32.144 0.595 7.72 2.69 14.67
2/8/2021 10:45:00 PM 0.08 32.144 0.597 7.72 3.07 14.56
2/8/2021 11:00:00 PM 0.08 32.144 0.599 7.72 2.87 14.47
2/8/2021 11:15:00 PM 0.08 32.144 0.6 7.72 3.06 14.41
2/8/2021 11:30:00 PM 0.08 32.144 0.602 7.72 3.14 14.31
2/8/2021 11:45:00 PM 0.08 32.144 0.603 7.71 2.87 14.23
2/9/2021 12:00:00 AM 0.08 32.144 0.604 7.7 2.82 14.16
2/9/2021 12:15:00 AM 0.08 32.144 0.606 7.7 2.98 14.07
2/9/2021 12:30:00 AM 0.09 32.162 0.607 7.67 2.94 13.99
2/9/2021 12:45:00 AM 0.08 32.144 0.607 7.68 3.02 13.92
2/9/2021 1:00:00 AM 0.08 32.144 0.608 7.68 2.52 13.84
2/9/2021 1:15:00 AM 0.09 32.162 0.609 7.67 3.01 13.78
2/9/2021 1:30:00 AM 0.08 32.144 0.608 7.66 2.69 13.71
2/9/2021 1:45:00 AM 0.08 32.144 0.608 7.65 2.69 13.64
2/9/2021 2:00:00 AM 0.09 32.162 0.608 7.64 2.7 13.58
2/9/2021 2:15:00 AM 0.1 32.18 0.607 7.63 3.12 13.52
2/9/2021 2:30:00 AM 0.11 32.198 0.606 7.63 2.96 13.47
2/9/2021 2:45:00 AM 0.11 32.198 0.604 7.62 2.78 13.41
2/9/2021 3:00:00 AM 0.13 32.234 0.603 7.61 3.07 13.35
2/9/2021 3:15:00 AM 0.13 32.234 0.601 7.59 3.18 13.31
2/9/2021 3:30:00 AM 0.13 32.234 0.6 7.58 2.84 13.27
2/9/2021 3:45:00 AM 0.14 32.252 0.599 7.57 2.66 13.2
2/9/2021 4:00:00 AM 0.15 32.27 0.596 7.57 2.8 13.16
2/9/2021 4:15:00 AM 0.15 32.27 0.592 7.56 3.11 13.16
2/9/2021 4:30:00 AM 0.16 32.288 0.59 7.55 2.66 13.13
2/9/2021 4:45:00 AM 0.16 32.288 0.587 7.54 2.91 13.1
2/9/2021 5:00:00 AM 0.17 32.306 0.585 7.53 3.02 13.07
2/9/2021 5:15:00 AM 0.17 32.306 0.582 7.53 3.12 13.05
2/9/2021 5:30:00 AM 0.16 32.288 0.578 7.52 2.94 13.04
2/9/2021 5:45:00 AM 0.17 32.306 0.576 7.51 2.88 13
2/9/2021 6:00:00 AM 0.14 32.252 0.571 7.5 2.92 13.02
2/9/2021 6:15:00 AM 0.13 32.234 0.569 7.49 2.81 13.01
2/9/2021 6:30:00 AM 0.13 32.234 0.567 7.49 2.77 13
2/9/2021 6:45:00 AM 0.13 32.234 0.565 7.48 2.68 12.97
2/9/2021 7:00:00 AM 0.12 32.216 0.562 7.48 3.02 12.97
2/9/2021 7:15:00 AM 0.12 32.216 0.56 7.46 2.6 12.96
2/9/2021 7:30:00 AM 0.12 32.216 0.559 7.46 2.96 12.95
2/9/2021 7:45:00 AM 0.12 32.216 0.56 7.46 3.52 12.95
2/9/2021 8:00:00 AM 0.13 32.234 0.557 7.46 3.03 13
2/9/2021 8:15:00 AM 0.13 32.234 0.558 7.46 3.14 13.02
2/9/2021 8:30:00 AM 0.14 32.252 0.558 7.45 3.33 13.02
2/9/2021 8:45:00 AM 0.14 32.252 0.558 7.47 2.97 13.1
2/9/2021 9:00:00 AM 0.16 32.288 0.56 7.46 3.55 13.15
2/9/2021 9:15:00 AM 0.18 32.324 0.56 7.48 3.4 13.24
2/9/2021 9:30:00 AM 0.22 32.396 0.562 7.49 3.74 13.35
2/9/2021 9:45:00 AM 0.24 32.432 0.563 7.49 3.07 13.41
2/9/2021 10:00:00 AM 0.26 32.468 0.564 7.5 4.06 13.46
2/9/2021 10:15:00 AM 0.31 32.558 0.566 7.51 5.81 13.58
2/9/2021 10:30:00 AM 0.36 32.648 0.568 7.51 4.31 13.65
2/9/2021 10:45:00 AM 0.4 32.72 0.568 7.53 4.61 13.76
2/9/2021 11:00:00 AM 0.48 32.864 0.57 7.54 6.14 13.88
2/9/2021 11:15:00 AM 0.53 32.954 0.571 7.56 5.04 13.96
2/9/2021 11:30:00 AM 0.58 33.044 0.572 7.56 4.41 14.06
2/9/2021 11:45:00 AM 0.64 33.152 0.573 7.57 3.82 14.15
2/9/2021 12:00:00 PM 0.7 33.26 0.574 7.59 3.7 14.3
2/9/2021 12:15:00 PM 0.79 33.422 0.575 7.61 4.14 14.47
2/9/2021 12:30:00 PM 0.84 33.512 0.575 7.62 3.89 14.53
2/9/2021 12:45:00 PM 0.93 33.674 0.575 7.65 3.11 14.7
2/9/2021 1:00:00 PM 1 33.8 0.575 7.67 3.47 14.87
2/9/2021 1:15:00 PM 1.04 33.872 0.575 7.67 4.73 14.99
2/9/2021 1:30:00 PM 1.07 33.926 0.575 7.7 5.03 15.1
2/9/2021 1:45:00 PM 1.09 33.962 0.575 7.71 4.32 15.19
2/9/2021 2:00:00 PM 1.11 33.998 0.574 7.72 3.41 15.3
2/9/2021 2:15:00 PM 1.13 34.034 0.574 7.74 3.44 15.39
2/9/2021 2:30:00 PM 1.14 34.052 0.573 7.76 3.28 15.45
2/9/2021 2:45:00 PM 1.18 34.124 0.572 7.77 4.01 15.53
2/9/2021 3:00:00 PM 1.22 34.196 0.572 7.79 4.25 15.6
2/9/2021 3:15:00 PM 1.23 34.214 0.571 7.79 5.47 15.62
2/9/2021 3:30:00 PM 1.24 34.232 0.57 7.8 6.99 15.64
2/9/2021 3:45:00 PM 1.24 34.232 0.569 7.81 6.65 15.66
2/9/2021 4:00:00 PM 1.24 34.232 0.569 7.82 6.03 15.66
2/9/2021 4:15:00 PM 1.24 34.232 0.568 7.82 6.88 15.66
2/9/2021 4:30:00 PM 1.25 34.25 0.567 7.83 5.82 15.66
2/9/2021 4:45:00 PM 1.26 34.268 0.566 7.84 5.03 15.66
2/9/2021 5:00:00 PM 1.27 34.286 0.566 7.85 6.59 15.64
2/9/2021 5:15:00 PM 1.29 34.322 0.565 7.86 5.9 15.62
2/9/2021 5:30:00 PM 1.29 34.322 0.565 7.85 5.24 15.56
2/9/2021 5:45:00 PM 1.31 34.358 0.564 7.85 5.5 15.54
2/9/2021 6:00:00 PM 1.32 34.376 0.564 7.86 5.39 15.48
2/9/2021 6:15:00 PM 1.34 34.412 0.563 7.86 4.61 15.42
2/9/2021 6:30:00 PM 1.35 34.43 0.563 7.85 5.74 15.35
2/9/2021 6:45:00 PM 1.37 34.466 0.563 7.86 3.86 15.28
2/9/2021 7:00:00 PM 1.38 34.484 0.563 7.85 3.1 15.22
2/9/2021 7:15:00 PM 1.4 34.52 0.563 7.86 3.05 15.14
2/9/2021 7:30:00 PM 1.42 34.556 0.564 7.85 3.16 15.04
2/9/2021 7:45:00 PM 1.43 34.574 0.563 7.85 3.05 14.98
2/9/2021 8:00:00 PM 1.45 34.61 0.563 7.84 3.11 14.87
2/9/2021 8:15:00 PM 1.46 34.628 0.563 7.83 2.68 14.76
2/9/2021 8:30:00 PM 1.47 34.646 0.563 7.82 3.3 14.67
2/9/2021 8:45:00 PM 1.49 34.682 0.563 7.81 3.39 14.55
2/9/2021 9:00:00 PM 1.5 34.7 0.563 7.81 3.35 14.46
2/9/2021 9:15:00 PM 1.52 34.736 0.563 7.79 3.52 14.35
2/9/2021 9:30:00 PM 1.52 34.736 0.563 7.78 3.28 14.24
2/9/2021 9:45:00 PM 1.53 34.754 0.563 7.78 3.44 14.14
2/9/2021 10:00:00 PM 1.54 34.772 0.564 7.76 3.27 14.03
2/9/2021 10:15:00 PM 1.54 34.772 0.564 7.75 3.29 13.96
2/9/2021 10:30:00 PM 1.54 34.772 0.564 7.75 3.29 13.87
2/9/2021 10:45:00 PM 1.54 34.772 0.564 7.74 2.76 13.78
2/9/2021 11:00:00 PM 1.54 34.772 0.564 7.72 2.79 13.69
2/9/2021 11:15:00 PM 1.53 34.754 0.565 7.7 2.61 13.63
2/9/2021 11:30:00 PM 1.52 34.736 0.565 7.7 2.35 13.57
2/9/2021 11:45:00 PM 1.51 34.718 0.565 7.69 2.43 13.48
2/10/2021 12:00:00 AM 1.5 34.7 0.565 7.68 2.52 13.43
2/10/2021 12:15:00 AM 1.49 34.682 0.566 7.68 2.41 13.36
2/10/2021 12:30:00 AM 1.47 34.646 0.566 7.67 2.27 13.29
2/10/2021 12:45:00 AM 1.46 34.628 0.566 7.65 2.44 13.23
2/10/2021 1:00:00 AM 1.45 34.61 0.566 7.65 2.18 13.17
2/10/2021 1:15:00 AM 1.45 34.61 0.567 7.64 2.43 13.11
2/10/2021 1:30:00 AM 1.43 34.574 0.567 7.64 2.44 13.07
2/10/2021 1:45:00 AM 1.41 34.538 0.567 7.63 2.19 13.01
2/10/2021 2:00:00 AM 1.39 34.502 0.568 7.61 2.95 12.96
2/10/2021 2:15:00 AM 1.38 34.484 0.568 7.61 2.69 12.92
2/10/2021 2:30:00 AM 1.34 34.412 0.568 7.6 2.58 12.9
2/10/2021 2:45:00 AM 1.32 34.376 0.569 7.6 2.53 12.85
2/10/2021 3:00:00 AM 1.3 34.34 0.569 7.58 2.75 12.82
2/10/2021 3:15:00 AM 1.28 34.304 0.569 7.58 2.89 12.78
2/10/2021 3:30:00 AM 1.27 34.286 0.57 7.58 3.04 12.75
2/10/2021 3:45:00 AM 1.25 34.25 0.57 7.57 2.66 12.71
2/10/2021 4:00:00 AM 1.22 34.196 0.569 7.56 2.5 12.71
2/10/2021 4:15:00 AM 1.21 34.178 0.569 7.56 2.39 12.67
2/10/2021 4:30:00 AM 1.18 34.124 0.57 7.56 2.66 12.68
2/10/2021 4:45:00 AM 1.16 34.088 0.569 7.55 2.67 12.66
2/10/2021 5:00:00 AM 1.14 34.052 0.569 7.54 2.67 12.66
2/10/2021 5:15:00 AM 1.12 34.016 0.569 7.54 2.87 12.65
2/10/2021 5:30:00 AM 1.11 33.998 0.569 7.54 2.69 12.63
2/10/2021 5:45:00 AM 1.1 33.98 0.569 7.54 2.55 12.62
2/10/2021 6:00:00 AM 1.09 33.962 0.568 7.53 2.63 12.6
2/10/2021 6:15:00 AM 1.06 33.908 0.568 7.52 2.55 12.6
2/10/2021 6:30:00 AM 1.04 33.872 0.568 7.52 2.61 12.59
2/10/2021 6:45:00 AM 1.01 33.818 0.567 7.52 2.78 12.6
2/10/2021 7:00:00 AM 0.98 33.764 0.567 7.52 3.76 12.58
2/10/2021 7:15:00 AM 0.95 33.71 0.568 7.51 2.4 12.59
2/10/2021 7:30:00 AM 0.91 33.638 0.567 7.51 2.48 12.62
2/10/2021 7:45:00 AM 0.89 33.602 0.567 7.51 2.76 12.63
2/10/2021 8:00:00 AM 0.87 33.566 0.567 7.51 3.87 12.72
2/10/2021 8:15:00 AM 0.85 33.53 0.567 7.52 3.63 12.79
2/10/2021 8:30:00 AM 0.84 33.512 0.567 7.52 4.4 12.85
2/10/2021 8:45:00 AM 0.83 33.494 0.567 7.53 7.16 12.89
2/10/2021 9:00:00 AM 0.82 33.476 0.568 7.53 5.3 12.96
2/10/2021 9:15:00 AM 0.79 33.422 0.567 7.53 5.61 13.07
2/10/2021 9:30:00 AM 0.79 33.422 0.567 7.53 4.27 13.14
2/10/2021 9:45:00 AM 0.79 33.422 0.568 7.54 4.05 13.2
2/10/2021 10:00:00 AM 0.79 33.422 0.568 7.56 4.66 13.33
2/10/2021 10:15:00 AM 0.83 33.494 0.569 7.55 3.77 13.39
2/10/2021 10:30:00 AM 0.91 33.638 0.57 7.57 4.41 13.57
2/10/2021 10:45:00 AM 0.98 33.764 0.57 7.58 4.1 13.67
2/10/2021 11:00:00 AM 1.05 33.89 0.571 7.59 3.63 13.74
2/10/2021 11:15:00 AM 1.1 33.98 0.572 7.6 3.37 13.82
2/10/2021 11:30:00 AM 1.18 34.124 0.574 7.62 3.39 14.03
2/10/2021 11:45:00 AM 1.25 34.25 0.575 7.62 4 14.1
2/10/2021 12:00:00 PM 1.35 34.43 0.576 7.63 3.69 14.19
2/10/2021 12:15:00 PM 1.45 34.61 0.577 7.65 4.02 14.34
2/10/2021 12:30:00 PM 1.49 34.682 0.578 7.66 3.49 14.48
2/10/2021 12:45:00 PM 1.51 34.718 0.58 7.68 3.7 14.61
2/10/2021 1:00:00 PM 1.57 34.826 0.582 7.68 4.1 14.7
2/10/2021 1:15:00 PM 1.66 34.988 0.582 7.71 3.47 14.88
2/10/2021 1:30:00 PM 1.68 35.024 0.583 7.71 3.13 14.95
2/10/2021 1:45:00 PM 1.7 35.06 0.584 7.74 3.48 15.05
2/10/2021 2:00:00 PM 1.72 35.096 0.585 7.74 5.37 15.14
2/10/2021 2:15:00 PM 1.73 35.114 0.585 7.76 4.37 15.24
2/10/2021 2:30:00 PM 1.74 35.132 0.586 7.76 4.31 15.26
2/10/2021 2:45:00 PM 1.76 35.168 0.585 7.78 4.41 15.36
2/10/2021 3:00:00 PM 1.8 35.24 0.585 7.8 3.83 15.49
2/10/2021 3:15:00 PM 1.85 35.33 0.585 7.81 4.7 15.55
2/10/2021 3:30:00 PM 1.89 35.402 0.584 7.81 5.64 15.55
2/10/2021 3:45:00 PM 1.94 35.492 0.584 7.83 5.95 15.65
2/10/2021 4:00:00 PM 1.98 35.564 0.584 7.85 4.8 15.7
2/10/2021 4:15:00 PM 2.02 35.636 0.583 7.85 4.51 15.71
2/10/2021 4:30:00 PM 2.07 35.726 0.584 7.88 3.6 15.82
2/10/2021 4:45:00 PM 2.12 35.816 0.583 7.9 4.9 15.85
2/10/2021 5:00:00 PM 2.15 35.87 0.583 7.9 5.07 15.84
2/10/2021 5:15:00 PM 2.17 35.906 0.584 7.9 4.54 15.8
2/10/2021 5:30:00 PM 2.18 35.924 0.585 7.91 4.43 15.8
2/10/2021 5:45:00 PM 2.2 35.96 0.586 7.91 4.49 15.73
2/10/2021 6:00:00 PM 2.21 35.978 0.587 7.91 4.32 15.69
2/10/2021 6:15:00 PM 2.22 35.996 0.589 7.92 4.72 15.64
2/10/2021 6:30:00 PM 2.23 36.014 0.59 7.92 4.26 15.59
2/10/2021 6:45:00 PM 2.24 36.032 0.592 7.93 4.01 15.53
2/10/2021 7:00:00 PM 2.25 36.05 0.595 7.92 4.36 15.45
2/10/2021 7:15:00 PM 2.26 36.068 0.597 7.92 3.78 15.39
2/10/2021 7:30:00 PM 2.26 36.068 0.599 7.92 3.76 15.3
2/10/2021 7:45:00 PM 2.26 36.068 0.601 7.92 3.2 15.22
2/10/2021 8:00:00 PM 2.27 36.086 0.604 7.92 3.8 15.12
2/10/2021 8:15:00 PM 2.26 36.068 0.606 7.91 3.29 15.01
2/10/2021 8:30:00 PM 2.26 36.068 0.609 7.89 3.5 14.89
2/10/2021 8:45:00 PM 2.25 36.05 0.61 7.89 3.23 14.78
2/10/2021 9:00:00 PM 2.24 36.032 0.612 7.87 3.33 14.68
2/10/2021 9:15:00 PM 2.23 36.014 0.614 7.86 3.36 14.54
2/10/2021 9:30:00 PM 2.22 35.996 0.616 7.84 3.4 14.41
2/10/2021 9:45:00 PM 2.21 35.978 0.617 7.83 3.1 14.3
2/10/2021 10:00:00 PM 2.19 35.942 0.618 7.82 3.31 14.17
2/10/2021 10:15:00 PM 2.17 35.906 0.619 7.81 3.26 14.07
2/10/2021 10:30:00 PM 2.15 35.87 0.62 7.8 3.12 13.95
2/10/2021 10:45:00 PM 2.14 35.852 0.62 7.79 3.18 13.84
2/10/2021 11:00:00 PM 2.13 35.834 0.62 7.78 2.8 13.77
2/10/2021 11:15:00 PM 2.12 35.816 0.621 7.77 3.21 13.69
2/10/2021 11:30:00 PM 2.1 35.78 0.62 7.77 3.14 13.61
2/10/2021 11:45:00 PM 2.08 35.744 0.62 7.76 3.09 13.54
2/11/2021 12:00:00 AM 2.05 35.69 0.62 7.74 3.08 13.46
2/11/2021 12:15:00 AM 2.03 35.654 0.619 7.74 2.82 13.4
2/11/2021 12:30:00 AM 2.01 35.618 0.62 7.73 2.79 13.33
2/11/2021 12:45:00 AM 2 35.6 0.618 7.73 2.54 13.27
2/11/2021 1:00:00 AM 1.98 35.564 0.618 7.72 2.66 13.19
2/11/2021 1:15:00 AM 1.95 35.51 0.618 7.71 2.42 13.13
2/11/2021 1:30:00 AM 1.93 35.474 0.617 7.7 2.35 13.07
2/11/2021 1:45:00 AM 1.89 35.402 0.616 7.69 2.32 13
2/11/2021 2:00:00 AM 1.85 35.33 0.615 7.69 2.31 12.96
2/11/2021 2:15:00 AM 1.81 35.258 0.615 7.68 2.5 12.92
2/11/2021 2:30:00 AM 1.78 35.204 0.615 7.67 2.46 12.87
2/11/2021 2:45:00 AM 1.76 35.168 0.614 7.66 2.92 12.83
2/11/2021 3:00:00 AM 1.73 35.114 0.614 7.65 2.52 12.77
2/11/2021 3:15:00 AM 1.71 35.078 0.613 7.65 2.4 12.75
2/11/2021 3:30:00 AM 1.68 35.024 0.612 7.64 2.47 12.71
2/11/2021 3:45:00 AM 1.64 34.952 0.611 7.63 2.41 12.7
2/11/2021 4:00:00 AM 1.62 34.916 0.611 7.63 2.6 12.66
2/11/2021 4:15:00 AM 1.59 34.862 0.611 7.62 2.34 12.63
2/11/2021 4:30:00 AM 1.55 34.79 0.61 7.62 2.54 12.62
2/11/2021 4:45:00 AM 1.52 34.736 0.61 7.61 2.34 12.61
2/11/2021 5:00:00 AM 1.49 34.682 0.61 7.6 2.35 12.58
2/11/2021 5:15:00 AM 1.47 34.646 0.609 7.6 2.24 12.57
2/11/2021 5:30:00 AM 1.43 34.574 0.609 7.6 2.37 12.56
2/11/2021 5:45:00 AM 1.42 34.556 0.609 7.59 2.22 12.53
2/11/2021 6:00:00 AM 1.39 34.502 0.608 7.59 2.08 12.54
2/11/2021 6:15:00 AM 1.36 34.448 0.608 7.58 2.46 12.54
2/11/2021 6:30:00 AM 1.35 34.43 0.607 7.58 2.42 12.5
2/11/2021 6:45:00 AM 1.34 34.412 0.607 7.58 2.43 12.47
2/11/2021 7:00:00 AM 1.3 34.34 0.607 7.58 1.99 12.52
2/11/2021 7:15:00 AM 1.28 34.304 0.607 7.58 2.62 12.5
2/11/2021 7:30:00 AM 1.26 34.268 0.606 7.57 2.4 12.5
2/11/2021 7:45:00 AM 1.25 34.25 0.606 7.57 3.03 12.52
2/11/2021 8:00:00 AM 1.24 34.232 0.606 7.58 2.68 12.54
2/11/2021 8:15:00 AM 1.25 34.25 0.606 7.58 2.66 12.62
2/11/2021 8:30:00 AM 1.26 34.268 0.605 7.57 4.08 12.67
2/11/2021 8:45:00 AM 1.26 34.268 0.605 7.59 4.41 12.77
2/11/2021 9:00:00 AM 1.28 34.304 0.605 7.59 4.08 12.84
2/11/2021 9:15:00 AM 1.29 34.322 0.604 7.58 4.91 12.9
2/11/2021 9:30:00 AM 1.3 34.34 0.604 7.6 8.33 12.93
2/11/2021 9:45:00 AM 1.31 34.358 0.604 7.6 9.52 13.03
2/11/2021 10:00:00 AM 1.32 34.376 0.604 7.61 7.47 13.13
2/11/2021 10:15:00 AM 1.37 34.466 0.603 7.62 5.77 13.29
2/11/2021 10:30:00 AM 1.43 34.574 0.603 7.63 5.21 13.38
2/11/2021 10:45:00 AM 1.49 34.682 0.603 7.64 4.46 13.46
2/11/2021 11:00:00 AM 1.58 34.844 0.603 7.65 4.51 13.66
2/11/2021 11:15:00 AM 1.62 34.916 0.603 7.66 3.62 13.73
2/11/2021 11:30:00 AM 1.69 35.042 0.603 7.67 5.77 13.85
2/11/2021 11:45:00 AM 1.81 35.258 0.603 7.67 7.45 13.91
2/11/2021 12:00:00 PM 2.01 35.618 0.603 7.7 6.4 14.12
2/11/2021 12:15:00 PM 2.12 35.816 0.603 7.71 5.67 14.22
2/11/2021 12:30:00 PM 2.19 35.942 0.603 7.73 4.71 14.45
2/11/2021 12:45:00 PM 2.2 35.96 0.603 7.74 5 14.53
2/11/2021 1:00:00 PM 2.22 35.996 0.604 7.75 4.31 14.66
2/11/2021 1:15:00 PM 2.28 36.104 0.604 7.78 4.85 14.79
2/11/2021 1:30:00 PM 2.35 36.23 0.604 7.8 4.61 14.97
2/11/2021 1:45:00 PM 2.42 36.356 0.604 7.81 6.12 15.02
2/11/2021 2:00:00 PM 2.42 36.356 0.604 7.81 5.38 15.1
2/11/2021 2:15:00 PM 2.43 36.374 0.604 7.83 7.65 15.19
2/11/2021 2:30:00 PM 2.44 36.392 0.603 7.85 6.02 15.3
2/11/2021 2:45:00 PM 2.46 36.428 0.603 7.86 5.65 15.36
2/11/2021 3:00:00 PM 2.48 36.464 0.602 7.87 4.58 15.42
2/11/2021 3:15:00 PM 2.5 36.5 0.602 7.89 5.75 15.48
2/11/2021 3:30:00 PM 2.49 36.482 0.601 7.9 5.71 15.56
2/11/2021 3:45:00 PM 2.5 36.5 0.601 7.91 4.95 15.57
2/11/2021 4:00:00 PM 2.51 36.518 0.599 7.92 4.34 15.65
2/11/2021 4:15:00 PM 2.54 36.572 0.599 7.93 5.43 15.68
2/11/2021 4:30:00 PM 2.54 36.572 0.598 7.93 4.46 15.64
2/11/2021 4:45:00 PM 2.54 36.572 0.598 7.95 5.07 15.67
2/11/2021 5:00:00 PM 2.53 36.554 0.597 7.95 8.15 15.66
2/11/2021 5:15:00 PM 2.52 36.536 0.596 7.96 5.91 15.65
2/11/2021 5:30:00 PM 2.49 36.482 0.595 7.96 4.55 15.63
2/11/2021 5:45:00 PM 2.45 36.41 0.594 7.94 3.49 15.6
2/11/2021 6:00:00 PM 2.41 36.338 0.594 7.94 4.42 15.54
2/11/2021 6:15:00 PM 2.38 36.284 0.594 7.94 5.16 15.49
2/11/2021 6:30:00 PM 2.36 36.248 0.593 7.94 5.31 15.43
2/11/2021 6:45:00 PM 2.33 36.194 0.593 7.94 4.92 15.38
2/11/2021 7:00:00 PM 2.31 36.158 0.592 7.92 4.97 15.33
2/11/2021 7:15:00 PM 2.27 36.086 0.592 7.94 4.56 15.28
2/11/2021 7:30:00 PM 2.24 36.032 0.592 7.94 3.86 15.21
2/11/2021 7:45:00 PM 2.2 35.96 0.591 7.94 3.43 15.12
2/11/2021 8:00:00 PM 2.16 35.888 0.591 7.93 3.77 15.03
2/11/2021 8:15:00 PM 2.13 35.834 0.591 7.92 3.11 14.95
2/11/2021 8:30:00 PM 2.09 35.762 0.591 7.91 3.9 14.86
2/11/2021 8:45:00 PM 2.04 35.672 0.591 7.91 3.71 14.76
2/11/2021 9:00:00 PM 2 35.6 0.591 7.89 3.21 14.65
2/11/2021 9:15:00 PM 1.93 35.474 0.591 7.89 3.42 14.55
2/11/2021 9:30:00 PM 1.89 35.402 0.592 7.87 3.45 14.43
2/11/2021 9:45:00 PM 1.85 35.33 0.592 7.87 3.14 14.34
2/11/2021 10:00:00 PM 1.77 35.186 0.592 7.85 3.48 14.24
2/11/2021 10:15:00 PM 1.72 35.096 0.592 7.85 3.12 14.17
2/11/2021 10:30:00 PM 1.69 35.042 0.592 7.83 3.48 14.05
2/11/2021 10:45:00 PM 1.65 34.97 0.592 7.81 3.64 13.97
2/11/2021 11:00:00 PM 1.61 34.898 0.592 7.81 3.28 13.91
2/11/2021 11:15:00 PM 1.57 34.826 0.593 7.8 2.99 13.84
2/11/2021 11:30:00 PM 1.55 34.79 0.593 7.78 2.91 13.74
2/11/2021 11:45:00 PM 1.5 34.7 0.593 7.78 2.91 13.71
2/12/2021 12:00:00 AM 1.43 34.574 0.593 7.78 2.59 13.66
2/12/2021 12:15:00 AM 1.39 34.502 0.594 7.77 2.76 13.61
2/12/2021 12:30:00 AM 1.33 34.394 0.595 7.76 2.77 13.53
2/12/2021 12:45:00 AM 1.28 34.304 0.595 7.75 2.73 13.48
2/12/2021 1:00:00 AM 1.25 34.25 0.595 7.74 2.67 13.43
2/12/2021 1:15:00 AM 1.2 34.16 0.596 7.72 2.76 13.34
2/12/2021 1:30:00 AM 1.14 34.052 0.596 7.73 2.62 13.36
2/12/2021 1:45:00 AM 1.07 33.926 0.596 7.72 2.78 13.31
2/12/2021 2:00:00 AM 1.01 33.818 0.596 7.71 2.52 13.26
2/12/2021 2:15:00 AM 0.95 33.71 0.597 7.69 2.74 13.22
2/12/2021 2:30:00 AM 0.86 33.548 0.598 7.69 2.76 13.18
2/12/2021 2:45:00 AM 0.82 33.476 0.598 7.68 2.76 13.15
2/12/2021 3:00:00 AM 0.77 33.386 0.598 7.68 2.79 13.13
2/12/2021 3:15:00 AM 0.73 33.314 0.599 7.66 2.74 13.09
2/12/2021 3:30:00 AM 0.7 33.26 0.599 7.66 2.63 13.06
2/12/2021 3:45:00 AM 0.64 33.152 0.599 7.65 2.67 13.05
2/12/2021 4:00:00 AM 0.59 33.062 0.599 7.65 2.64 13.02
2/12/2021 4:15:00 AM 0.55 32.99 0.6 7.64 2.52 13.01
2/12/2021 4:30:00 AM 0.5 32.9 0.6 7.62 2.54 13.01
2/12/2021 4:45:00 AM 0.44 32.792 0.6 7.63 2.35 13
2/12/2021 5:00:00 AM 0.4 32.72 0.6 7.63 2.23 13
2/12/2021 5:15:00 AM 0.34 32.612 0.601 7.6 2.42 12.97
2/12/2021 5:30:00 AM 0.27 32.486 0.601 7.61 2.57 12.99
2/12/2021 5:45:00 AM 0.23 32.414 0.602 7.6 2.51 12.98
2/12/2021 6:00:00 AM 0.18 32.324 0.602 7.59 2.65 13
2/12/2021 6:15:00 AM 0.13 32.234 0.602 7.59 2.35 12.99
2/12/2021 6:30:00 AM 0.1 32.18 0.602 7.58 2.63 13.01
2/12/2021 6:45:00 AM 0.09 32.162 0.603 7.58 2.52 12.99
2/12/2021 7:00:00 AM 0.06 32.108 0.603 7.59 2.53 12.99
2/12/2021 7:15:00 AM 0.03 32.054 0.603 7.57 2.29 12.99
2/12/2021 7:30:00 AM 0.01 32.018 0.604 7.57 2.48 13.02
2/12/2021 7:45:00 AM 0.01 32.018 0.604 7.58 2.78 13.05
2/12/2021 8:00:00 AM 0 32 0.604 7.58 3.22 13.11
2/12/2021 8:15:00 AM 0.01 32.018 0.605 7.57 3.33 13.11
2/12/2021 8:30:00 AM -0.02 31.964 0.605 7.58 3.9 13.22
2/12/2021 8:45:00 AM 0.01 32.018 0.605 7.58 3.72 13.32
2/12/2021 9:00:00 AM 0.04 32.072 0.605 7.59 4.6 13.4
2/12/2021 9:15:00 AM 0.08 32.144 0.605 7.59 3.56 13.48
2/12/2021 9:30:00 AM 0.13 32.234 0.605 7.59 4.62 13.53
2/12/2021 9:45:00 AM 0.17 32.306 0.605 7.59 3.77 13.64
2/12/2021 10:00:00 AM 0.2 32.36 0.604 7.61 3.4 13.74
2/12/2021 10:15:00 AM 0.25 32.45 0.604 7.61 3.07 13.83
2/12/2021 10:30:00 AM 0.28 32.504 0.604 7.61 2.92 13.91
2/12/2021 10:45:00 AM 0.32 32.576 0.604 7.62 2.77 14.02
2/12/2021 11:00:00 AM 0.36 32.648 0.604 7.63 2.58 14.08
2/12/2021 11:15:00 AM 0.38 32.684 0.603 7.63 2.88 14.21
2/12/2021 11:30:00 AM 0.41 32.738 0.603 7.65 2.93 14.36
2/12/2021 11:45:00 AM 0.46 32.828 0.603 7.66 2.68 14.45
2/12/2021 12:00:00 PM 0.49 32.882 0.602 7.66 2.68 14.52
2/12/2021 12:15:00 PM 0.55 32.99 0.603 7.68 2.79 14.72
2/12/2021 12:30:00 PM 0.61 33.098 0.602 7.69 3.61 14.81
2/12/2021 12:45:00 PM 0.65 33.17 0.602 7.7 2.95 14.91
2/12/2021 1:00:00 PM 0.69 33.242 0.602 7.71 2.81 15.05
2/12/2021 1:15:00 PM 0.69 33.242 0.601 7.73 2.53 15.17
2/12/2021 1:30:00 PM 0.68 33.224 0.602 7.73 2.58 15.25
2/12/2021 1:45:00 PM 0.66 33.188 0.602 7.76 2.37 15.37
2/12/2021 2:00:00 PM 0.65 33.17 0.602 7.76 2.31 15.43
2/12/2021 2:15:00 PM 0.64 33.152 0.602 7.77 2.33 15.52
2/12/2021 2:30:00 PM 0.64 33.152 0.602 7.78 2.42 15.61
2/12/2021 2:45:00 PM 0.64 33.152 0.602 7.79 3.78 15.64
2/12/2021 3:00:00 PM 0.64 33.152 0.603 7.8 3.25 15.69
2/12/2021 3:15:00 PM 0.64 33.152 0.602 7.81 3.61 15.78
2/12/2021 3:30:00 PM 0.64 33.152 0.602 7.82 3.54 15.81
2/12/2021 3:45:00 PM 0.64 33.152 0.602 7.82 4.09 15.83
2/12/2021 4:00:00 PM 0.64 33.152 0.602 7.82 3.42 15.83
2/12/2021 4:15:00 PM 0.63 33.134 0.601 7.83 3.02 15.88
2/12/2021 4:30:00 PM 0.62 33.116 0.6 7.84 2.89 15.9
2/12/2021 4:45:00 PM 0.61 33.098 0.6 7.84 2.81 15.92
2/12/2021 5:00:00 PM 0.61 33.098 0.601 7.85 2.81 15.92
2/12/2021 5:15:00 PM 0.59 33.062 0.599 7.84 3.04 15.9
2/12/2021 5:30:00 PM 0.57 33.026 0.599 7.86 3.49 15.89
2/12/2021 5:45:00 PM 0.54 32.972 0.598 7.86 4.4 15.86
2/12/2021 6:00:00 PM 0.51 32.918 0.598 7.86 3.59 15.83
2/12/2021 6:15:00 PM 0.5 32.9 0.598 7.86 5.17 15.78
2/12/2021 6:30:00 PM 0.49 32.882 0.597 7.86 6.36 15.73
2/12/2021 6:45:00 PM 0.46 32.828 0.597 7.85 5.72 15.7
2/12/2021 7:00:00 PM 0.44 32.792 0.597 7.85 4.81 15.62
2/12/2021 7:15:00 PM 0.43 32.774 0.597 7.85 5.71 15.53
2/12/2021 7:30:00 PM 0.41 32.738 0.596 7.85 8 15.42
2/12/2021 7:45:00 PM 0.4 32.72 0.597 7.83 10.17 15.26
2/12/2021 8:00:00 PM 0.4 32.72 0.597 7.81 14.44 15.11
2/12/2021 8:15:00 PM 0.38 32.684 0.597 7.8 16.22 14.94
2/12/2021 8:30:00 PM 0.36 32.648 0.598 7.78 26.07 14.75
2/12/2021 8:45:00 PM 0.36 32.648 0.599 7.75 26.68 14.6
2/12/2021 9:00:00 PM 0.35 32.63 0.599 7.75 30.28 14.48
2/12/2021 9:15:00 PM 0.33 32.594 0.6 7.73 26.71 14.36
2/12/2021 9:30:00 PM 0.33 32.594 0.6 7.73 24.09 14.28
2/12/2021 9:45:00 PM 0.32 32.576 0.602 7.72 25.58 14.21
2/12/2021 10:00:00 PM 0.31 32.558 0.601 7.71 22.24 14.16
2/12/2021 10:15:00 PM 0.29 32.522 0.6 7.71 17.79 14.12
2/12/2021 10:30:00 PM 0.27 32.486 0.6 7.7 15.27 14.08
2/12/2021 10:45:00 PM 0.28 32.504 0.6 7.7 13.77 14.05
2/12/2021 11:00:00 PM 0.26 32.468 0.602 7.7 10.74 14.01
2/12/2021 11:15:00 PM 0.23 32.414 0.6 7.7 10.12 13.98
2/12/2021 11:30:00 PM 0.22 32.396 0.6 7.7 9.12 13.96
2/12/2021 11:45:00 PM 0.21 32.378 0.599 7.7 8.08 13.92
2/13/2021 12:00:00 AM 0.2 32.36 0.599 7.69 7.43 13.9
2/13/2021 12:15:00 AM 0.18 32.324 0.599 7.69 6.16 13.87
2/13/2021 12:30:00 AM 0.17 32.306 0.599 7.69 6.31 13.81
2/13/2021 12:45:00 AM 0.15 32.27 0.599 7.69 5.27 13.79
2/13/2021 1:00:00 AM 0.14 32.252 0.599 7.69 4.87 13.77
2/13/2021 1:15:00 AM 0.13 32.234 0.6 7.69 3.97 13.72
2/13/2021 1:30:00 AM 0.12 32.216 0.601 7.67 4.75 13.69
2/13/2021 1:45:00 AM 0.11 32.198 0.601 7.67 4.18 13.66
2/13/2021 2:00:00 AM 0.09 32.162 0.602 7.67 3.32 13.61
2/13/2021 2:15:00 AM 0.08 32.144 0.603 7.66 3.49 13.57
2/13/2021 2:30:00 AM 0.07 32.126 0.603 7.66 3.53 13.53
2/13/2021 2:45:00 AM 0.07 32.126 0.605 7.65 3.28 13.5
2/13/2021 3:00:00 AM 0.07 32.126 0.606 7.65 3.53 13.46
2/13/2021 3:15:00 AM 0.03 32.054 0.607 7.65 3.11 13.44
2/13/2021 3:30:00 AM 0.03 32.054 0.607 7.65 2.82 13.41
2/13/2021 3:45:00 AM 0 32 0.608 7.64 3.09 13.4
2/13/2021 4:00:00 AM -0.02 31.964 0.61 7.64 2.82 13.37
2/13/2021 4:15:00 AM -0.03 31.946 0.611 7.63 3.26 13.36
2/13/2021 4:30:00 AM -0.04 31.928 0.611 7.63 3.02 13.33
2/13/2021 4:45:00 AM -0.05 31.91 0.612 7.63 2.99 13.32
2/13/2021 5:00:00 AM -0.05 31.91 0.613 7.62 2.74 13.3
2/13/2021 5:15:00 AM -0.07 31.874 0.613 7.62 2.8 13.3
2/13/2021 5:30:00 AM -0.07 31.874 0.614 7.61 2.69 13.26
2/13/2021 5:45:00 AM -0.08 31.856 0.614 7.6 2.95 13.27
2/13/2021 6:00:00 AM -0.09 31.838 0.614 7.6 2.91 13.25
2/13/2021 6:15:00 AM -0.1 31.82 0.614 7.6 2.92 13.24
2/13/2021 6:30:00 AM -0.11 31.802 0.614 7.59 2.62 13.23
2/13/2021 6:45:00 AM -0.11 31.802 0.614 7.59 2.64 13.22
2/13/2021 7:00:00 AM -0.1 31.82 0.613 7.59 2.93 13.2
2/13/2021 7:15:00 AM -0.12 31.784 0.613 7.59 2.76 13.21
2/13/2021 7:30:00 AM -0.12 31.784 0.612 7.58 2.66 13.21
2/13/2021 7:45:00 AM -0.13 31.766 0.611 7.58 2.69 13.23
2/13/2021 8:00:00 AM -0.13 31.766 0.61 7.58 2.56 13.29
2/13/2021 8:15:00 AM -0.12 31.784 0.61 7.58 2.65 13.33
2/13/2021 8:30:00 AM -0.11 31.802 0.609 7.59 2.66 13.39
2/13/2021 8:45:00 AM -0.11 31.802 0.608 7.58 2.48 13.45
2/13/2021 9:00:00 AM -0.08 31.856 0.608 7.58 2.67 13.48
2/13/2021 9:15:00 AM -0.08 31.856 0.607 7.58 2.64 13.57
2/13/2021 9:30:00 AM -0.06 31.892 0.606 7.58 2.45 13.62
2/13/2021 9:45:00 AM -0.04 31.928 0.606 7.58 2.6 13.67
2/13/2021 10:00:00 AM 0 32 0.605 7.59 2.56 13.74
2/13/2021 10:15:00 AM 0.06 32.108 0.605 7.59 2.85 13.83
2/13/2021 10:30:00 AM 0.14 32.252 0.604 7.59 2.68 13.9
2/13/2021 10:45:00 AM 0.25 32.45 0.603 7.6 2.54 14
2/13/2021 11:00:00 AM 0.35 32.63 0.604 7.6 2.55 14.05
2/13/2021 11:15:00 AM 0.46 32.828 0.602 7.61 2.94 14.15
2/13/2021 11:30:00 AM 0.59 33.062 0.601 7.62 2.73 14.24
2/13/2021 11:45:00 AM 0.67 33.206 0.6 7.62 2.5 14.32
2/13/2021 12:00:00 PM 0.75 33.35 0.6 7.63 2.71 14.38
2/13/2021 12:15:00 PM 0.87 33.566 0.599 7.65 2.5 14.5
2/13/2021 12:30:00 PM 0.98 33.764 0.599 7.65 2.41 14.61
2/13/2021 12:45:00 PM 1.06 33.908 0.598 7.68 2.52 14.75
2/13/2021 1:00:00 PM 1.04 33.872 0.597 7.69 2.69 14.81
2/13/2021 1:15:00 PM 1.03 33.854 0.597 7.71 2.72 15
2/13/2021 1:30:00 PM 1.02 33.836 0.597 7.72 2.74 15.09
2/13/2021 1:45:00 PM 1.03 33.854 0.597 7.73 2.7 15.18
2/13/2021 2:00:00 PM 1.07 33.926 0.597 7.74 2.76 15.29
2/13/2021 2:15:00 PM 1.09 33.962 0.596 7.76 2.87 15.39
2/13/2021 2:30:00 PM 1.09 33.962 0.597 7.76 2.85 15.42
2/13/2021 2:45:00 PM 1.09 33.962 0.597 7.76 2.91 15.48
2/13/2021 3:00:00 PM 1.08 33.944 0.596 7.77 2.59 15.56
2/13/2021 3:15:00 PM 1.07 33.926 0.596 7.77 2.59 15.59
2/13/2021 3:30:00 PM 1.05 33.89 0.596 7.78 2.61 15.65
2/13/2021 3:45:00 PM 1.04 33.872 0.596 7.8 2.81 15.71
2/13/2021 4:00:00 PM 1.02 33.836 0.595 7.81 3.05 15.78
2/13/2021 4:15:00 PM 0.99 33.782 0.595 7.81 2.67 15.81
2/13/2021 4:30:00 PM 0.98 33.764 0.594 7.83 3.03 15.87
2/13/2021 4:45:00 PM 0.96 33.728 0.594 7.83 2.81 15.86
2/13/2021 5:00:00 PM 0.95 33.71 0.594 7.85 3.07 15.87
2/13/2021 5:15:00 PM 0.93 33.674 0.594 7.85 2.78 15.87
2/13/2021 5:30:00 PM 0.92 33.656 0.594 7.86 3.07 15.84
2/13/2021 5:45:00 PM 0.92 33.656 0.594 7.87 3.15 15.81
2/13/2021 6:00:00 PM 0.91 33.638 0.595 7.88 3.29 15.78
2/13/2021 6:15:00 PM 0.92 33.656 0.595 7.88 3.42 15.73
2/13/2021 6:30:00 PM 0.92 33.656 0.595 7.88 3.2 15.67
2/13/2021 6:45:00 PM 0.93 33.674 0.595 7.88 3.43 15.61
2/13/2021 7:00:00 PM 0.94 33.692 0.596 7.88 3.33 15.53
2/13/2021 7:15:00 PM 0.97 33.746 0.596 7.88 3.45 15.48
2/13/2021 7:30:00 PM 1 33.8 0.597 7.88 3.29 15.39
2/13/2021 7:45:00 PM 1.02 33.836 0.597 7.86 2.84 15.29
2/13/2021 8:00:00 PM 1.05 33.89 0.597 7.86 3.36 15.19
2/13/2021 8:15:00 PM 1.08 33.944 0.598 7.86 3.15 15.08
2/13/2021 8:30:00 PM 1.11 33.998 0.599 7.85 3.06 14.97
2/13/2021 8:45:00 PM 1.13 34.034 0.599 7.84 3.39 14.86
2/13/2021 9:00:00 PM 1.15 34.07 0.599 7.83 3.36 14.74
2/13/2021 9:15:00 PM 1.16 34.088 0.6 7.82 3.37 14.62
2/13/2021 9:30:00 PM 1.18 34.124 0.6 7.81 3.47 14.51
2/13/2021 9:45:00 PM 1.19 34.142 0.6 7.8 3.38 14.38
2/13/2021 10:00:00 PM 1.2 34.16 0.601 7.79 3.31 14.27
2/13/2021 10:15:00 PM 1.21 34.178 0.6 7.78 3.4 14.16
2/13/2021 10:30:00 PM 1.21 34.178 0.6 7.77 3.09 14.06
2/13/2021 10:45:00 PM 1.21 34.178 0.6 7.77 3.12 13.97
2/13/2021 11:00:00 PM 1.21 34.178 0.6 7.76 2.7 13.88
2/13/2021 11:15:00 PM 1.21 34.178 0.6 7.75 3.21 13.79
2/13/2021 11:30:00 PM 1.21 34.178 0.6 7.75 3.26 13.71
2/13/2021 11:45:00 PM 1.21 34.178 0.599 7.74 3.33 13.65
2/14/2021 12:00:00 AM 1.21 34.178 0.598 7.73 3.13 13.56
2/14/2021 12:15:00 AM 1.21 34.178 0.598 7.73 3.48 13.5
2/14/2021 12:30:00 AM 1.21 34.178 0.598 7.73 3.48 13.46
2/14/2021 12:45:00 AM 1.21 34.178 0.598 7.72 3.79 13.38
2/14/2021 1:00:00 AM 1.21 34.178 0.598 7.72 3.55 13.32
2/14/2021 1:15:00 AM 1.22 34.196 0.598 7.71 3.4 13.26
2/14/2021 1:30:00 AM 1.21 34.178 0.599 7.71 3.34 13.2
2/14/2021 1:45:00 AM 1.21 34.178 0.6 7.7 2.91 13.13
2/14/2021 2:00:00 AM 1.21 34.178 0.6 7.69 3.05 13.08
2/14/2021 2:15:00 AM 1.21 34.178 0.601 7.68 2.8 13.05
2/14/2021 2:30:00 AM 1.21 34.178 0.601 7.68 3.02 13
2/14/2021 2:45:00 AM 1.21 34.178 0.602 7.67 2.93 12.92
2/14/2021 3:00:00 AM 1.21 34.178 0.603 7.67 2.66 12.9
2/14/2021 3:15:00 AM 1.21 34.178 0.604 7.66 2.46 12.87
2/14/2021 3:30:00 AM 1.21 34.178 0.604 7.66 2.67 12.82
2/14/2021 3:45:00 AM 1.21 34.178 0.606 7.65 3.03 12.78
2/14/2021 4:00:00 AM 1.21 34.178 0.606 7.65 2.98 12.77
2/14/2021 4:15:00 AM 1.2 34.16 0.606 7.65 2.9 12.74
2/14/2021 4:30:00 AM 1.2 34.16 0.607 7.64 2.64 12.7
2/14/2021 4:45:00 AM 1.2 34.16 0.607 7.64 2.66 12.68
2/14/2021 5:00:00 AM 1.19 34.142 0.607 7.63 2.55 12.67
2/14/2021 5:15:00 AM 1.19 34.142 0.607 7.63 2.77 12.65
2/14/2021 5:30:00 AM 1.18 34.124 0.607 7.62 2.7 12.63
2/14/2021 5:45:00 AM 1.18 34.124 0.607 7.61 2.84 12.6
2/14/2021 6:00:00 AM 1.18 34.124 0.607 7.62 2.55 12.59
2/14/2021 6:15:00 AM 1.17 34.106 0.606 7.61 2.79 12.59
2/14/2021 6:30:00 AM 1.17 34.106 0.605 7.61 2.66 12.57
2/14/2021 6:45:00 AM 1.17 34.106 0.604 7.6 2.73 12.57
2/14/2021 7:00:00 AM 1.16 34.088 0.603 7.6 2.67 12.53
2/14/2021 7:15:00 AM 1.16 34.088 0.601 7.59 2.69 12.53
2/14/2021 7:30:00 AM 1.16 34.088 0.6 7.59 2.86 12.55
2/14/2021 7:45:00 AM 1.16 34.088 0.598 7.59 2.84 12.58
2/14/2021 8:00:00 AM 1.16 34.088 0.597 7.59 2.67 12.58
2/14/2021 8:15:00 AM 1.16 34.088 0.595 7.59 2.61 12.61
2/14/2021 8:30:00 AM 1.17 34.106 0.594 7.58 2.72 12.66
2/14/2021 8:45:00 AM 1.18 34.124 0.593 7.58 2.41 12.65
2/14/2021 9:00:00 AM 1.19 34.142 0.591 7.59 2.65 12.72
2/14/2021 9:15:00 AM 1.2 34.16 0.589 7.59 2.74 12.78
2/14/2021 9:30:00 AM 1.22 34.196 0.588 7.6 2.91 12.88
2/14/2021 9:45:00 AM 1.23 34.214 0.587 7.6 2.71 12.96
2/14/2021 10:00:00 AM 1.25 34.25 0.586 7.6 2.76 12.99
2/14/2021 10:15:00 AM 1.26 34.268 0.586 7.6 3.15 13.03
2/14/2021 10:30:00 AM 1.27 34.286 0.586 7.61 3.13 13.11
2/14/2021 10:45:00 AM 1.3 34.34 0.586 7.61 3.6 13.21
2/14/2021 11:00:00 AM 1.33 34.394 0.585 7.62 3.12 13.32
2/14/2021 11:15:00 AM 1.36 34.448 0.584 7.63 3.37 13.42
2/14/2021 11:30:00 AM 1.39 34.502 0.584 7.64 3.08 13.54
2/14/2021 11:45:00 AM 1.43 34.574 0.584 7.65 3.39 13.65
2/14/2021 12:00:00 PM 1.48 34.664 0.584 7.66 3.75 13.76
2/14/2021 12:15:00 PM 1.56 34.808 0.584 7.68 6.07 13.92
2/14/2021 12:30:00 PM 1.63 34.934 0.584 7.69 6.04 14.04
2/14/2021 12:45:00 PM 1.68 35.024 0.584 7.7 5.37 14.14
2/14/2021 1:00:00 PM 1.74 35.132 0.584 7.72 4.58 14.29
2/14/2021 1:15:00 PM 1.79 35.222 0.584 7.73 3.82 14.36
2/14/2021 1:30:00 PM 1.85 35.33 0.584 7.74 3.37 14.46
2/14/2021 1:45:00 PM 1.97 35.546 0.584 7.76 3.76 14.57
2/14/2021 2:00:00 PM 2.09 35.762 0.584 7.78 3.95 14.71
2/14/2021 2:15:00 PM 2.12 35.816 0.584 7.79 3.61 14.8
2/14/2021 2:30:00 PM 2.17 35.906 0.584 7.79 3.73 14.9
2/14/2021 2:45:00 PM 2.21 35.978 0.585 7.81 3.52 14.95
2/14/2021 3:00:00 PM 2.26 36.068 0.585 7.82 3.51 15.12
2/14/2021 3:15:00 PM 2.29 36.122 0.585 7.85 3.41 15.16
2/14/2021 3:30:00 PM 2.33 36.194 0.586 7.87 3.49 15.33
2/14/2021 3:45:00 PM 2.34 36.212 0.586 7.86 3.62 15.38
2/14/2021 4:00:00 PM 2.35 36.23 0.587 7.89 3.45 15.45
2/14/2021 4:15:00 PM 2.36 36.248 0.587 7.89 3.1 15.44
2/14/2021 4:30:00 PM 2.36 36.248 0.588 7.91 3.51 15.51
2/14/2021 4:45:00 PM 2.36 36.248 0.588 7.91 3.3 15.53
2/14/2021 5:00:00 PM 2.35 36.23 0.589 7.92 2.95 15.54
2/14/2021 5:15:00 PM 2.35 36.23 0.589 7.91 3.24 15.53
2/14/2021 5:30:00 PM 2.34 36.212 0.59 7.92 3.22 15.49
2/14/2021 5:45:00 PM 2.33 36.194 0.59 7.93 2.97 15.45
2/14/2021 6:00:00 PM 2.32 36.176 0.59 7.92 2.88 15.39
2/14/2021 6:15:00 PM 2.3 36.14 0.591 7.92 3.06 15.31
2/14/2021 6:30:00 PM 2.29 36.122 0.591 7.93 3.06 15.28
2/14/2021 6:45:00 PM 2.27 36.086 0.591 7.92 2.83 15.19
2/14/2021 7:00:00 PM 2.26 36.068 0.591 7.91 2.75 15.15
2/14/2021 7:15:00 PM 2.24 36.032 0.591 7.92 2.85 15.08
2/14/2021 7:30:00 PM 2.22 35.996 0.591 7.92 2.68 15.01
2/14/2021 7:45:00 PM 2.2 35.96 0.591 7.91 2.8 14.94
2/14/2021 8:00:00 PM 2.18 35.924 0.591 7.91 3.12 14.84
2/14/2021 8:15:00 PM 2.16 35.888 0.591 7.9 2.8 14.77
2/14/2021 8:30:00 PM 2.14 35.852 0.591 7.89 3.11 14.69
2/14/2021 8:45:00 PM 2.12 35.816 0.591 7.89 2.87 14.6
2/14/2021 9:00:00 PM 2.1 35.78 0.59 7.88 2.89 14.52
2/14/2021 9:15:00 PM 2.08 35.744 0.59 7.87 3.3 14.43
2/14/2021 9:30:00 PM 2.07 35.726 0.59 7.86 3.53 14.32
2/14/2021 9:45:00 PM 2.06 35.708 0.59 7.86 3.26 14.24
2/14/2021 10:00:00 PM 2.05 35.69 0.589 7.85 3.09 14.13
2/14/2021 10:15:00 PM 2.04 35.672 0.589 7.84 3.32 14.04
2/14/2021 10:30:00 PM 2.02 35.636 0.588 7.83 3.33 13.95
2/14/2021 10:45:00 PM 2.01 35.618 0.588 7.82 3.16 13.87
2/14/2021 11:00:00 PM 2 35.6 0.588 7.82 3.13 13.77
2/14/2021 11:15:00 PM 1.99 35.582 0.587 7.81 2.93 13.71
2/14/2021 11:30:00 PM 1.97 35.546 0.587 7.8 3.09 13.61
2/14/2021 11:45:00 PM 1.95 35.51 0.587 7.79 2.73 13.57
2/15/2021 12:00:00 AM 1.92 35.456 0.587 7.79 2.81 13.48
2/15/2021 12:15:00 AM 1.89 35.402 0.587 7.78 2.96 13.43
2/15/2021 12:30:00 AM 1.86 35.348 0.586 7.77 2.73 13.38
2/15/2021 12:45:00 AM 1.84 35.312 0.586 7.77 2.62 13.33
2/15/2021 1:00:00 AM 1.83 35.294 0.586 7.76 2.69 13.26
2/15/2021 1:15:00 AM 1.83 35.294 0.586 7.76 2.5 13.2
2/15/2021 1:30:00 AM 1.82 35.276 0.586 7.75 2.6 13.15
2/15/2021 1:45:00 AM 1.81 35.258 0.585 7.75 2.71 13.1
2/15/2021 2:00:00 AM 1.8 35.24 0.585 7.74 2.85 13.05
2/15/2021 2:15:00 AM 1.78 35.204 0.585 7.73 2.47 12.99
2/15/2021 2:30:00 AM 1.77 35.186 0.585 7.73 2.59 12.93
2/15/2021 2:45:00 AM 1.75 35.15 0.586 7.72 2.63 12.88
2/15/2021 3:00:00 AM 1.74 35.132 0.586 7.71 2.48 12.82
2/15/2021 3:15:00 AM 1.73 35.114 0.586 7.7 2.57 12.78
2/15/2021 3:30:00 AM 1.72 35.096 0.587 7.69 2.49 12.73
2/15/2021 3:45:00 AM 1.7 35.06 0.587 7.69 2.44 12.71
2/15/2021 4:00:00 AM 1.68 35.024 0.587 7.68 2.3 12.66
2/15/2021 4:15:00 AM 1.65 34.97 0.587 7.68 2.32 12.65
2/15/2021 4:30:00 AM 1.63 34.934 0.587 7.67 2.52 12.62
2/15/2021 4:45:00 AM 1.61 34.898 0.587 7.67 2.49 12.59
2/15/2021 5:00:00 AM 1.59 34.862 0.588 7.66 2.56 12.57
2/15/2021 5:15:00 AM 1.57 34.826 0.588 7.66 2.62 12.55
2/15/2021 5:30:00 AM 1.55 34.79 0.588 7.64 2.98 12.54
2/15/2021 5:45:00 AM 1.52 34.736 0.588 7.63 2.8 12.51
2/15/2021 6:00:00 AM 1.51 34.718 0.588 7.63 2.64 12.51
2/15/2021 6:15:00 AM 1.5 34.7 0.588 7.63 2.74 12.45
2/15/2021 6:30:00 AM 1.48 34.664 0.589 7.63 2.83 12.47
2/15/2021 6:45:00 AM 1.47 34.646 0.588 7.62 2.77 12.45
2/15/2021 7:00:00 AM 1.44 34.592 0.588 7.62 2.54 12.46
2/15/2021 7:15:00 AM 1.42 34.556 0.589 7.62 2.73 12.46
2/15/2021 7:30:00 AM 1.4 34.52 0.588 7.61 2.97 12.5
2/15/2021 7:45:00 AM 1.39 34.502 0.589 7.62 2.96 12.5
2/15/2021 8:00:00 AM 1.38 34.484 0.589 7.62 2.89 12.55
2/15/2021 8:15:00 AM 1.37 34.466 0.588 7.62 3.07 12.62
2/15/2021 8:30:00 AM 1.37 34.466 0.588 7.62 2.7 12.67
2/15/2021 8:45:00 AM 1.38 34.484 0.588 7.63 2.69 12.72
2/15/2021 9:00:00 AM 1.39 34.502 0.588 7.64 2.56 12.81
2/15/2021 9:15:00 AM 1.4 34.52 0.588 7.64 2.78 12.88
2/15/2021 9:30:00 AM 1.43 34.574 0.588 7.64 2.75 12.98
2/15/2021 9:45:00 AM 1.5 34.7 0.588 7.65 2.8 13.12
2/15/2021 10:00:00 AM 1.55 34.79 0.587 7.66 2.51 13.2
2/15/2021 10:15:00 AM 1.59 34.862 0.587 7.67 2.8 13.31
2/15/2021 10:30:00 AM 1.61 34.898 0.586 7.68 2.84 13.47
2/15/2021 10:45:00 AM 1.61 34.898 0.586 7.69 2.46 13.53
2/15/2021 11:00:00 AM 1.62 34.916 0.586 7.69 2.76 13.61
2/15/2021 11:15:00 AM 1.62 34.916 0.585 7.71 2.96 13.69
2/15/2021 11:30:00 AM 1.63 34.934 0.585 7.71 3.07 13.8
2/15/2021 11:45:00 AM 1.6 34.88 0.584 7.72 3.19 13.89
2/15/2021 12:00:00 PM 1.57 34.826 0.583 7.73 3.05 13.97
2/15/2021 12:15:00 PM 1.55 34.79 0.582 7.74 3.81 14.11
2/15/2021 12:30:00 PM 1.59 34.862 0.582 7.75 4.85 14.18
2/15/2021 12:45:00 PM 1.63 34.934 0.581 7.77 5.65 14.32
2/15/2021 1:00:00 PM 1.68 35.024 0.581 7.78 4.64 14.45
2/15/2021 1:15:00 PM 1.71 35.078 0.58 7.79 5.44 14.53
2/15/2021 1:30:00 PM 1.75 35.15 0.58 7.8 4.84 14.61
2/15/2021 1:45:00 PM 1.81 35.258 0.579 7.82 5.24 14.77
2/15/2021 2:00:00 PM 1.87 35.366 0.579 7.82 4.5 14.82
2/15/2021 2:15:00 PM 1.96 35.528 0.578 7.85 5.41 14.99
2/15/2021 2:30:00 PM 2 35.6 0.577 7.86 5.97 15.06
2/15/2021 2:45:00 PM 2.02 35.636 0.577 7.86 4.86 15.1
2/15/2021 3:00:00 PM 2.05 35.69 0.577 7.87 5.41 15.16
2/15/2021 3:15:00 PM 2.06 35.708 0.576 7.88 4.7 15.21
2/15/2021 3:30:00 PM 2.07 35.726 0.577 7.88 4.94 15.22
2/15/2021 3:45:00 PM 2.08 35.744 0.576 7.89 5.04 15.29
2/15/2021 4:00:00 PM 2.08 35.744 0.576 7.89 6.69 15.28
2/15/2021 4:15:00 PM 2.08 35.744 0.576 7.89 6.58 15.3
2/15/2021 4:30:00 PM 2.06 35.708 0.576 7.9 6.6 15.29
2/15/2021 4:45:00 PM 2.05 35.69 0.576 7.9 6.01 15.29
2/15/2021 5:00:00 PM 2.04 35.672 0.576 7.9 6.92 15.3
2/15/2021 5:15:00 PM 2.04 35.672 0.576 7.9 6.15 15.24
2/15/2021 5:30:00 PM 2.04 35.672 0.576 7.91 6.13 15.24
2/15/2021 5:45:00 PM 2.04 35.672 0.576 7.91 6.09 15.2
2/15/2021 6:00:00 PM 2.04 35.672 0.577 7.91 7.57 15.15
2/15/2021 6:15:00 PM 2.05 35.69 0.577 7.91 6.86 15.11
2/15/2021 6:30:00 PM 2.05 35.69 0.577 7.91 4.82 15.07
2/15/2021 6:45:00 PM 2.05 35.69 0.578 7.91 5 15
2/15/2021 7:00:00 PM 2.05 35.69 0.578 7.9 5 14.95
2/15/2021 7:15:00 PM 2.05 35.69 0.578 7.91 4.52 14.88
2/15/2021 7:30:00 PM 2.05 35.69 0.578 7.91 3.89 14.82
2/15/2021 7:45:00 PM 2.05 35.69 0.578 7.9 3.08 14.73
2/15/2021 8:00:00 PM 2.04 35.672 0.578 7.9 3.22 14.67
2/15/2021 8:15:00 PM 2.04 35.672 0.578 7.9 2.98 14.6
2/15/2021 8:30:00 PM 2.02 35.636 0.578 7.88 3.16 14.53
2/15/2021 8:45:00 PM 1.98 35.564 0.578 7.89 2.76 14.43
2/15/2021 9:00:00 PM 1.91 35.438 0.578 7.88 3.32 14.34
2/15/2021 9:15:00 PM 1.86 35.348 0.578 7.87 3.41 14.26
2/15/2021 9:30:00 PM 1.82 35.276 0.578 7.86 3.04 14.18
2/15/2021 9:45:00 PM 1.75 35.15 0.577 7.85 3.48 14.09
2/15/2021 10:00:00 PM 1.67 35.006 0.577 7.85 3.38 14
2/15/2021 10:15:00 PM 1.53 34.754 0.576 7.83 3 13.89
2/15/2021 10:30:00 PM 1.35 34.43 0.576 7.83 3.4 13.83
2/15/2021 10:45:00 PM 1.21 34.178 0.575 7.82 2.94 13.75
2/15/2021 11:00:00 PM 0.99 33.782 0.573 7.81 3.16 13.69
2/15/2021 11:15:00 PM 0.91 33.638 0.573 7.8 2.9 13.63
2/15/2021 11:30:00 PM 0.83 33.494 0.573 7.8 2.53 13.58
2/15/2021 11:45:00 PM 0.76 33.368 0.573 7.78 2.45 13.5
2/16/2021 12:00:00 AM 0.68 33.224 0.572 7.78 2.55 13.43
2/16/2021 12:15:00 AM 0.58 33.044 0.572 7.78 2.35 13.41
2/16/2021 12:30:00 AM 0.54 32.972 0.572 7.77 2.62 13.33
2/16/2021 12:45:00 AM 0.51 32.918 0.571 7.76 2.62 13.28
2/16/2021 1:00:00 AM 0.51 32.918 0.571 7.76 2.64 13.26
2/16/2021 1:15:00 AM 0.54 32.972 0.57 7.76 2.55 13.21
2/16/2021 1:30:00 AM 0.54 32.972 0.569 7.75 2.68 13.17
2/16/2021 1:45:00 AM 0.54 32.972 0.569 7.74 2.65 13.12
2/16/2021 2:00:00 AM 0.53 32.954 0.568 7.73 2.43 13.1
2/16/2021 2:15:00 AM 0.51 32.918 0.568 7.72 2.63 13.05
2/16/2021 2:30:00 AM 0.5 32.9 0.568 7.72 2.54 13
2/16/2021 2:45:00 AM 0.48 32.864 0.567 7.71 2.64 12.98
2/16/2021 3:00:00 AM 0.46 32.828 0.567 7.7 2.53 12.95
2/16/2021 3:15:00 AM 0.46 32.828 0.567 7.69 2.53 12.91
2/16/2021 3:30:00 AM 0.45 32.81 0.567 7.69 2.56 12.9
2/16/2021 3:45:00 AM 0.46 32.828 0.567 7.68 2.59 12.89
2/16/2021 4:00:00 AM 0.47 32.846 0.567 7.67 2.59 12.84
2/16/2021 4:15:00 AM 0.48 32.864 0.567 7.67 2.44 12.82
2/16/2021 4:30:00 AM 0.51 32.918 0.567 7.67 2.57 12.81
2/16/2021 4:45:00 AM 0.54 32.972 0.567 7.66 2.87 12.77
2/16/2021 5:00:00 AM 0.57 33.026 0.568 7.65 2.8 12.74
2/16/2021 5:15:00 AM 0.6 33.08 0.567 7.65 2.92 12.72
2/16/2021 5:30:00 AM 0.63 33.134 0.567 7.65 2.77 12.72
2/16/2021 5:45:00 AM 0.66 33.188 0.567 7.64 3.01 12.69
2/16/2021 6:00:00 AM 0.69 33.242 0.567 7.63 2.83 12.67
2/16/2021 6:15:00 AM 0.7 33.26 0.567 7.63 2.8 12.68
2/16/2021 6:30:00 AM 0.71 33.278 0.566 7.63 2.55 12.66
2/16/2021 6:45:00 AM 0.72 33.296 0.567 7.62 2.73 12.63
2/16/2021 7:00:00 AM 0.72 33.296 0.566 7.62 2.89 12.65
2/16/2021 7:15:00 AM 0.71 33.278 0.566 7.62 2.91 12.65
2/16/2021 7:30:00 AM 0.71 33.278 0.566 7.61 3.38 12.64
2/16/2021 7:45:00 AM 0.72 33.296 0.566 7.62 3.3 12.69
2/16/2021 8:00:00 AM 0.72 33.296 0.565 7.62 2.85 12.78
2/16/2021 8:15:00 AM 0.73 33.314 0.564 7.62 3.21 12.82
2/16/2021 8:30:00 AM 0.76 33.368 0.565 7.62 3.03 12.86
2/16/2021 8:45:00 AM 0.79 33.422 0.564 7.63 2.94 12.95
2/16/2021 9:00:00 AM 0.82 33.476 0.563 7.63 3.38 13.03
2/16/2021 9:15:00 AM 0.85 33.53 0.562 7.63 4.01 13.1
2/16/2021 9:30:00 AM 0.9 33.62 0.562 7.64 4.23 13.16
2/16/2021 9:45:00 AM 0.97 33.746 0.561 7.65 5.16 13.29
2/16/2021 10:00:00 AM 1.05 33.89 0.56 7.65 4.01 13.37
2/16/2021 10:15:00 AM 1.17 34.106 0.559 7.66 3.44 13.49
2/16/2021 10:30:00 AM 1.25 34.25 0.559 7.66 3.27 13.57
2/16/2021 10:45:00 AM 1.34 34.412 0.558 7.67 3.18 13.65
2/16/2021 11:00:00 AM 1.42 34.556 0.558 7.68 3.56 13.72
2/16/2021 11:15:00 AM 1.49 34.682 0.557 7.69 3.84 13.79
2/16/2021 11:30:00 AM 1.55 34.79 0.557 7.71 4.29 13.91
2/16/2021 11:45:00 AM 1.61 34.898 0.557 7.72 3.51 13.96
2/16/2021 12:00:00 PM 1.67 35.006 0.557 7.73 3.47 14.09
2/16/2021 12:15:00 PM 1.72 35.096 0.557 7.73 3.27 14.13
2/16/2021 12:30:00 PM 1.8 35.24 0.557 7.75 3.29 14.22
2/16/2021 12:45:00 PM 1.85 35.33 0.557 7.76 3.91 14.29
2/16/2021 1:00:00 PM 1.89 35.402 0.557 7.76 3.68 14.34
2/16/2021 1:15:00 PM 1.93 35.474 0.557 7.78 4.09 14.41
2/16/2021 1:30:00 PM 1.97 35.546 0.558 7.79 4.26 14.44
2/16/2021 1:45:00 PM 1.99 35.582 0.558 7.79 3.97 14.45
2/16/2021 2:00:00 PM 2.02 35.636 0.559 7.81 4.01 14.52
2/16/2021 2:15:00 PM 2.05 35.69 0.559 7.81 4.29 14.55
2/16/2021 2:30:00 PM 2.08 35.744 0.56 7.83 4.35 14.56
2/16/2021 2:45:00 PM 2.09 35.762 0.561 7.84 3.54 14.57
2/16/2021 3:00:00 PM 2.12 35.816 0.562 7.84 3.55 14.57
2/16/2021 3:15:00 PM 2.13 35.834 0.563 7.84 3.24 14.55
2/16/2021 3:30:00 PM 2.15 35.87 0.563 7.85 3.24 14.57
2/16/2021 3:45:00 PM 2.15 35.87 0.564 7.84 3.27 14.55
2/16/2021 4:00:00 PM 2.16 35.888 0.565 7.86 2.99 14.56
2/16/2021 4:15:00 PM 2.17 35.906 0.566 7.86 2.91 14.54
2/16/2021 4:30:00 PM 2.16 35.888 0.567 7.85 2.88 14.51
2/16/2021 4:45:00 PM 2.14 35.852 0.567 7.86 2.9 14.48
2/16/2021 5:00:00 PM 2.06 35.708 0.568 7.87 3.01 14.4
2/16/2021 5:15:00 PM 1.99 35.582 0.569 7.87 3.31 14.36
2/16/2021 5:30:00 PM 1.95 35.51 0.57 7.87 3.41 14.31
2/16/2021 5:45:00 PM 1.91 35.438 0.571 7.85 3.38 14.26
2/16/2021 6:00:00 PM 1.88 35.384 0.572 7.86 5 14.21
2/16/2021 6:15:00 PM 1.83 35.294 0.574 7.86 4.99 14.15
2/16/2021 6:30:00 PM 1.81 35.258 0.575 7.85 5.02 14.09
2/16/2021 6:45:00 PM 1.79 35.222 0.576 7.85 4.74 14.04
2/16/2021 7:00:00 PM 1.76 35.168 0.578 7.84 4.75 13.97
2/16/2021 7:15:00 PM 1.73 35.114 0.58 7.83 4.21 13.9
2/16/2021 7:30:00 PM 1.69 35.042 0.581 7.83 3.69 13.84
2/16/2021 7:45:00 PM 1.65 34.97 0.583 7.83 3.45 13.79
2/16/2021 8:00:00 PM 1.62 34.916 0.584 7.82 4.09 13.72
2/16/2021 8:15:00 PM 1.57 34.826 0.587 7.81 4.04 13.65
2/16/2021 8:30:00 PM 1.54 34.772 0.588 7.8 4.73 13.58
2/16/2021 8:45:00 PM 1.5 34.7 0.591 7.79 4.73 13.51
2/16/2021 9:00:00 PM 1.46 34.628 0.592 7.78 4.6 13.45
2/16/2021 9:15:00 PM 1.42 34.556 0.594 7.77 4.53 13.38
2/16/2021 9:30:00 PM 1.39 34.502 0.595 7.77 4.77 13.33
2/16/2021 9:45:00 PM 1.35 34.43 0.596 7.76 3.87 13.29
2/16/2021 10:00:00 PM 1.32 34.376 0.597 7.75 4.11 13.23
2/16/2021 10:15:00 PM 1.28 34.304 0.599 7.75 4.17 13.18
2/16/2021 10:30:00 PM 1.23 34.214 0.599 7.74 4 13.16
2/16/2021 10:45:00 PM 1.19 34.142 0.6 7.72 3.96 13.12
2/16/2021 11:00:00 PM 1.16 34.088 0.601 7.73 3.49 13.09
2/16/2021 11:15:00 PM 1.13 34.034 0.602 7.72 3.46 13.05
2/16/2021 11:30:00 PM 1.09 33.962 0.602 7.71 3.66 13.03
2/16/2021 11:45:00 PM 1.05 33.89 0.603 7.7 3.55 13.01
2/17/2021 12:00:00 AM 1 33.8 0.604 7.7 3.87 12.99
2/17/2021 12:15:00 AM 0.94 33.692 0.605 7.69 3.03 12.97
2/17/2021 12:30:00 AM 0.87 33.566 0.606 7.68 3.35 12.97
2/17/2021 12:45:00 AM 0.8 33.44 0.608 7.67 3.32 12.96
2/17/2021 1:00:00 AM 0.75 33.35 0.61 7.65 3.25 12.93
2/17/2021 1:15:00 AM 0.68 33.224 0.612 7.66 3 12.94
2/17/2021 1:30:00 AM 0.61 33.098 0.615 7.66 3.05 12.93
2/17/2021 1:45:00 AM 0.56 33.008 0.619 7.65 2.95 12.93
2/17/2021 2:00:00 AM 0.49 32.882 0.625 7.65 3.05 12.93
2/17/2021 2:15:00 AM 0.44 32.792 0.629 7.63 2.89 12.93
2/17/2021 2:30:00 AM 0.41 32.738 0.634 7.63 2.89 12.93
2/17/2021 2:45:00 AM 0.36 32.648 0.639 7.63 2.91 12.91
2/17/2021 3:00:00 AM 0.31 32.558 0.646 7.61 2.71 12.9
2/17/2021 3:15:00 AM 0.26 32.468 0.653 7.62 2.93 12.93
2/17/2021 3:30:00 AM 0.21 32.378 0.659 7.61 3.11 12.93
2/17/2021 3:45:00 AM 0.17 32.306 0.666 7.61 2.87 12.93
2/17/2021 4:00:00 AM 0.09 32.162 0.675 7.6 2.86 12.94
2/17/2021 4:15:00 AM 0.04 32.072 0.685 7.61 2.78 12.97
2/17/2021 4:30:00 AM -0.01 31.982 0.693 7.59 2.75 12.97
2/17/2021 4:45:00 AM -0.04 31.928 0.702 7.6 2.54 13
2/17/2021 5:00:00 AM -0.08 31.856 0.713 7.6 2.78 13.01
2/17/2021 5:15:00 AM -0.09 31.838 0.72 7.59 2.74 13.02
2/17/2021 5:30:00 AM -0.1 31.82 0.73 7.59 2.66 13.01
2/17/2021 5:45:00 AM -0.14 31.748 0.743 7.59 2.57 13.06
2/17/2021 6:00:00 AM -0.14 31.748 0.752 7.58 2.76 13.06
2/17/2021 6:15:00 AM -0.16 31.712 0.76 7.58 2.71 13.07
2/17/2021 6:30:00 AM -0.15 31.73 0.766 7.57 2.55 13.08
2/17/2021 6:45:00 AM -0.14 31.748 0.773 7.56 2.54 13.08
2/17/2021 7:00:00 AM -0.15 31.73 0.779 7.56 2.7 13.09
2/17/2021 7:15:00 AM -0.14 31.748 0.782 7.56 2.57 13.12
2/17/2021 7:30:00 AM -0.14 31.748 0.785 7.55 2.66 13.14
2/17/2021 7:45:00 AM -0.13 31.766 0.788 7.55 2.83 13.16
2/17/2021 8:00:00 AM -0.12 31.784 0.789 7.55 2.59 13.21
2/17/2021 8:15:00 AM -0.12 31.784 0.79 7.55 2.68 13.3
2/17/2021 8:30:00 AM -0.11 31.802 0.791 7.55 3.02 13.35
2/17/2021 8:45:00 AM -0.1 31.82 0.792 7.55 2.7 13.4
2/17/2021 9:00:00 AM -0.08 31.856 0.792 7.56 2.66 13.46
2/17/2021 9:15:00 AM -0.06 31.892 0.793 7.55 2.68 13.55
2/17/2021 9:30:00 AM -0.06 31.892 0.793 7.55 2.66 13.64
2/17/2021 9:45:00 AM -0.03 31.946 0.793 7.55 2.88 13.65
2/17/2021 10:00:00 AM -0.01 31.982 0.793 7.55 2.71 13.73
2/17/2021 10:15:00 AM 0.04 32.072 0.792 7.54 2.9 13.77
2/17/2021 10:30:00 AM 0.13 32.234 0.793 7.54 3.24 13.83
2/17/2021 10:45:00 AM 0.23 32.414 0.795 7.55 3.07 13.89
2/17/2021 11:00:00 AM 0.29 32.522 0.8 7.55 3.03 13.92
2/17/2021 11:15:00 AM 0.38 32.684 0.811 7.56 3.17 14
2/17/2021 11:30:00 AM 0.43 32.774 0.829 7.58 2.84 14.14
2/17/2021 11:45:00 AM 0.48 32.864 0.855 7.6 2.92 14.24
2/17/2021 12:00:00 PM 0.54 32.972 0.885 7.61 3.07 14.36
2/17/2021 12:15:00 PM 0.61 33.098 0.926 7.63 2.92 14.48
2/17/2021 12:30:00 PM 0.69 33.242 0.976 7.65 3.15 14.63
2/17/2021 12:45:00 PM 0.77 33.386 1.021 7.66 3.34 14.7
2/17/2021 1:00:00 PM 0.86 33.548 1.073 7.66 3.25 14.79
2/17/2021 1:15:00 PM 0.98 33.764 1.123 7.68 3.34 14.88
2/17/2021 1:30:00 PM 1.08 33.944 1.167 7.69 3.43 14.93
2/17/2021 1:45:00 PM 1.15 34.07 1.204 7.68 3.37 14.96
2/17/2021 2:00:00 PM 1.22 34.196 1.244 7.69 3.58 15
2/17/2021 2:15:00 PM 1.29 34.322 1.282 7.69 3.41 15.05
2/17/2021 2:30:00 PM 1.34 34.412 1.307 7.69 3.68 15.1
2/17/2021 2:45:00 PM 1.35 34.43 1.328 7.69 3.4 15.14
2/17/2021 3:00:00 PM 1.33 34.394 1.347 7.7 3.4 15.21
2/17/2021 3:15:00 PM 1.27 34.286 1.363 7.72 3.76 15.27
2/17/2021 3:30:00 PM 1.21 34.178 1.365 7.73 3.65 15.34
2/17/2021 3:45:00 PM 1.13 34.034 1.363 7.74 3.44 15.41
2/17/2021 4:00:00 PM 1.09 33.962 1.351 7.76 3.62 15.49
2/17/2021 4:15:00 PM 1.09 33.962 1.335 7.78 3.59 15.54
2/17/2021 4:30:00 PM 1.06 33.908 1.316 7.79 3.9 15.56
2/17/2021 4:45:00 PM 1.05 33.89 1.289 7.81 3.93 15.59
2/17/2021 5:00:00 PM 1.04 33.872 1.26 7.82 3.81 15.59
2/17/2021 5:15:00 PM 1.06 33.908 1.228 7.84 3.88 15.57
2/17/2021 5:30:00 PM 1.08 33.944 1.2 7.84 3.65 15.54
2/17/2021 5:45:00 PM 1.11 33.998 1.171 7.85 3.93 15.5
2/17/2021 6:00:00 PM 1.15 34.07 1.147 7.85 3.51 15.44
2/17/2021 6:15:00 PM 1.19 34.142 1.118 7.85 3.43 15.37
2/17/2021 6:30:00 PM 1.21 34.178 1.089 7.85 3.44 15.29
2/17/2021 6:45:00 PM 1.22 34.196 1.065 7.84 3.73 15.18
2/17/2021 7:00:00 PM 1.23 34.214 1.044 7.85 3.3 15.15
2/17/2021 7:15:00 PM 1.24 34.232 1.02 7.84 3.56 15.03
2/17/2021 7:30:00 PM 1.23 34.214 1.001 7.83 3.56 14.98
2/17/2021 7:45:00 PM 1.22 34.196 0.98 7.83 3.68 14.89
2/17/2021 8:00:00 PM 1.21 34.178 0.964 7.82 3.84 14.78
2/17/2021 8:15:00 PM 1.19 34.142 0.95 7.82 4.03 14.7
2/17/2021 8:30:00 PM 1.16 34.088 0.936 7.81 4.15 14.59
2/17/2021 8:45:00 PM 1.14 34.052 0.923 7.8 4.22 14.51
2/17/2021 9:00:00 PM 1.13 34.034 0.912 7.79 4.45 14.42
2/17/2021 9:15:00 PM 1.12 34.016 0.902 7.79 3.97 14.32
2/17/2021 9:30:00 PM 1.11 33.998 0.888 7.79 4.59 14.22
2/17/2021 9:45:00 PM 1.11 33.998 0.881 7.77 4.45 14.12
2/17/2021 10:00:00 PM 1.12 34.016 0.87 7.78 4.79 14.04
2/17/2021 10:15:00 PM 1.12 34.016 0.861 7.78 4.53 13.96
2/17/2021 10:30:00 PM 1.13 34.034 0.853 7.78 4.5 13.89
2/17/2021 10:45:00 PM 1.14 34.052 0.844 7.77 4.2 13.82
2/17/2021 11:00:00 PM 1.15 34.07 0.837 7.77 4.32 13.75
2/17/2021 11:15:00 PM 1.16 34.088 0.83 7.76 4.49 13.65
2/17/2021 11:30:00 PM 1.17 34.106 0.823 7.76 3.74 13.6
2/17/2021 11:45:00 PM 1.18 34.124 0.817 7.75 4.06 13.53
2/18/2021 12:00:00 AM 1.18 34.124 0.811 7.74 4.09 13.48
2/18/2021 12:15:00 AM 1.18 34.124 0.807 7.74 3.85 13.42
2/18/2021 12:30:00 AM 1.18 34.124 0.8 7.73 4.14 13.37
2/18/2021 12:45:00 AM 1.18 34.124 0.797 7.72 3.53 13.33
2/18/2021 1:00:00 AM 1.18 34.124 0.791 7.72 3.78 13.28
2/18/2021 1:15:00 AM 1.17 34.106 0.786 7.7 4.06 13.24
2/18/2021 1:30:00 AM 1.17 34.106 0.781 7.7 3.98 13.22
2/18/2021 1:45:00 AM 1.16 34.088 0.776 7.69 3.44 13.17
2/18/2021 2:00:00 AM 1.15 34.07 0.77 7.68 3.51 13.15
2/18/2021 2:15:00 AM 1.14 34.052 0.764 7.66 3.36 13.11
2/18/2021 2:30:00 AM 1.13 34.034 0.759 7.66 3.4 13.09
2/18/2021 2:45:00 AM 1.1 33.98 0.751 7.65 3.33 13.08
2/18/2021 3:00:00 AM 1.07 33.926 0.744 7.63 3.26 13.07
2/18/2021 3:15:00 AM 1.03 33.854 0.735 7.62 3.3 13.07
2/18/2021 3:30:00 AM 0.99 33.782 0.727 7.61 3.11 13.05
2/18/2021 3:45:00 AM 0.95 33.71 0.719 7.61 3.57 13.06
2/18/2021 4:00:00 AM 0.93 33.674 0.712 7.59 3.46 13.06
2/18/2021 4:15:00 AM 0.91 33.638 0.704 7.58 3.25 13.05
2/18/2021 4:30:00 AM 0.87 33.566 0.696 7.58 3.36 13.06
2/18/2021 4:45:00 AM 0.84 33.512 0.69 7.56 3.03 13.07
2/18/2021 5:00:00 AM 0.8 33.44 0.686 7.57 3.34 13.07
2/18/2021 5:15:00 AM 0.76 33.368 0.682 7.56 3.66 13.08
2/18/2021 5:30:00 AM 0.72 33.296 0.681 7.55 3.51 13.08
2/18/2021 5:45:00 AM 0.7 33.26 0.681 7.55 3.55 13.08
2/18/2021 6:00:00 AM 0.67 33.206 0.681 7.54 3.25 13.08
2/18/2021 6:15:00 AM 0.64 33.152 0.683 7.54 3.37 13.09
2/18/2021 6:30:00 AM 0.62 33.116 0.685 7.53 3.26 13.08
2/18/2021 6:45:00 AM 0.6 33.08 0.688 7.54 3.05 13.08
2/18/2021 7:00:00 AM 0.59 33.062 0.69 7.53 3.28 13.09
2/18/2021 7:15:00 AM 0.58 33.044 0.692 7.53 2.56 13.06
2/18/2021 7:30:00 AM 0.55 32.99 0.694 7.53 2.69 13.11
2/18/2021 7:45:00 AM 0.55 32.99 0.695 7.54 2.66 13.12
2/18/2021 8:00:00 AM 0.54 32.972 0.696 7.54 2.89 13.19
2/18/2021 8:15:00 AM 0.54 32.972 0.696 7.54 2.85 13.23
2/18/2021 8:30:00 AM 0.54 32.972 0.697 7.54 2.78 13.27
2/18/2021 8:45:00 AM 0.54 32.972 0.696 7.55 2.75 13.34
2/18/2021 9:00:00 AM 0.54 32.972 0.696 7.56 2.96 13.39
2/18/2021 9:15:00 AM 0.54 32.972 0.695 7.56 2.93 13.45
2/18/2021 9:30:00 AM 0.53 32.954 0.694 7.55 2.79 13.52
2/18/2021 9:45:00 AM 0.53 32.954 0.693 7.57 3.09 13.61
2/18/2021 10:00:00 AM 0.54 32.972 0.691 7.59 3.47 13.71
2/18/2021 10:15:00 AM 0.56 33.008 0.69 7.59 3.21 13.79
2/18/2021 10:30:00 AM 0.56 33.008 0.688 7.6 3.13 13.9
2/18/2021 10:45:00 AM 0.57 33.026 0.686 7.61 3.11 14
2/18/2021 11:00:00 AM 0.6 33.08 0.685 7.62 2.97 14.08
2/18/2021 11:15:00 AM 0.63 33.134 0.683 7.64 3.24 14.18
2/18/2021 11:30:00 AM 0.66 33.188 0.682 7.64 2.73 14.28
2/18/2021 11:45:00 AM 0.68 33.224 0.68 7.65 2.72 14.36
2/18/2021 12:00:00 PM 0.71 33.278 0.679 7.66 2.57 14.47
2/18/2021 12:15:00 PM 0.75 33.35 0.678 7.68 2.5 14.6
2/18/2021 12:30:00 PM 0.78 33.404 0.678 7.69 2.72 14.68
2/18/2021 12:45:00 PM 0.82 33.476 0.679 7.7 2.55 14.79
2/18/2021 1:00:00 PM 0.85 33.53 0.68 7.71 2.67 14.86
2/18/2021 1:15:00 PM 0.89 33.602 0.681 7.72 2.71 14.93
2/18/2021 1:30:00 PM 0.92 33.656 0.683 7.74 2.72 15.03
2/18/2021 1:45:00 PM 0.95 33.71 0.685 7.75 2.63 15.06
2/18/2021 2:00:00 PM 0.99 33.782 0.689 7.76 2.73 15.15
2/18/2021 2:15:00 PM 1.03 33.854 0.692 7.77 2.98 15.23
2/18/2021 2:30:00 PM 1.06 33.908 0.695 7.78 3.57 15.25
2/18/2021 2:45:00 PM 1.09 33.962 0.699 7.78 3 15.29
2/18/2021 3:00:00 PM 1.11 33.998 0.703 7.8 3.09 15.35
2/18/2021 3:15:00 PM 1.14 34.052 0.707 7.81 3.77 15.41
2/18/2021 3:30:00 PM 1.15 34.07 0.71 7.82 3.33 15.39
2/18/2021 3:45:00 PM 1.17 34.106 0.713 7.82 3.45 15.41
2/18/2021 4:00:00 PM 1.19 34.142 0.717 7.84 3.27 15.45
2/18/2021 4:15:00 PM 1.21 34.178 0.719 7.85 3.59 15.48
2/18/2021 4:30:00 PM 1.22 34.196 0.721 7.85 3.49 15.47
2/18/2021 4:45:00 PM 1.23 34.214 0.724 7.86 3.17 15.48
2/18/2021 5:00:00 PM 1.24 34.232 0.724 7.86 3.16 15.43
2/18/2021 5:15:00 PM 1.24 34.232 0.725 7.87 3.49 15.41
2/18/2021 5:30:00 PM 1.25 34.25 0.725 7.87 3.32 15.36
2/18/2021 5:45:00 PM 1.25 34.25 0.724 7.87 3.25 15.31
2/18/2021 6:00:00 PM 1.25 34.25 0.723 7.86 2.93 15.24
2/18/2021 6:15:00 PM 1.25 34.25 0.722 7.86 2.98 15.17
2/18/2021 6:30:00 PM 1.25 34.25 0.72 7.86 2.9 15.11
2/18/2021 6:45:00 PM 1.26 34.268 0.717 7.85 2.73 15.05
2/18/2021 7:00:00 PM 1.26 34.268 0.714 7.85 2.83 14.96
2/18/2021 7:15:00 PM 1.26 34.268 0.71 7.85 2.66 14.9
2/18/2021 7:30:00 PM 1.27 34.286 0.708 7.84 2.65 14.82
2/18/2021 7:45:00 PM 1.27 34.286 0.704 7.84 2.41 14.75
2/18/2021 8:00:00 PM 1.27 34.286 0.699 7.83 2.98 14.66
2/18/2021 8:15:00 PM 1.28 34.304 0.695 7.82 3.07 14.58
2/18/2021 8:30:00 PM 1.27 34.286 0.69 7.82 3.2 14.51
2/18/2021 8:45:00 PM 1.28 34.304 0.686 7.81 3.42 14.42
2/18/2021 9:00:00 PM 1.26 34.268 0.682 7.8 3 14.32
2/18/2021 9:15:00 PM 1.25 34.25 0.677 7.8 3.02 14.24
2/18/2021 9:30:00 PM 1.24 34.232 0.673 7.79 3.28 14.16
2/18/2021 9:45:00 PM 1.23 34.214 0.669 7.77 3.66 14.07
2/18/2021 10:00:00 PM 1.23 34.214 0.666 7.76 3.24 13.98
2/18/2021 10:15:00 PM 1.22 34.196 0.661 7.75 3.71 13.93
2/18/2021 10:30:00 PM 1.2 34.16 0.658 7.75 3.45 13.86
2/18/2021 10:45:00 PM 1.18 34.124 0.654 7.74 3.36 13.8
2/18/2021 11:00:00 PM 1.17 34.106 0.65 7.74 3.39 13.75
2/18/2021 11:15:00 PM 1.16 34.088 0.647 7.73 3.64 13.68
2/18/2021 11:30:00 PM 1.15 34.07 0.644 7.72 3.36 13.64
2/18/2021 11:45:00 PM 1.14 34.052 0.64 7.72 3.11 13.6
2/19/2021 12:00:00 AM 1.13 34.034 0.638 7.71 3.01 13.53
2/19/2021 12:15:00 AM 1.12 34.016 0.635 7.71 3.4 13.51
2/19/2021 12:30:00 AM 1.1 33.98 0.632 7.7 3.29 13.46
2/19/2021 12:45:00 AM 1.09 33.962 0.63 7.7 3.26 13.41
2/19/2021 1:00:00 AM 1.07 33.926 0.628 7.69 3.01 13.38
2/19/2021 1:15:00 AM 1.05 33.89 0.626 7.66 3.35 13.34
2/19/2021 1:30:00 AM 1.04 33.872 0.624 7.68 2.88 13.29
2/19/2021 1:45:00 AM 1.03 33.854 0.622 7.67 2.71 13.26
2/19/2021 2:00:00 AM 1.03 33.854 0.621 7.66 2.77 13.2
2/19/2021 2:15:00 AM 1.01 33.818 0.619 7.66 2.6 13.19
2/19/2021 2:30:00 AM 0.99 33.782 0.617 7.66 2.28 13.17
2/19/2021 2:45:00 AM 0.99 33.782 0.615 7.65 2.43 13.14
2/19/2021 3:00:00 AM 0.97 33.746 0.614 7.64 2.29 13.11
2/19/2021 3:15:00 AM 0.96 33.728 0.612 7.64 2.38 13.07
2/19/2021 3:30:00 AM 0.94 33.692 0.611 7.63 2.44 13.06
2/19/2021 3:45:00 AM 0.93 33.674 0.61 7.63 2.28 13.04
2/19/2021 4:00:00 AM 0.91 33.638 0.609 7.63 2.22 13.03
2/19/2021 4:15:00 AM 0.9 33.62 0.608 7.61 2.37 13
2/19/2021 4:30:00 AM 0.89 33.602 0.607 7.62 2.36 12.99
2/19/2021 4:45:00 AM 0.89 33.602 0.606 7.61 2.34 12.98
2/19/2021 5:00:00 AM 0.89 33.602 0.605 7.62 2.26 12.97
2/19/2021 5:15:00 AM 0.89 33.602 0.604 7.61 2.38 12.95
2/19/2021 5:30:00 AM 0.89 33.602 0.603 7.6 2.36 12.93
2/19/2021 5:45:00 AM 0.89 33.602 0.602 7.6 2.53 12.93
2/19/2021 6:00:00 AM 0.88 33.584 0.601 7.6 2.54 12.92
2/19/2021 6:15:00 AM 0.88 33.584 0.6 7.6 2.4 12.91
2/19/2021 6:30:00 AM 0.87 33.566 0.6 7.6 2.3 12.9
2/19/2021 6:45:00 AM 0.85 33.53 0.599 7.59 2.37 12.89
2/19/2021 7:00:00 AM 0.84 33.512 0.598 7.59 2.19 12.88
2/19/2021 7:15:00 AM 0.83 33.494 0.597 7.59 2.32 12.89
2/19/2021 7:30:00 AM 0.83 33.494 0.597 7.59 2.36 12.9
2/19/2021 7:45:00 AM 0.83 33.494 0.596 7.6 2.41 12.95
2/19/2021 8:00:00 AM 0.84 33.512 0.595 7.6 2.59 12.98
2/19/2021 8:15:00 AM 0.85 33.53 0.595 7.6 2.4 13.05
2/19/2021 8:30:00 AM 0.87 33.566 0.594 7.6 2.29 13.08
2/19/2021 8:45:00 AM 0.89 33.602 0.594 7.61 2.55 13.15
2/19/2021 9:00:00 AM 0.91 33.638 0.593 7.62 2.91 13.24
2/19/2021 9:15:00 AM 0.93 33.674 0.592 7.62 3.13 13.35
2/19/2021 9:30:00 AM 0.96 33.728 0.592 7.63 3.17 13.43
2/19/2021 9:45:00 AM 1 33.8 0.591 7.63 3.16 13.52
2/19/2021 10:00:00 AM 1.04 33.872 0.591 7.65 3.7 13.62
2/19/2021 10:15:00 AM 1.09 33.962 0.59 7.66 3.34 13.7
2/19/2021 10:30:00 AM 1.15 34.07 0.589 7.67 4.2 13.8
2/19/2021 10:45:00 AM 1.18 34.124 0.589 7.67 3.77 13.87
2/19/2021 11:00:00 AM 1.23 34.214 0.588 7.69 3.8 13.97
2/19/2021 11:15:00 AM 1.28 34.304 0.588 7.7 3.08 14.06
2/19/2021 11:30:00 AM 1.36 34.448 0.587 7.71 3.14 14.17
2/19/2021 11:45:00 AM 1.43 34.574 0.586 7.71 3.69 14.28
2/19/2021 12:00:00 PM 1.52 34.736 0.586 7.73 5.52 14.42
2/19/2021 12:15:00 PM 1.59 34.862 0.585 7.75 4.79 14.48
2/19/2021 12:30:00 PM 1.67 35.006 0.584 7.77 4.3 14.59
2/19/2021 12:45:00 PM 1.74 35.132 0.583 7.78 18.5 14.69
2/19/2021 1:00:00 PM 1.82 35.276 0.583 7.79 19.84 14.79
2/19/2021 1:15:00 PM 1.9 35.42 0.583 7.8 4.34 14.87
2/19/2021 1:30:00 PM 1.96 35.528 0.582 7.81 4.34 14.91
2/19/2021 1:45:00 PM 2.02 35.636 0.582 7.84 3.96 15.01
2/19/2021 2:00:00 PM 2.09 35.762 0.582 7.85 3.21 15.05
2/19/2021 2:15:00 PM 2.15 35.87 0.582 7.85 2.76 15.1
2/19/2021 2:30:00 PM 2.2 35.96 0.582 7.87 2.9 15.16
2/19/2021 2:45:00 PM 2.24 36.032 0.582 7.88 2.69 15.2
2/19/2021 3:00:00 PM 2.28 36.104 0.582 7.89 2.63 15.27
2/19/2021 3:15:00 PM 2.32 36.176 0.583 7.9 3.02 15.31
2/19/2021 3:30:00 PM 2.36 36.248 0.584 7.91 2.99 15.32
2/19/2021 3:45:00 PM 2.44 36.392 0.584 7.92 2.89 15.35
2/19/2021 4:00:00 PM 2.47 36.446 0.585 7.93 2.82 15.37
2/19/2021 4:15:00 PM 2.49 36.482 0.586 7.94 3.08 15.39
2/19/2021 4:30:00 PM 2.51 36.518 0.587 7.95 3.26 15.4
2/19/2021 4:45:00 PM 2.54 36.572 0.588 7.96 3.45 15.41
2/19/2021 5:00:00 PM 2.54 36.572 0.589 7.96 3.48 15.37
2/19/2021 5:15:00 PM 2.54 36.572 0.591 7.97 3.96 15.36
2/19/2021 5:30:00 PM 2.54 36.572 0.592 7.97 4.09 15.3
2/19/2021 5:45:00 PM 2.55 36.59 0.593 7.97 3.57 15.23
2/19/2021 6:00:00 PM 2.55 36.59 0.594 7.97 3.63 15.14
2/19/2021 6:15:00 PM 2.55 36.59 0.596 7.96 4.14 15.07
2/19/2021 6:30:00 PM 2.56 36.608 0.597 7.96 3.79 14.97
2/19/2021 6:45:00 PM 2.57 36.626 0.598 7.96 3.64 14.91
2/19/2021 7:00:00 PM 2.57 36.626 0.6 7.96 3.43 14.83
2/19/2021 7:15:00 PM 2.58 36.644 0.601 7.95 3.91 14.73
2/19/2021 7:30:00 PM 2.58 36.644 0.602 7.94 4.12 14.64
2/19/2021 7:45:00 PM 2.58 36.644 0.604 7.94 3.89 14.54
2/19/2021 8:00:00 PM 2.57 36.626 0.605 7.92 4.03 14.44
2/19/2021 8:15:00 PM 2.56 36.608 0.606 7.92 3.8 14.35
2/19/2021 8:30:00 PM 2.54 36.572 0.607 7.91 3.73 14.24
2/19/2021 8:45:00 PM 2.5 36.5 0.608 7.9 3.76 14.15
2/19/2021 9:00:00 PM 2.47 36.446 0.61 7.89 3.74 14.04
2/19/2021 9:15:00 PM 2.45 36.41 0.611 7.87 3.8 13.94
2/19/2021 9:30:00 PM 2.43 36.374 0.612 7.87 3.76 13.83
2/19/2021 9:45:00 PM 2.4 36.32 0.613 7.86 3.09 13.74
2/19/2021 10:00:00 PM 2.37 36.266 0.613 7.84 3.56 13.63
2/19/2021 10:15:00 PM 2.34 36.212 0.614 7.84 3.49 13.57
2/19/2021 10:30:00 PM 2.31 36.158 0.615 7.83 3.02 13.49
2/19/2021 10:45:00 PM 2.27 36.086 0.615 7.82 3.39 13.42
2/19/2021 11:00:00 PM 2.24 36.032 0.616 7.8 3.38 13.36
2/19/2021 11:15:00 PM 2.21 35.978 0.617 7.81 3.22 13.3
2/19/2021 11:30:00 PM 2.17 35.906 0.617 7.8 3.07 13.24
2/19/2021 11:45:00 PM 2.13 35.834 0.618 7.79 2.85 13.19
2/20/2021 12:00:00 AM 2.08 35.744 0.619 7.78 2.81 13.14
2/20/2021 12:15:00 AM 2.05 35.69 0.62 7.78 2.91 13.09
2/20/2021 12:30:00 AM 2 35.6 0.62 7.77 3.74 13.04
2/20/2021 12:45:00 AM 1.97 35.546 0.621 7.76 4.17 12.99
2/20/2021 1:00:00 AM 1.94 35.492 0.622 7.75 2.67 12.93
2/20/2021 1:15:00 AM 1.87 35.366 0.624 7.75 2.72 12.9
2/20/2021 1:30:00 AM 1.82 35.276 0.625 7.73 2.61 12.86
2/20/2021 1:45:00 AM 1.76 35.168 0.626 7.73 2.91 12.83
2/20/2021 2:00:00 AM 1.7 35.06 0.628 7.73 2.73 12.8
2/20/2021 2:15:00 AM 1.66 34.988 0.629 7.72 3.02 12.77
2/20/2021 2:30:00 AM 1.61 34.898 0.631 7.72 2.88 12.75
2/20/2021 2:45:00 AM 1.59 34.862 0.633 7.71 2.97 12.73
2/20/2021 3:00:00 AM 1.55 34.79 0.634 7.7 2.95 12.71
2/20/2021 3:15:00 AM 1.51 34.718 0.635 7.69 2.99 12.68
2/20/2021 3:30:00 AM 1.47 34.646 0.637 7.68 2.95 12.66
2/20/2021 3:45:00 AM 1.43 34.574 0.639 7.67 3.38 12.65
2/20/2021 4:00:00 AM 1.39 34.502 0.64 7.67 3.1 12.64
2/20/2021 4:15:00 AM 1.35 34.43 0.642 7.66 2.71 12.61
2/20/2021 4:30:00 AM 1.3 34.34 0.644 7.66 2.72 12.61
2/20/2021 4:45:00 AM 1.26 34.268 0.646 7.65 2.6 12.61
2/20/2021 5:00:00 AM 1.22 34.196 0.647 7.65 2.59 12.62
2/20/2021 5:15:00 AM 1.19 34.142 0.65 7.64 2.56 12.6
2/20/2021 5:30:00 AM 1.17 34.106 0.652 7.63 2.42 12.58
2/20/2021 5:45:00 AM 1.13 34.034 0.654 7.63 2.7 12.62
2/20/2021 6:00:00 AM 1.09 33.962 0.655 7.62 2.58 12.62
2/20/2021 6:15:00 AM 1.06 33.908 0.657 7.62 2.52 12.61
2/20/2021 6:30:00 AM 1.01 33.818 0.66 7.61 2.28 12.62
2/20/2021 6:45:00 AM 0.98 33.764 0.662 7.6 3.3 12.62
2/20/2021 7:00:00 AM 0.93 33.674 0.665 7.61 2.39 12.64
2/20/2021 7:15:00 AM 0.88 33.584 0.667 7.6 2.16 12.65
2/20/2021 7:30:00 AM 0.85 33.53 0.669 7.6 2.16 12.69
2/20/2021 7:45:00 AM 0.79 33.422 0.672 7.61 2.47 12.74
2/20/2021 8:00:00 AM 0.76 33.368 0.674 7.6 2.56 12.79
2/20/2021 8:15:00 AM 0.74 33.332 0.677 7.61 2.6 12.88
2/20/2021 8:30:00 AM 0.72 33.296 0.678 7.62 2.45 12.96
2/20/2021 8:45:00 AM 0.69 33.242 0.681 7.62 2.94 13.05
2/20/2021 9:00:00 AM 0.67 33.206 0.683 7.63 2.73 13.16
2/20/2021 9:15:00 AM 0.65 33.17 0.685 7.63 2.44 13.21
2/20/2021 9:30:00 AM 0.64 33.152 0.687 7.63 2.6 13.31
2/20/2021 9:45:00 AM 0.66 33.188 0.689 7.64 2.41 13.41
2/20/2021 10:00:00 AM 0.72 33.296 0.69 7.65 2.38 13.5
2/20/2021 10:15:00 AM 0.81 33.458 0.691 7.66 2.31 13.61
2/20/2021 10:30:00 AM 0.9 33.62 0.692 7.65 2.8 13.69
2/20/2021 10:45:00 AM 1.01 33.818 0.692 7.68 2.4 13.86
2/20/2021 11:00:00 AM 1.08 33.944 0.693 7.69 2.49 13.93
2/20/2021 11:15:00 AM 1.19 34.142 0.693 7.7 2.6 14.05
2/20/2021 11:30:00 AM 1.29 34.322 0.694 7.71 2.68 14.15
2/20/2021 11:45:00 AM 1.4 34.52 0.694 7.72 2.5 14.23
2/20/2021 12:00:00 PM 1.54 34.772 0.694 7.74 2.3 14.37
2/20/2021 12:15:00 PM 1.55 34.79 0.694 7.74 2.7 14.41
2/20/2021 12:30:00 PM 1.47 34.646 0.695 7.76 2.44 14.52
2/20/2021 12:45:00 PM 1.43 34.574 0.696 7.77 2.65 14.64
2/20/2021 1:00:00 PM 1.44 34.592 0.696 7.78 2.46 14.7
2/20/2021 1:15:00 PM 1.49 34.682 0.697 7.78 2.94 14.79
2/20/2021 1:30:00 PM 1.57 34.826 0.697 7.8 2.76 14.87
2/20/2021 1:45:00 PM 1.63 34.934 0.698 7.81 2.75 14.94
2/20/2021 2:00:00 PM 1.69 35.042 0.699 7.82 3.37 15
2/20/2021 2:15:00 PM 1.72 35.096 0.699 7.84 3.95 15.09
2/20/2021 2:30:00 PM 1.81 35.258 0.7 7.85 3.82 15.15
2/20/2021 2:45:00 PM 1.93 35.474 0.7 7.86 4.28 15.21
2/20/2021 3:00:00 PM 1.97 35.546 0.701 7.88 3.64 15.24
2/20/2021 3:15:00 PM 2.07 35.726 0.701 7.88 3.14 15.29
2/20/2021 3:30:00 PM 2.13 35.834 0.702 7.89 4.17 15.35
2/20/2021 3:45:00 PM 2.2 35.96 0.702 7.91 4.14 15.38
2/20/2021 4:00:00 PM 2.25 36.05 0.702 7.92 3.61 15.41
2/20/2021 4:15:00 PM 2.29 36.122 0.702 7.93 3.14 15.43
2/20/2021 4:30:00 PM 2.32 36.176 0.702 7.94 3.8 15.48
2/20/2021 4:45:00 PM 2.35 36.23 0.702 7.95 3.49 15.47
2/20/2021 5:00:00 PM 2.34 36.212 0.701 7.95 3.36 15.49
2/20/2021 5:15:00 PM 2.32 36.176 0.701 7.96 3.84 15.42
2/20/2021 5:30:00 PM 2.28 36.104 0.701 7.97 3.32 15.37
2/20/2021 5:45:00 PM 2.25 36.05 0.701 7.97 3.21 15.33
2/20/2021 6:00:00 PM 2.21 35.978 0.7 7.97 2.78 15.26
2/20/2021 6:15:00 PM 2.16 35.888 0.7 7.96 2.79 15.17
2/20/2021 6:30:00 PM 2.13 35.834 0.699 7.95 2.56 15.09
2/20/2021 6:45:00 PM 2.1 35.78 0.698 7.95 2.88 15.03
2/20/2021 7:00:00 PM 2.08 35.744 0.698 7.94 2.83 14.95
2/20/2021 7:15:00 PM 2.05 35.69 0.697 7.95 3.13 14.86
2/20/2021 7:30:00 PM 2.01 35.618 0.696 7.94 3.21 14.78
2/20/2021 7:45:00 PM 1.97 35.546 0.696 7.93 3.45 14.7
2/20/2021 8:00:00 PM 1.92 35.456 0.696 7.92 3.16 14.61
2/20/2021 8:15:00 PM 1.88 35.384 0.695 7.92 3.08 14.52
2/20/2021 8:30:00 PM 1.84 35.312 0.695 7.9 3.66 14.43
2/20/2021 8:45:00 PM 1.8 35.24 0.694 7.89 3.28 14.35
2/20/2021 9:00:00 PM 1.77 35.186 0.694 7.89 2.92 14.28
2/20/2021 9:15:00 PM 1.74 35.132 0.694 7.88 2.83 14.2
2/20/2021 9:30:00 PM 1.71 35.078 0.693 7.87 2.89 14.11
2/20/2021 9:45:00 PM 1.67 35.006 0.693 7.86 2.97 14.01
2/20/2021 10:00:00 PM 1.63 34.934 0.693 7.83 2.75 13.93
2/20/2021 10:15:00 PM 1.6 34.88 0.693 7.83 2.88 13.85
2/20/2021 10:30:00 PM 1.58 34.844 0.693 7.82 2.88 13.78
2/20/2021 10:45:00 PM 1.56 34.808 0.693 7.8 3 13.71
2/20/2021 11:00:00 PM 1.53 34.754 0.693 7.8 2.99 13.65
2/20/2021 11:15:00 PM 1.5 34.7 0.693 7.8 2.9 13.59
2/20/2021 11:30:00 PM 1.46 34.628 0.693 7.79 2.94 13.54
2/20/2021 11:45:00 PM 1.43 34.574 0.693 7.78 2.57 13.49
2/21/2021 12:00:00 AM 1.4 34.52 0.694 7.77 2.57 13.45
2/21/2021 12:15:00 AM 1.37 34.466 0.694 7.76 2.69 13.4
2/21/2021 12:30:00 AM 1.33 34.394 0.694 7.76 2.46 13.35
2/21/2021 12:45:00 AM 1.29 34.322 0.695 7.75 2.48 13.31
2/21/2021 1:00:00 AM 1.25 34.25 0.695 7.75 2.3 13.28
2/21/2021 1:15:00 AM 1.2 34.16 0.695 7.74 2.32 13.24
2/21/2021 1:30:00 AM 1.17 34.106 0.696 7.73 2.19 13.21
2/21/2021 1:45:00 AM 1.13 34.034 0.696 7.72 2.06 13.17
2/21/2021 2:00:00 AM 1.08 33.944 0.696 7.72 2.34 13.15
2/21/2021 2:15:00 AM 1.04 33.872 0.696 7.72 2.24 13.14
2/21/2021 2:30:00 AM 1 33.8 0.696 7.71 2.07 13.11
2/21/2021 2:45:00 AM 0.95 33.71 0.696 7.7 2.15 13.1
2/21/2021 3:00:00 AM 0.92 33.656 0.696 7.69 2.21 13.07
2/21/2021 3:15:00 AM 0.87 33.566 0.696 7.68 2.17 13.05
2/21/2021 3:30:00 AM 0.81 33.458 0.695 7.68 2.26 13.06
2/21/2021 3:45:00 AM 0.77 33.386 0.695 7.67 2.09 13.03
2/21/2021 4:00:00 AM 0.73 33.314 0.695 7.67 2.48 13.03
2/21/2021 4:15:00 AM 0.7 33.26 0.694 7.66 2.3 13.02
2/21/2021 4:30:00 AM 0.66 33.188 0.693 7.65 2.1 13.03
2/21/2021 4:45:00 AM 0.63 33.134 0.692 7.65 2.21 13.02
2/21/2021 5:00:00 AM 0.59 33.062 0.692 7.64 2.26 13.01
2/21/2021 5:15:00 AM 0.54 32.972 0.691 7.64 2.1 13.03
2/21/2021 5:30:00 AM 0.52 32.936 0.691 7.64 2.21 13.02
2/21/2021 5:45:00 AM 0.47 32.846 0.69 7.63 2.17 13.03
2/21/2021 6:00:00 AM 0.4 32.72 0.689 7.63 1.97 13.06
2/21/2021 6:15:00 AM 0.37 32.666 0.688 7.62 2.07 13.03
2/21/2021 6:30:00 AM 0.31 32.558 0.688 7.62 1.98 13.06
2/21/2021 6:45:00 AM 0.27 32.486 0.687 7.61 2.6 13.05
2/21/2021 7:00:00 AM 0.21 32.378 0.686 7.61 2.21 13.1
2/21/2021 7:15:00 AM 0.18 32.324 0.685 7.61 2.84 13.1
2/21/2021 7:30:00 AM 0.14 32.252 0.684 7.61 2.2 13.12
2/21/2021 7:45:00 AM 0.09 32.162 0.684 7.61 2.39 13.18
2/21/2021 8:00:00 AM 0.08 32.144 0.683 7.61 2.38 13.21
2/21/2021 8:15:00 AM 0.06 32.108 0.682 7.61 2.41 13.24
2/21/2021 8:30:00 AM 0.04 32.072 0.682 7.61 2.26 13.32
2/21/2021 8:45:00 AM 0.02 32.036 0.682 7.62 2.26 13.42
2/21/2021 9:00:00 AM 0.03 32.054 0.682 7.62 2.25 13.46
2/21/2021 9:15:00 AM 0.05 32.09 0.682 7.62 2.34 13.56
2/21/2021 9:30:00 AM 0.04 32.072 0.683 7.63 2.19 13.63
2/21/2021 9:45:00 AM 0.08 32.144 0.683 7.63 2.05 13.72
2/21/2021 10:00:00 AM 0.16 32.288 0.684 7.64 2.12 13.81
2/21/2021 10:15:00 AM 0.24 32.432 0.685 7.65 1.97 13.93
2/21/2021 10:30:00 AM 0.33 32.594 0.686 7.65 2.04 14.02
2/21/2021 10:45:00 AM 0.39 32.702 0.688 7.66 2.05 14.11
2/21/2021 11:00:00 AM 0.5 32.9 0.689 7.66 1.87 14.19
2/21/2021 11:15:00 AM 0.65 33.17 0.69 7.67 2.23 14.27
2/21/2021 11:30:00 AM 0.81 33.458 0.691 7.68 2.12 14.37
2/21/2021 11:45:00 AM 0.95 33.71 0.691 7.68 1.87 14.41
2/21/2021 12:00:00 PM 1.09 33.962 0.691 7.7 1.88 14.5
2/21/2021 12:15:00 PM 1.24 34.232 0.692 7.69 1.9 14.52
2/21/2021 12:30:00 PM 1.4 34.52 0.69 7.72 2.08 14.67
2/21/2021 12:45:00 PM 1.56 34.808 0.689 7.73 2.25 14.79
2/21/2021 1:00:00 PM 1.69 35.042 0.688 7.74 1.89 14.86
2/21/2021 1:15:00 PM 1.84 35.312 0.687 7.75 2.13 14.96
2/21/2021 1:30:00 PM 1.93 35.474 0.685 7.77 2.26 14.99
2/21/2021 1:45:00 PM 2.05 35.69 0.683 7.79 2.21 15.09
2/21/2021 2:00:00 PM 2.15 35.87 0.68 7.8 1.89 15.17
2/21/2021 2:15:00 PM 2.23 36.014 0.678 7.81 2.21 15.23
2/21/2021 2:30:00 PM 2.31 36.158 0.675 7.82 2.63 15.28
2/21/2021 2:45:00 PM 2.38 36.284 0.671 7.83 2.32 15.34
2/21/2021 3:00:00 PM 2.41 36.338 0.669 7.84 2.28 15.38
2/21/2021 3:15:00 PM 2.43 36.374 0.666 7.85 2.38 15.46
2/21/2021 3:30:00 PM 2.43 36.374 0.663 7.86 2.32 15.48
2/21/2021 3:45:00 PM 2.42 36.356 0.66 7.87 2.29 15.52
2/21/2021 4:00:00 PM 2.41 36.338 0.657 7.87 2.42 15.49
2/21/2021 4:15:00 PM 2.41 36.338 0.655 7.88 2.07 15.51
2/21/2021 4:30:00 PM 2.43 36.374 0.652 7.89 2.26 15.52
2/21/2021 4:45:00 PM 2.46 36.428 0.65 7.9 2.3 15.53
2/21/2021 5:00:00 PM 2.48 36.464 0.648 7.91 1.99 15.51
2/21/2021 5:15:00 PM 2.5 36.5 0.646 7.92 2.34 15.49
2/21/2021 5:30:00 PM 2.53 36.554 0.644 7.93 2.38 15.46
2/21/2021 5:45:00 PM 2.54 36.572 0.643 7.93 2.2 15.4
2/21/2021 6:00:00 PM 2.55 36.59 0.642 7.93 2.03 15.33
2/21/2021 6:15:00 PM 2.55 36.59 0.641 7.93 2.35 15.27
2/21/2021 6:30:00 PM 2.55 36.59 0.641 7.93 2.38 15.18
2/21/2021 6:45:00 PM 2.55 36.59 0.641 7.92 2.37 15.09
2/21/2021 7:00:00 PM 2.54 36.572 0.641 7.92 2.51 15.01
2/21/2021 7:15:00 PM 2.54 36.572 0.641 7.92 2.68 14.91
2/21/2021 7:30:00 PM 2.54 36.572 0.641 7.92 2.36 14.82
2/21/2021 7:45:00 PM 2.54 36.572 0.642 7.9 2.87 14.71
2/21/2021 8:00:00 PM 2.54 36.572 0.642 7.9 3.07 14.6
2/21/2021 8:15:00 PM 2.53 36.554 0.643 7.9 3.17 14.5
2/21/2021 8:30:00 PM 2.51 36.518 0.644 7.89 2.7 14.39
2/21/2021 8:45:00 PM 2.48 36.464 0.645 7.87 3.11 14.27
2/21/2021 9:00:00 PM 2.46 36.428 0.646 7.87 3.39 14.17
2/21/2021 9:15:00 PM 2.43 36.374 0.646 7.85 3.09 14.05
2/21/2021 9:30:00 PM 2.41 36.338 0.647 7.85 3.04 13.95
2/21/2021 9:45:00 PM 2.38 36.284 0.647 7.83 3.17 13.85
2/21/2021 10:00:00 PM 2.36 36.248 0.648 7.82 2.82 13.75
2/21/2021 10:15:00 PM 2.34 36.212 0.648 7.82 3.07 13.66
2/21/2021 10:30:00 PM 2.3 36.14 0.647 7.81 2.96 13.58
2/21/2021 10:45:00 PM 2.27 36.086 0.648 7.8 2.69 13.5
2/21/2021 11:00:00 PM 2.26 36.068 0.648 7.8 3.23 13.43
2/21/2021 11:15:00 PM 2.23 36.014 0.648 7.79 2.94 13.36
2/21/2021 11:30:00 PM 2.21 35.978 0.647 7.79 2.92 13.3
2/21/2021 11:45:00 PM 2.19 35.942 0.648 7.78 2.94 13.22
2/22/2021 12:00:00 AM 2.17 35.906 0.648 7.78 2.82 13.18
2/22/2021 12:15:00 AM 2.14 35.852 0.649 7.78 2.83 13.11
2/22/2021 12:30:00 AM 2.12 35.816 0.649 7.77 2.79 13.07
2/22/2021 12:45:00 AM 2.09 35.762 0.649 7.77 3.02 13.02
2/22/2021 1:00:00 AM 2.07 35.726 0.65 7.76 2.69 12.97
2/22/2021 1:15:00 AM 2.04 35.672 0.65 7.76 2.83 12.92
2/22/2021 1:30:00 AM 2.02 35.636 0.651 7.75 2.91 12.89
2/22/2021 1:45:00 AM 2 35.6 0.652 7.75 2.42 12.83
2/22/2021 2:00:00 AM 1.97 35.546 0.652 7.74 2.53 12.78
2/22/2021 2:15:00 AM 1.95 35.51 0.653 7.74 2.51 12.77
2/22/2021 2:30:00 AM 1.92 35.456 0.653 7.74 2.46 12.72
2/22/2021 2:45:00 AM 1.9 35.42 0.654 7.74 2.45 12.71
2/22/2021 3:00:00 AM 1.87 35.366 0.654 7.71 2.48 12.66
2/22/2021 3:15:00 AM 1.85 35.33 0.654 7.73 2.45 12.64
2/22/2021 3:30:00 AM 1.82 35.276 0.654 7.72 2.54 12.61
2/22/2021 3:45:00 AM 1.79 35.222 0.654 7.72 2.64 12.61
2/22/2021 4:00:00 AM 1.77 35.186 0.654 7.72 2.55 12.6
2/22/2021 4:15:00 AM 1.75 35.15 0.653 7.71 2.35 12.56
2/22/2021 4:30:00 AM 1.72 35.096 0.652 7.71 2.25 12.56
2/22/2021 4:45:00 AM 1.69 35.042 0.652 7.7 2.36 12.54
2/22/2021 5:00:00 AM 1.66 34.988 0.65 7.69 2.43 12.54
2/22/2021 5:15:00 AM 1.63 34.934 0.649 7.69 2.21 12.52
2/22/2021 5:30:00 AM 1.62 34.916 0.648 7.68 2.36 12.5
2/22/2021 5:45:00 AM 1.61 34.898 0.646 7.67 2.27 12.51
2/22/2021 6:00:00 AM 1.6 34.88 0.645 7.67 2.58 12.47
2/22/2021 6:15:00 AM 1.58 34.844 0.643 7.66 2.73 12.49
2/22/2021 6:30:00 AM 1.56 34.808 0.641 7.66 2.43 12.48
2/22/2021 6:45:00 AM 1.53 34.754 0.64 7.65 2.61 12.48
2/22/2021 7:00:00 AM 1.52 34.736 0.639 7.63 2.59 12.42
2/22/2021 7:15:00 AM 1.49 34.682 0.637 7.64 2.92 12.44
2/22/2021 7:30:00 AM 1.47 34.646 0.636 7.63 3.32 12.48
2/22/2021 7:45:00 AM 1.46 34.628 0.636 7.63 2.64 12.48
2/22/2021 8:00:00 AM 1.45 34.61 0.635 7.64 3.74 12.53
2/22/2021 8:15:00 AM 1.42 34.556 0.635 7.63 2.22 12.55
2/22/2021 8:30:00 AM 1.37 34.466 0.634 7.63 2.76 12.58
2/22/2021 8:45:00 AM 1.34 34.412 0.635 7.63 2.04 12.62
2/22/2021 9:00:00 AM 1.29 34.322 0.635 7.64 1.99 12.68
2/22/2021 9:15:00 AM 1.27 34.286 0.635 7.63 2.18 12.69
2/22/2021 9:30:00 AM 1.24 34.232 0.636 7.64 2.82 12.81
2/22/2021 9:45:00 AM 1.24 34.232 0.637 7.64 3.1 12.86
2/22/2021 10:00:00 AM 1.23 34.214 0.637 7.65 4.33 12.95
2/22/2021 10:15:00 AM 1.22 34.196 0.638 7.66 4.39 12.98
2/22/2021 10:30:00 AM 1.21 34.178 0.638 7.66 3.3 13.1
2/22/2021 10:45:00 AM 1.22 34.196 0.638 7.67 4.03 13.16
2/22/2021 11:00:00 AM 1.25 34.25 0.638 7.68 3.77 13.27
2/22/2021 11:15:00 AM 1.28 34.304 0.639 7.68 3.28 13.35
2/22/2021 11:30:00 AM 1.32 34.376 0.639 7.69 2.98 13.42
2/22/2021 11:45:00 AM 1.36 34.448 0.638 7.7 2.64 13.55
2/22/2021 12:00:00 PM 1.4 34.52 0.638 7.71 3.8 13.63
2/22/2021 12:15:00 PM 1.47 34.646 0.639 7.72 5.65 13.74
2/22/2021 12:30:00 PM 1.53 34.754 0.639 7.73 7.97 13.82
2/22/2021 12:45:00 PM 1.6 34.88 0.64 7.74 5.38 13.94
2/22/2021 1:00:00 PM 1.64 34.952 0.64 7.75 4.43 14
2/22/2021 1:15:00 PM 1.65 34.97 0.641 7.76 3.32 14.09
2/22/2021 1:30:00 PM 1.66 34.988 0.642 7.79 4.81 14.2
2/22/2021 1:45:00 PM 1.69 35.042 0.643 7.79 3.34 14.26
2/22/2021 2:00:00 PM 1.73 35.114 0.644 7.8 3.36 14.33
2/22/2021 2:15:00 PM 1.76 35.168 0.645 7.82 7.81 14.4
2/22/2021 2:30:00 PM 1.78 35.204 0.646 7.82 5.58 14.42
2/22/2021 2:45:00 PM 1.83 35.294 0.647 7.83 4.62 14.52
2/22/2021 3:00:00 PM 1.87 35.366 0.647 7.84 3.19 14.57
2/22/2021 3:15:00 PM 1.89 35.402 0.647 7.86 3.16 14.61
2/22/2021 3:30:00 PM 1.93 35.474 0.647 7.86 2.6 14.64
2/22/2021 3:45:00 PM 1.96 35.528 0.647 7.87 2.33 14.66
2/22/2021 4:00:00 PM 1.99 35.582 0.646 7.89 3.05 14.74
2/22/2021 4:15:00 PM 2 35.6 0.645 7.89 2.94 14.74
2/22/2021 4:30:00 PM 2.03 35.654 0.644 7.9 2.84 14.75
2/22/2021 4:45:00 PM 2.04 35.672 0.643 7.9 3.47 14.76
2/22/2021 5:00:00 PM 2.05 35.69 0.642 7.9 3.14 14.72
2/22/2021 5:15:00 PM 2.05 35.69 0.641 7.9 2.62 14.69
2/22/2021 5:30:00 PM 2.05 35.69 0.639 7.9 2.85 14.63
2/22/2021 5:45:00 PM 2.05 35.69 0.638 7.9 2.37 14.57
2/22/2021 6:00:00 PM 2.05 35.69 0.637 7.9 2.7 14.53
2/22/2021 6:15:00 PM 2.04 35.672 0.635 7.9 2.49 14.46
2/22/2021 6:30:00 PM 2.04 35.672 0.634 7.9 2.58 14.4
2/22/2021 6:45:00 PM 2.05 35.69 0.632 7.89 3.36 14.33
2/22/2021 7:00:00 PM 2.05 35.69 0.631 7.89 3.3 14.26
2/22/2021 7:15:00 PM 2.07 35.726 0.63 7.87 3.6 14.19
2/22/2021 7:30:00 PM 2.08 35.744 0.629 7.88 3.86 14.13
2/22/2021 7:45:00 PM 2.09 35.762 0.628 7.87 3.96 14.02
2/22/2021 8:00:00 PM 2.1 35.78 0.627 7.87 4.19 13.95
2/22/2021 8:15:00 PM 2.11 35.798 0.627 7.85 3.9 13.86
2/22/2021 8:30:00 PM 2.12 35.816 0.626 7.85 2.88 13.8
2/22/2021 8:45:00 PM 2.12 35.816 0.625 7.85 3.09 13.73
2/22/2021 9:00:00 PM 2.13 35.834 0.625 7.84 2.74 13.64
2/22/2021 9:15:00 PM 2.14 35.852 0.624 7.84 2.6 13.56
2/22/2021 9:30:00 PM 2.15 35.87 0.624 7.82 2.59 13.47
2/22/2021 9:45:00 PM 2.15 35.87 0.623 7.81 2.86 13.41
2/22/2021 10:00:00 PM 2.16 35.888 0.623 7.81 2.75 13.36
2/22/2021 10:15:00 PM 2.16 35.888 0.623 7.8 2.66 13.28
2/22/2021 10:30:00 PM 2.17 35.906 0.622 7.8 2.91 13.22
2/22/2021 10:45:00 PM 2.17 35.906 0.622 7.79 2.43 13.16
2/22/2021 11:00:00 PM 2.18 35.924 0.622 7.79 2.8 13.1
2/22/2021 11:15:00 PM 2.18 35.924 0.622 7.78 2.85 13.04
2/22/2021 11:30:00 PM 2.18 35.924 0.622 7.78 2.67 12.99
2/22/2021 11:45:00 PM 2.18 35.924 0.621 7.77 2.66 12.93
2/23/2021 12:00:00 AM 2.18 35.924 0.621 7.77 2.47 12.87
2/23/2021 12:15:00 AM 2.18 35.924 0.621 7.75 2.72 12.83
2/23/2021 12:30:00 AM 2.19 35.942 0.621 7.75 3.06 12.77
2/23/2021 12:45:00 AM 2.19 35.942 0.621 7.75 2.97 12.71
2/23/2021 1:00:00 AM 2.19 35.942 0.62 7.74 2.89 12.68
2/23/2021 1:15:00 AM 2.17 35.906 0.62 7.74 2.49 12.64
2/23/2021 1:30:00 AM 2.15 35.87 0.62 7.73 2.85 12.59
2/23/2021 1:45:00 AM 2.12 35.816 0.62 7.72 2.45 12.55
2/23/2021 2:00:00 AM 2.09 35.762 0.62 7.72 2.8 12.52
2/23/2021 2:15:00 AM 2.06 35.708 0.62 7.71 2.65 12.48
2/23/2021 2:30:00 AM 2.03 35.654 0.62 7.71 2.68 12.46
2/23/2021 2:45:00 AM 2.01 35.618 0.62 7.71 2.42 12.42
2/23/2021 3:00:00 AM 1.97 35.546 0.619 7.7 2.73 12.4
2/23/2021 3:15:00 AM 1.93 35.474 0.619 7.7 2.71 12.39
2/23/2021 3:30:00 AM 1.91 35.438 0.619 7.69 2.48 12.36
2/23/2021 3:45:00 AM 1.88 35.384 0.619 7.69 2.46 12.35
2/23/2021 4:00:00 AM 1.85 35.33 0.618 7.69 2.36 12.34
2/23/2021 4:15:00 AM 1.82 35.276 0.619 7.68 2.92 12.32
2/23/2021 4:30:00 AM 1.79 35.222 0.618 7.68 2.8 12.32
2/23/2021 4:45:00 AM 1.76 35.168 0.618 7.67 2.83 12.3
2/23/2021 5:00:00 AM 1.74 35.132 0.618 7.67 2.95 12.28
2/23/2021 5:15:00 AM 1.71 35.078 0.617 7.67 3.07 12.3
2/23/2021 5:30:00 AM 1.69 35.042 0.617 7.66 2.96 12.28
2/23/2021 5:45:00 AM 1.69 35.042 0.617 7.66 2.82 12.27
2/23/2021 6:00:00 AM 1.67 35.006 0.617 7.66 2.99 12.28
2/23/2021 6:15:00 AM 1.67 35.006 0.617 7.65 2.9 12.27
2/23/2021 6:30:00 AM 1.65 34.97 0.617 7.65 2.9 12.26
2/23/2021 6:45:00 AM 1.65 34.97 0.617 7.64 3.35 12.23
2/23/2021 7:00:00 AM 1.64 34.952 0.618 7.65 2.95 12.26
2/23/2021 7:15:00 AM 1.63 34.934 0.618 7.65 12.83 12.24
2/23/2021 7:30:00 AM 1.63 34.934 0.619 7.64 3.76 12.22
2/23/2021 7:45:00 AM 1.64 34.952 0.62 7.65 2.87 12.26
2/23/2021 8:00:00 AM 1.64 34.952 0.622 7.65 2.46 12.32
2/23/2021 8:15:00 AM 1.66 34.988 0.623 7.65 2.33 12.35
2/23/2021 8:30:00 AM 1.67 35.006 0.625 7.65 2.44 12.39
2/23/2021 8:45:00 AM 1.7 35.06 0.627 7.66 2.4 12.46
2/23/2021 9:00:00 AM 1.73 35.114 0.629 7.67 2.57 12.52
2/23/2021 9:15:00 AM 1.76 35.168 0.631 7.67 2.7 12.63
2/23/2021 9:30:00 AM 1.79 35.222 0.633 7.68 2.27 12.67
2/23/2021 9:45:00 AM 1.82 35.276 0.636 7.69 2.56 12.76
2/23/2021 10:00:00 AM 1.86 35.348 0.639 7.68 2.94 12.82
2/23/2021 10:15:00 AM 1.9 35.42 0.641 7.7 2.67 12.94
2/23/2021 10:30:00 AM 1.94 35.492 0.643 7.71 2.43 13
2/23/2021 10:45:00 AM 1.99 35.582 0.646 7.72 2.65 13.11
2/23/2021 11:00:00 AM 2.06 35.708 0.649 7.7 2.52 13.25
2/23/2021 11:15:00 AM 2.12 35.816 0.651 7.75 2.26 13.33
2/23/2021 11:30:00 AM 2.16 35.888 0.653 7.75 2.69 13.42
2/23/2021 11:45:00 AM 2.2 35.96 0.655 7.76 2.93 13.54
2/23/2021 12:00:00 PM 2.28 36.104 0.657 7.77 3 13.63
2/23/2021 12:15:00 PM 2.38 36.284 0.659 7.79 2.98 13.75
2/23/2021 12:30:00 PM 2.51 36.518 0.661 7.81 2.91 13.85
2/23/2021 12:45:00 PM 2.55 36.59 0.663 7.81 3.04 13.91
2/23/2021 1:00:00 PM 2.59 36.662 0.666 7.83 3.44 14.02
2/23/2021 1:15:00 PM 2.62 36.716 0.668 7.83 3.08 14.11
2/23/2021 1:30:00 PM 2.64 36.752 0.67 7.85 3.04 14.17
2/23/2021 1:45:00 PM 2.65 36.77 0.673 7.86 3.43 14.21
2/23/2021 2:00:00 PM 2.66 36.788 0.676 7.86 4.59 14.22
2/23/2021 2:15:00 PM 2.66 36.788 0.677 7.86 3.92 14.23
2/23/2021 2:30:00 PM 2.67 36.806 0.68 7.88 3.99 14.26
2/23/2021 2:45:00 PM 2.68 36.824 0.682 7.88 3.2 14.28
2/23/2021 3:00:00 PM 2.69 36.842 0.684 7.88 2.5 14.28
2/23/2021 3:15:00 PM 2.7 36.86 0.686 7.88 2.79 14.27
2/23/2021 3:30:00 PM 2.71 36.878 0.689 7.89 2.34 14.27
2/23/2021 3:45:00 PM 2.72 36.896 0.691 7.89 2.09 14.28
2/23/2021 4:00:00 PM 2.73 36.914 0.694 7.9 2.15 14.27
2/23/2021 4:15:00 PM 2.75 36.95 0.696 7.9 2.29 14.25
2/23/2021 4:30:00 PM 2.76 36.968 0.698 7.9 2.23 14.23
2/23/2021 4:45:00 PM 2.77 36.986 0.701 7.9 2.31 14.19
2/23/2021 5:00:00 PM 2.79 37.022 0.704 7.9 2.44 14.15
2/23/2021 5:15:00 PM 2.8 37.04 0.707 7.9 2.43 14.11
2/23/2021 5:30:00 PM 2.81 37.058 0.709 7.89 2.62 14.06
2/23/2021 5:45:00 PM 2.81 37.058 0.712 7.89 2.56 13.96
2/23/2021 6:00:00 PM 2.82 37.076 0.714 7.89 2.74 13.92
2/23/2021 6:15:00 PM 2.82 37.076 0.716 7.89 2.56 13.85
2/23/2021 6:30:00 PM 2.82 37.076 0.718 7.89 2.96 13.77
2/23/2021 6:45:00 PM 2.83 37.094 0.72 7.88 3.1 13.68
2/23/2021 7:00:00 PM 2.84 37.112 0.721 7.87 2.9 13.62
2/23/2021 7:15:00 PM 2.85 37.13 0.722 7.87 3.29 13.55
2/23/2021 7:30:00 PM 2.86 37.148 0.723 7.86 3.11 13.48
2/23/2021 7:45:00 PM 2.88 37.184 0.723 7.86 3.84 13.43
2/23/2021 8:00:00 PM 2.89 37.202 0.724 7.86 3.37 13.38
2/23/2021 8:15:00 PM 2.9 37.22 0.724 7.85 3.21 13.32
2/23/2021 8:30:00 PM 2.9 37.22 0.724 7.85 3.32 13.26
2/23/2021 8:45:00 PM 2.91 37.238 0.724 7.85 3.03 13.19
2/23/2021 9:00:00 PM 2.91 37.238 0.724 7.84 2.85 13.12
2/23/2021 9:15:00 PM 2.92 37.256 0.725 7.83 2.98 13.06
2/23/2021 9:30:00 PM 2.92 37.256 0.725 7.83 2.6 13
2/23/2021 9:45:00 PM 2.93 37.274 0.725 7.82 2.28 12.93
2/23/2021 10:00:00 PM 2.93 37.274 0.725 7.81 2.47 12.86
2/23/2021 10:15:00 PM 2.93 37.274 0.725 7.8 2.97 12.81
2/23/2021 10:30:00 PM 2.92 37.256 0.726 7.8 2.16 12.75
2/23/2021 10:45:00 PM 2.92 37.256 0.726 7.79 2.42 12.7
2/23/2021 11:00:00 PM 2.92 37.256 0.727 7.79 2.09 12.64
2/23/2021 11:15:00 PM 2.92 37.256 0.727 7.79 2.08 12.61
2/23/2021 11:30:00 PM 2.91 37.238 0.727 7.78 2.47 12.56
2/23/2021 11:45:00 PM 2.9 37.22 0.728 7.78 2.28 12.52
2/24/2021 12:00:00 AM 2.9 37.22 0.728 7.77 2.37 12.47
2/24/2021 12:15:00 AM 2.89 37.202 0.729 7.76 2.38 12.43
2/24/2021 12:30:00 AM 2.88 37.184 0.729 7.76 2.25 12.42
2/24/2021 12:45:00 AM 2.87 37.166 0.729 7.75 2.17 12.39
2/24/2021 1:00:00 AM 2.86 37.148 0.73 7.75 2.23 12.36
2/24/2021 1:15:00 AM 2.84 37.112 0.73 7.74 2.09 12.32
2/24/2021 1:30:00 AM 2.82 37.076 0.73 7.74 2.16 12.31
2/24/2021 1:45:00 AM 2.8 37.04 0.73 7.74 2.5 12.28
2/24/2021 2:00:00 AM 2.76 36.968 0.73 7.73 2.25 12.25
2/24/2021 2:15:00 AM 2.74 36.932 0.73 7.72 2.31 12.22
2/24/2021 2:30:00 AM 2.72 36.896 0.731 7.71 2.54 12.2
2/24/2021 2:45:00 AM 2.69 36.842 0.731 7.71 2.73 12.17
2/24/2021 3:00:00 AM 2.66 36.788 0.731 7.69 2.62 12.15
2/24/2021 3:15:00 AM 2.63 36.734 0.73 7.7 2.39 12.14
2/24/2021 3:30:00 AM 2.59 36.662 0.73 7.7 2.58 12.13
2/24/2021 3:45:00 AM 2.57 36.626 0.73 7.67 2.5 12.13
2/24/2021 4:00:00 AM 2.55 36.59 0.73 7.67 2.35 12.08
2/24/2021 4:15:00 AM 2.51 36.518 0.73 7.67 2.44 12.1
2/24/2021 4:30:00 AM 2.49 36.482 0.729 7.67 2.19 12.09
2/24/2021 4:45:00 AM 2.46 36.428 0.729 7.67 2.33 12.07
2/24/2021 5:00:00 AM 2.43 36.374 0.729 7.66 2.46 12.09
2/24/2021 5:15:00 AM 2.4 36.32 0.728 7.66 2.48 12.08
2/24/2021 5:30:00 AM 2.36 36.248 0.728 7.66 2.32 12.08
2/24/2021 5:45:00 AM 2.32 36.176 0.727 7.66 2.11 12.09
2/24/2021 6:00:00 AM 2.28 36.104 0.727 7.66 2.55 12.11
2/24/2021 6:15:00 AM 2.24 36.032 0.726 7.66 2.18 12.1
2/24/2021 6:30:00 AM 2.22 35.996 0.726 7.65 2.47 12.08
2/24/2021 6:45:00 AM 2.17 35.906 0.726 7.65 2.44 12.1
2/24/2021 7:00:00 AM 2.15 35.87 0.726 7.65 2.37 12.07
2/24/2021 7:15:00 AM 2.12 35.816 0.726 7.65 2.12 12.12
2/24/2021 7:30:00 AM 2.11 35.798 0.727 7.65 2.6 12.17
2/24/2021 7:45:00 AM 2.1 35.78 0.727 7.66 3.42 12.26
2/24/2021 8:00:00 AM 2.1 35.78 0.727 7.65 2.12 12.31
2/24/2021 8:15:00 AM 2.1 35.78 0.728 7.67 2.11 12.43
2/24/2021 8:30:00 AM 2.12 35.816 0.728 7.67 2.43 12.52
2/24/2021 8:45:00 AM 2.13 35.834 0.729 7.68 2.18 12.63
2/24/2021 9:00:00 AM 2.16 35.888 0.73 7.68 35.38 12.7
2/24/2021 9:15:00 AM 2.19 35.942 0.729 7.7 3.6 12.85
2/24/2021 9:30:00 AM 2.23 36.014 0.729 7.71 3.21 12.95
2/24/2021 9:45:00 AM 2.28 36.104 0.728 7.72 4.46 13.01
2/24/2021 10:00:00 AM 2.33 36.194 0.728 7.73 3.92 13.11
2/24/2021 10:15:00 AM 2.4 36.32 0.726 7.74 3.16 13.24
2/24/2021 10:30:00 AM 2.48 36.464 0.724 7.75 3.07 13.35
2/24/2021 10:45:00 AM 2.55 36.59 0.723 7.76 2.9 13.45
2/24/2021 11:00:00 AM 2.64 36.752 0.72 7.78 2.79 13.62
2/24/2021 11:15:00 AM 2.73 36.914 0.718 7.8 3.01 13.73
2/24/2021 11:30:00 AM 2.81 37.058 0.715 7.81 3.27 13.85
2/24/2021 11:45:00 AM 2.88 37.184 0.713 7.82 3.78 13.91
2/24/2021 12:00:00 PM 2.96 37.328 0.71 7.84 3.57 14.05
2/24/2021 12:15:00 PM 3.11 37.598 0.707 7.85 3.31 14.12
2/24/2021 12:30:00 PM 3.34 38.012 0.704 7.87 2.68 14.25
2/24/2021 12:45:00 PM 3.61 38.498 0.701 7.9 3.09 14.35
2/24/2021 1:00:00 PM 3.83 38.894 0.698 7.92 3.15 14.41
2/24/2021 1:15:00 PM 3.96 39.128 0.696 7.94 3.02 14.44
2/24/2021 1:30:00 PM 4.11 39.398 0.693 7.97 2.98 14.49
2/24/2021 1:45:00 PM 4.27 39.686 0.691 7.99 3.77 14.6
2/24/2021 2:00:00 PM 4.38 39.884 0.689 8.01 4.04 14.67
2/24/2021 2:15:00 PM 4.55 40.19 0.687 8.03 2.84 14.69
2/24/2021 2:30:00 PM 4.68 40.424 0.685 8.05 3.18 14.78
2/24/2021 2:45:00 PM 4.76 40.568 0.684 8.08 3.36 14.76
2/24/2021 3:00:00 PM 4.85 40.73 0.683 8.11 2.72 14.82
2/24/2021 3:15:00 PM 4.93 40.874 0.682 8.14 3.29 14.81
2/24/2021 3:30:00 PM 4.98 40.964 0.682 8.16 3.67 14.87
2/24/2021 3:45:00 PM 5 41 0.681 8.17 3.04 14.87
2/24/2021 4:00:00 PM 5.01 41.018 0.681 8.19 3.38 14.86
2/24/2021 4:15:00 PM 5.03 41.054 0.682 8.19 2.79 14.85
2/24/2021 4:30:00 PM 5.08 41.144 0.682 8.23 2.79 14.88
2/24/2021 4:45:00 PM 5.11 41.198 0.683 8.23 2.93 14.84
2/24/2021 5:00:00 PM 5.15 41.27 0.684 8.23 3.15 14.77
2/24/2021 5:15:00 PM 5.19 41.342 0.686 8.24 3.29 14.72
2/24/2021 5:30:00 PM 5.23 41.414 0.687 8.24 3.75 14.64
2/24/2021 5:45:00 PM 5.24 41.432 0.689 8.23 4.15 14.54
2/24/2021 6:00:00 PM 5.25 41.45 0.691 8.22 5.94 14.41
2/24/2021 6:15:00 PM 5.25 41.45 0.693 8.22 4.72 14.32
2/24/2021 6:30:00 PM 5.26 41.468 0.695 8.22 3.71 14.21
2/24/2021 6:45:00 PM 5.26 41.468 0.698 8.21 3.74 14.1
2/24/2021 7:00:00 PM 5.28 41.504 0.7 8.21 3.81 13.97
2/24/2021 7:15:00 PM 5.29 41.522 0.703 8.21 3.14 13.82
2/24/2021 7:30:00 PM 5.3 41.54 0.705 8.2 3.75 13.69
2/24/2021 7:45:00 PM 5.32 41.576 0.707 8.19 3.44 13.55
2/24/2021 8:00:00 PM 5.32 41.576 0.71 8.18 3.52 13.4
2/24/2021 8:15:00 PM 5.33 41.594 0.712 8.17 3.36 13.27
2/24/2021 8:30:00 PM 5.34 41.612 0.714 8.16 3.62 13.13
2/24/2021 8:45:00 PM 5.34 41.612 0.716 8.14 3.86 12.99
2/24/2021 9:00:00 PM 5.33 41.594 0.718 8.14 3.75 12.86
2/24/2021 9:15:00 PM 5.32 41.576 0.719 8.12 3.98 12.73
2/24/2021 9:30:00 PM 5.33 41.594 0.72 8.11 3.99 12.62
2/24/2021 9:45:00 PM 5.33 41.594 0.721 8.1 3.95 12.51
2/24/2021 10:00:00 PM 5.31 41.558 0.721 8.1 4.02 12.42
2/24/2021 10:15:00 PM 5.27 41.486 0.721 8.08 4.28 12.33
2/24/2021 10:30:00 PM 5.24 41.432 0.721 8.08 4.02 12.25
2/24/2021 10:45:00 PM 5.21 41.378 0.72 8.07 3.93 12.17
2/24/2021 11:00:00 PM 5.17 41.306 0.719 8.06 4.29 12.09
2/24/2021 11:15:00 PM 5.13 41.234 0.717 8.05 4.37 12.02
2/24/2021 11:30:00 PM 5.07 41.126 0.715 8.03 5.14 11.95
2/24/2021 11:45:00 PM 5.01 41.018 0.713 8.03 5.08 11.91
2/25/2021 12:00:00 AM 4.94 40.892 0.711 8.02 5.39 11.85
2/25/2021 12:15:00 AM 4.87 40.766 0.707 8.01 4.82 11.82
2/25/2021 12:30:00 AM 4.8 40.64 0.704 8 5.13 11.79
2/25/2021 12:45:00 AM 4.73 40.514 0.702 7.99 5.03 11.75
2/25/2021 1:00:00 AM 4.66 40.388 0.7 7.98 5.2 11.73
2/25/2021 1:15:00 AM 4.58 40.244 0.695 7.97 5.53 11.72
2/25/2021 1:30:00 AM 4.52 40.136 0.693 7.96 5.17 11.7
2/25/2021 1:45:00 AM 4.45 40.01 0.69 7.96 5.74 11.7
2/25/2021 2:00:00 AM 4.38 39.884 0.687 7.95 5.89 11.69
2/25/2021 2:15:00 AM 4.3 39.74 0.686 7.95 5.91 11.7
2/25/2021 2:30:00 AM 4.25 39.65 0.684 7.94 5.62 11.7
2/25/2021 2:45:00 AM 4.17 39.506 0.683 7.93 5.25 11.7
2/25/2021 3:00:00 AM 4.09 39.362 0.685 7.93 5.11 11.71
2/25/2021 3:15:00 AM 4.04 39.272 0.686 7.92 5.6 11.72
2/25/2021 3:30:00 AM 3.99 39.182 0.687 7.93 5.21 11.71
2/25/2021 3:45:00 AM 3.95 39.11 0.69 7.92 5.07 11.7
2/25/2021 4:00:00 AM 3.91 39.038 0.691 7.91 5.24 11.7
2/25/2021 4:15:00 AM 3.87 38.966 0.692 7.91 5.2 11.7
2/25/2021 4:30:00 AM 3.82 38.876 0.692 7.91 4.87 11.71
2/25/2021 4:45:00 AM 3.76 38.768 0.69 7.91 4.97 11.74
2/25/2021 5:00:00 AM 3.69 38.642 0.687 7.9 4.76 11.76
2/25/2021 5:15:00 AM 3.63 38.534 0.684 7.9 4.78 11.78
2/25/2021 5:30:00 AM 3.55 38.39 0.681 7.9 5.29 11.8
2/25/2021 5:45:00 AM 3.47 38.246 0.677 7.89 5.32 11.84
2/25/2021 6:00:00 AM 3.4 38.12 0.674 7.88 4.95 11.86
2/25/2021 6:15:00 AM 3.34 38.012 0.671 7.88 5.57 11.88
2/25/2021 6:30:00 AM 3.29 37.922 0.669 7.89 5.39 11.91
2/25/2021 6:45:00 AM 3.23 37.814 0.669 7.89 6.02 11.94
2/25/2021 7:00:00 AM 3.17 37.706 0.67 7.88 6.08 11.97
2/25/2021 7:15:00 AM 3.1 37.58 0.673 7.88 25.45 11.99
2/25/2021 7:30:00 AM 3.04 37.472 0.677 7.88 7.32 12.06
2/25/2021 7:45:00 AM 2.98 37.364 0.685 7.88 6.25 12.12
2/25/2021 8:00:00 AM 2.94 37.292 0.694 7.88 6.24 12.21
2/25/2021 8:15:00 AM 2.9 37.22 0.71 7.89 6.17 12.27
2/25/2021 8:30:00 AM 2.86 37.148 0.727 7.89 6.18 12.34
2/25/2021 8:45:00 AM 2.84 37.112 0.748 7.89 6.69 12.42
2/25/2021 9:00:00 AM 2.82 37.076 0.77 7.89 6.14 12.5
2/25/2021 9:15:00 AM 2.82 37.076 0.794 7.91 6.89 12.6
2/25/2021 9:30:00 AM 2.81 37.058 0.818 7.91 5.92 12.7
2/25/2021 9:45:00 AM 2.82 37.076 0.842 7.91 6.58 12.8
2/25/2021 10:00:00 AM 2.84 37.112 0.863 7.91 6.3 12.89
2/25/2021 10:15:00 AM 2.9 37.22 0.881 7.92 6.78 13
2/25/2021 10:30:00 AM 2.97 37.346 0.895 7.93 6.06 13.11
2/25/2021 10:45:00 AM 3.03 37.454 0.905 7.92 6.52 13.18
2/25/2021 11:00:00 AM 3.11 37.598 0.91 7.93 6.93 13.27
2/25/2021 11:15:00 AM 3.2 37.76 0.912 7.94 6.99 13.36
2/25/2021 11:30:00 AM 3.27 37.886 0.91 7.95 6.79 13.46
2/25/2021 11:45:00 AM 3.34 38.012 0.907 7.96 6.17 13.53
2/25/2021 12:00:00 PM 3.44 38.192 0.902 7.97 6.82 13.61
2/25/2021 12:15:00 PM 3.56 38.408 0.897 7.99 6 13.69
2/25/2021 12:30:00 PM 3.7 38.66 0.891 8 6.51 13.77
2/25/2021 12:45:00 PM 3.86 38.948 0.886 8.01 7.86 13.85
2/25/2021 1:00:00 PM 4.01 39.218 0.881 8.04 7.68 13.94
2/25/2021 1:15:00 PM 4.14 39.452 0.877 8.06 7.42 14.02
2/25/2021 1:30:00 PM 4.26 39.668 0.875 8.08 7.6 14.09
2/25/2021 1:45:00 PM 4.38 39.884 0.869 8.1 7.54 14.15
2/25/2021 2:00:00 PM 4.48 40.064 0.864 8.1 7.33 14.19
2/25/2021 2:15:00 PM 4.57 40.226 0.857 8.1 8.11 14.22
2/25/2021 2:30:00 PM 4.65 40.37 0.848 8.11 8.79 14.24
2/25/2021 2:45:00 PM 4.73 40.514 0.841 8.13 8.97 14.25
2/25/2021 3:00:00 PM 4.79 40.622 0.83 8.15 8.95 14.25
2/25/2021 3:15:00 PM 4.85 40.73 0.818 8.16 9.05 14.24
2/25/2021 3:30:00 PM 4.88 40.784 0.806 8.18 9.38 14.21
2/25/2021 3:45:00 PM 4.88 40.784 0.793 8.2 10.18 14.16
2/25/2021 4:00:00 PM 4.87 40.766 0.781 8.2 8.71 14.12
2/25/2021 4:15:00 PM 4.83 40.694 0.765 8.2 9.07 14.06
2/25/2021 4:30:00 PM 4.77 40.586 0.752 8.23 9.38 14
2/25/2021 4:45:00 PM 4.7 40.46 0.737 8.23 9.37 13.92
2/25/2021 5:00:00 PM 4.61 40.298 0.722 8.22 10.49 13.85
2/25/2021 5:15:00 PM 4.5 40.1 0.71 8.2 10.34 13.77
2/25/2021 5:30:00 PM 4.39 39.902 0.697 8.19 10.15 13.7
2/25/2021 5:45:00 PM 4.28 39.704 0.684 8.17 10.41 13.63
2/25/2021 6:00:00 PM 4.16 39.488 0.672 8.15 11.19 13.56
2/25/2021 6:15:00 PM 4.04 39.272 0.663 8.13 11.52 13.48
2/25/2021 6:30:00 PM 3.92 39.056 0.657 8.1 11.95 13.4
2/25/2021 6:45:00 PM 3.82 38.876 0.652 8.08 11.93 13.33
2/25/2021 7:00:00 PM 3.71 38.678 0.647 8.05 11.23 13.27
2/25/2021 7:15:00 PM 3.62 38.516 0.643 8.04 11.57 13.22
2/25/2021 7:30:00 PM 3.53 38.354 0.64 8.02 11.49 13.17
2/25/2021 7:45:00 PM 3.45 38.21 0.638 8.01 11.38 13.13
2/25/2021 8:00:00 PM 3.36 38.048 0.637 7.99 12.56 13.09
2/25/2021 8:15:00 PM 3.28 37.904 0.637 7.95 11.75 13.05
2/25/2021 8:30:00 PM 3.19 37.742 0.639 7.93 12.76 13.03
2/25/2021 8:45:00 PM 3.11 37.598 0.641 7.92 12.23 13.02
2/25/2021 9:00:00 PM 3.02 37.436 0.644 7.9 11.06 13.01
2/25/2021 9:15:00 PM 2.94 37.292 0.647 7.89 12.14 13
2/25/2021 9:30:00 PM 2.85 37.13 0.65 7.85 11.94 12.99
2/25/2021 9:45:00 PM 2.76 36.968 0.653 7.82 11.11 12.98
2/25/2021 10:00:00 PM 2.68 36.824 0.656 7.84 11.25 12.97
2/25/2021 10:15:00 PM 2.6 36.68 0.658 7.83 11.4 12.96
2/25/2021 10:30:00 PM 2.51 36.518 0.661 7.81 10.27 12.96
2/25/2021 10:45:00 PM 2.43 36.374 0.664 7.79 10.05 12.97
2/25/2021 11:00:00 PM 2.35 36.23 0.666 7.78 10.22 12.97
2/25/2021 11:15:00 PM 2.27 36.086 0.669 7.77 9.76 12.98
2/25/2021 11:30:00 PM 2.19 35.942 0.67 7.76 8.73 12.99
2/25/2021 11:45:00 PM 2.11 35.798 0.671 7.74 8.81 13
2/26/2021 12:00:00 AM 2.03 35.654 0.67 7.74 8.47 13
2/26/2021 12:15:00 AM 1.95 35.51 0.668 7.73 9.01 13.01
2/26/2021 12:30:00 AM 1.87 35.366 0.666 7.71 8.48 13.03
2/26/2021 12:45:00 AM 1.8 35.24 0.662 7.71 9.25 13.04
2/26/2021 1:00:00 AM 1.73 35.114 0.658 7.71 8.88 13.05
2/26/2021 1:15:00 AM 1.66 34.988 0.652 7.7 8.11 13.06
2/26/2021 1:30:00 AM 1.59 34.862 0.645 7.6 8.72 13.06
2/26/2021 1:45:00 AM 1.52 34.736 0.638 7.54 8.66 13.08
2/26/2021 2:00:00 AM 1.47 34.646 0.63 7.52 9.16 13.08
2/26/2021 2:15:00 AM 1.41 34.538 0.623 7.51 8.97 13.09
2/26/2021 2:30:00 AM 1.35 34.43 0.615 7.5 8.46 13.1
2/26/2021 2:45:00 AM 1.3 34.34 0.609 7.48 8.86 13.11
2/26/2021 3:00:00 AM 1.25 34.25 0.604 7.47 8.76 13.11
2/26/2021 3:15:00 AM 1.19 34.142 0.599 7.47 9 13.13
2/26/2021 3:30:00 AM 1.14 34.052 0.595 7.46 7.88 13.15
2/26/2021 3:45:00 AM 1.08 33.944 0.592 7.45 8.63 13.16
2/26/2021 4:00:00 AM 1.05 33.89 0.589 7.45 8.08 13.17
2/26/2021 4:15:00 AM 1.01 33.818 0.587 7.44 8.98 13.18
2/26/2021 4:30:00 AM 0.97 33.746 0.586 7.44 8.19 13.2
2/26/2021 4:45:00 AM 0.94 33.692 0.585 7.42 8.58 13.2
2/26/2021 5:00:00 AM 0.91 33.638 0.584 7.44 8.06 13.21
2/26/2021 5:15:00 AM 0.89 33.602 0.584 7.43 8.51 13.21
2/26/2021 5:30:00 AM 0.88 33.584 0.582 7.43 8.69 13.21
2/26/2021 5:45:00 AM 0.86 33.548 0.581 7.42 7.89 13.22
2/26/2021 6:00:00 AM 0.85 33.53 0.58 7.43 9.44 13.23
2/26/2021 6:15:00 AM 0.81 33.458 0.579 7.42 8.03 13.24
2/26/2021 6:30:00 AM 0.76 33.368 0.578 7.43 9.23 13.25
2/26/2021 6:45:00 AM 0.73 33.314 0.576 7.42 7.81 13.24
2/26/2021 7:00:00 AM 0.69 33.242 0.575 7.42 8.41 13.27
2/26/2021 7:15:00 AM 0.65 33.17 0.574 7.42 7.86 13.3
2/26/2021 7:30:00 AM 0.62 33.116 0.573 7.41 7.56 13.33
2/26/2021 7:45:00 AM 0.58 33.044 0.572 7.42 7.28 13.37
2/26/2021 8:00:00 AM 0.54 32.972 0.57 7.42 8.22 13.42
2/26/2021 8:15:00 AM 0.51 32.918 0.569 7.42 7.16 13.47
2/26/2021 8:30:00 AM 0.48 32.864 0.568 7.43 7.46 13.52
2/26/2021 8:45:00 AM 0.44 32.792 0.566 7.43 7.58 13.58
2/26/2021 9:00:00 AM 0.41 32.738 0.565 7.43 7.25 13.64
2/26/2021 9:15:00 AM 0.4 32.72 0.564 7.44 7.93 13.71
2/26/2021 9:30:00 AM 0.4 32.72 0.563 7.44 6.76 13.79
2/26/2021 9:45:00 AM 0.43 32.774 0.562 7.45 7.54 13.85
2/26/2021 10:00:00 AM 0.47 32.846 0.561 7.45 7.46 13.92
2/26/2021 10:15:00 AM 0.51 32.918 0.56 7.46 7.5 13.99
2/26/2021 10:30:00 AM 0.56 33.008 0.56 7.46 7.01 14.05
2/26/2021 10:45:00 AM 0.63 33.134 0.559 7.48 7.45 14.1
2/26/2021 11:00:00 AM 0.73 33.314 0.559 7.49 7.95 14.17
2/26/2021 11:15:00 AM 0.84 33.512 0.558 7.5 7.36 14.23
2/26/2021 11:30:00 AM 0.94 33.692 0.559 7.51 8.37 14.29
2/26/2021 11:45:00 AM 1.06 33.908 0.559 7.52 8 14.34
2/26/2021 12:00:00 PM 1.21 34.178 0.559 7.54 7.93 14.41
2/26/2021 12:15:00 PM 1.39 34.502 0.559 7.56 8.03 14.48
2/26/2021 12:30:00 PM 1.55 34.79 0.56 7.59 8.5 14.55
2/26/2021 12:45:00 PM 1.75 35.15 0.561 7.62 7.75 14.61
2/26/2021 1:00:00 PM 1.96 35.528 0.561 7.65 8.15 14.65
2/26/2021 1:15:00 PM 2.17 35.906 0.561 7.68 7.91 14.69
2/26/2021 1:30:00 PM 2.4 36.32 0.561 7.71 8.33 14.71
2/26/2021 1:45:00 PM 2.59 36.662 0.56 7.74 7 14.72
2/26/2021 2:00:00 PM 2.74 36.932 0.559 7.75 7.52 14.72
2/26/2021 2:15:00 PM 2.85 37.13 0.558 7.77 7.42 14.72
2/26/2021 2:30:00 PM 2.94 37.292 0.558 7.79 7.05 14.7
2/26/2021 2:45:00 PM 3.03 37.454 0.557 7.8 7.07 14.68
2/26/2021 3:00:00 PM 3.09 37.562 0.558 7.82 7.02 14.67
2/26/2021 3:15:00 PM 3.16 37.688 0.558 7.83 7.96 14.64
2/26/2021 3:30:00 PM 3.21 37.778 0.558 7.85 7.26 14.62
2/26/2021 3:45:00 PM 3.25 37.85 0.56 7.87 6.68 14.6
2/26/2021 4:00:00 PM 3.28 37.904 0.56 7.88 6.99 14.57
2/26/2021 4:15:00 PM 3.29 37.922 0.56 7.88 6.54 14.53
2/26/2021 4:30:00 PM 3.29 37.922 0.56 7.89 6.97 14.5
2/26/2021 4:45:00 PM 3.29 37.922 0.559 7.9 6.59 14.45
2/26/2021 5:00:00 PM 3.28 37.904 0.557 7.92 7.06 14.39
2/26/2021 5:15:00 PM 3.26 37.868 0.555 7.92 7.01 14.32
2/26/2021 5:30:00 PM 3.24 37.832 0.551 7.91 6.79 14.25
2/26/2021 5:45:00 PM 3.19 37.742 0.547 7.9 6.21 14.18
2/26/2021 6:00:00 PM 3.14 37.652 0.543 7.88 5.96 14.11
2/26/2021 6:15:00 PM 3.07 37.526 0.539 7.85 6.03 14.04
2/26/2021 6:30:00 PM 2.99 37.382 0.536 7.83 6.26 13.97
2/26/2021 6:45:00 PM 2.91 37.238 0.534 7.79 6.63 13.91
2/26/2021 7:00:00 PM 2.81 37.058 0.534 7.77 6.61 13.86
2/26/2021 7:15:00 PM 2.73 36.914 0.535 7.74 6.39 13.79
2/26/2021 7:30:00 PM 2.67 36.806 0.537 7.73 6.51 13.73
2/26/2021 7:45:00 PM 2.63 36.734 0.538 7.72 6.82 13.66
2/26/2021 8:00:00 PM 2.59 36.662 0.539 7.71 6.22 13.59
2/26/2021 8:15:00 PM 2.57 36.626 0.539 7.69 5.95 13.52
2/26/2021 8:30:00 PM 2.57 36.626 0.538 7.7 5.95 13.46
2/26/2021 8:45:00 PM 2.58 36.644 0.536 7.69 5.75 13.39
2/26/2021 9:00:00 PM 2.57 36.626 0.533 7.68 5.6 13.33
2/26/2021 9:15:00 PM 2.56 36.608 0.531 7.68 5.27 13.28
2/26/2021 9:30:00 PM 2.55 36.59 0.527 7.67 5.81 13.23
2/26/2021 9:45:00 PM 2.52 36.536 0.525 7.66 5.5 13.2
2/26/2021 10:00:00 PM 2.48 36.464 0.522 7.65 5.45 13.18
2/26/2021 10:15:00 PM 2.43 36.374 0.518 7.63 5.35 13.16
2/26/2021 10:30:00 PM 2.38 36.284 0.516 7.62 5.29 13.14
2/26/2021 10:45:00 PM 2.34 36.212 0.515 7.61 5.07 13.13
2/26/2021 11:00:00 PM 2.29 36.122 0.514 7.6 5.34 13.12
2/26/2021 11:15:00 PM 2.24 36.032 0.513 7.58 5.07 13.1
2/26/2021 11:30:00 PM 2.19 35.942 0.514 7.58 5.41 13.09
2/26/2021 11:45:00 PM 2.16 35.888 0.515 7.57 4.67 13.07
2/27/2021 12:00:00 AM 2.14 35.852 0.517 7.56 5.09 13.07
2/27/2021 12:15:00 AM 2.12 35.816 0.519 7.56 4.79 13.07
2/27/2021 12:30:00 AM 2.1 35.78 0.522 7.55 4.76 13.04
2/27/2021 12:45:00 AM 2.1 35.78 0.526 7.55 4.69 13.04
2/27/2021 1:00:00 AM 2.09 35.762 0.53 7.55 4.57 13.02
2/27/2021 1:15:00 AM 2.1 35.78 0.535 7.54 4.51 13
2/27/2021 1:30:00 AM 2.1 35.78 0.54 7.53 4.81 12.98
2/27/2021 1:45:00 AM 2.11 35.798 0.545 7.54 4.43 12.97
2/27/2021 2:00:00 AM 2.11 35.798 0.551 7.54 4.65 12.96
2/27/2021 2:15:00 AM 2.12 35.816 0.555 7.53 4.7 12.95
2/27/2021 2:30:00 AM 2.13 35.834 0.56 7.54 4.77 12.93
2/27/2021 2:45:00 AM 2.13 35.834 0.564 7.54 4.51 12.92
2/27/2021 3:00:00 AM 2.14 35.852 0.567 7.54 4.49 12.9
2/27/2021 3:15:00 AM 2.14 35.852 0.57 7.54 4.16 12.9
2/27/2021 3:30:00 AM 2.14 35.852 0.572 7.53 4.21 12.88
2/27/2021 3:45:00 AM 2.14 35.852 0.573 7.52 4.44 12.88
2/27/2021 4:00:00 AM 2.15 35.87 0.574 7.53 4.2 12.87
2/27/2021 4:15:00 AM 2.15 35.87 0.574 7.52 4.7 12.87
2/27/2021 4:30:00 AM 2.15 35.87 0.574 7.53 4.67 12.86
2/27/2021 4:45:00 AM 2.15 35.87 0.573 7.53 4.94 12.85
2/27/2021 5:00:00 AM 2.16 35.888 0.573 7.53 4.54 12.85
2/27/2021 5:15:00 AM 2.16 35.888 0.572 7.53 4.43 12.84
2/27/2021 5:30:00 AM 2.17 35.906 0.571 7.53 4.58 12.83
2/27/2021 5:45:00 AM 2.18 35.924 0.57 7.53 4.82 12.83
2/27/2021 6:00:00 AM 2.18 35.924 0.569 7.53 4.57 12.82
2/27/2021 6:15:00 AM 2.19 35.942 0.568 7.54 4.58 12.81
2/27/2021 6:30:00 AM 2.19 35.942 0.567 7.53 4.24 12.81
2/27/2021 6:45:00 AM 2.2 35.96 0.566 7.53 4.56 12.81
2/27/2021 7:00:00 AM 2.2 35.96 0.565 7.53 4.37 12.81
2/27/2021 7:15:00 AM 2.21 35.978 0.563 7.54 4.96 12.82
2/27/2021 7:30:00 AM 2.22 35.996 0.562 7.54 4.48 12.82
2/27/2021 7:45:00 AM 2.23 36.014 0.561 7.55 4.43 12.85
2/27/2021 8:00:00 AM 2.23 36.014 0.559 7.55 4.13 12.87
2/27/2021 8:15:00 AM 2.25 36.05 0.558 7.55 4.5 12.92
2/27/2021 8:30:00 AM 2.28 36.104 0.557 7.55 4.4 12.98
2/27/2021 8:45:00 AM 2.3 36.14 0.555 7.57 4.56 13.04
2/27/2021 9:00:00 AM 2.32 36.176 0.554 7.57 4.95 13.1
2/27/2021 9:15:00 AM 2.34 36.212 0.552 7.58 4.74 13.16
2/27/2021 9:30:00 AM 2.38 36.284 0.551 7.59 5.01 13.22
2/27/2021 9:45:00 AM 2.42 36.356 0.55 7.6 4.92 13.3
2/27/2021 10:00:00 AM 2.46 36.428 0.548 7.61 5.32 13.37
2/27/2021 10:15:00 AM 2.5 36.5 0.547 7.63 5.42 13.43
2/27/2021 10:30:00 AM 2.55 36.59 0.546 7.64 5.99 13.5
2/27/2021 10:45:00 AM 2.63 36.734 0.545 7.65 5.78 13.58
2/27/2021 11:00:00 AM 2.72 36.896 0.543 7.67 4.98 13.65
2/27/2021 11:15:00 AM 2.76 36.968 0.542 7.68 4.9 13.7
2/27/2021 11:30:00 AM 2.78 37.004 0.541 7.69 5.07 13.72
2/27/2021 11:45:00 AM 2.81 37.058 0.54 7.7 4.55 13.77
2/27/2021 12:00:00 PM 2.91 37.238 0.539 7.72 4.58 13.84
2/27/2021 12:15:00 PM 3.01 37.418 0.538 7.73 4.47 13.9
2/27/2021 12:30:00 PM 3.1 37.58 0.538 7.75 4.27 13.94
2/27/2021 12:45:00 PM 3.2 37.76 0.537 7.77 4.46 13.98
2/27/2021 1:00:00 PM 3.35 38.03 0.537 7.79 4.22 14.03
2/27/2021 1:15:00 PM 3.48 38.264 0.537 7.81 4.45 14.06
2/27/2021 1:30:00 PM 3.64 38.552 0.537 7.84 4.46 14.11
2/27/2021 1:45:00 PM 3.74 38.732 0.538 7.8 4.72 14.14
2/27/2021 2:00:00 PM 3.87 38.966 0.535 7.91 4.43 14.18
2/27/2021 2:15:00 PM 4.04 39.272 0.536 7.93 4.51 14.22
2/27/2021 2:30:00 PM 4.23 39.614 0.534 7.95 4.24 14.24
2/27/2021 2:45:00 PM 4.34 39.812 0.534 7.98 4.08 14.23
2/27/2021 3:00:00 PM 4.46 40.028 0.534 8 3.93 14.22
2/27/2021 3:15:00 PM 4.58 40.244 0.531 8.01 4.54 14.23
2/27/2021 3:30:00 PM 4.65 40.37 0.532 8.02 4.82 14.2
2/27/2021 3:45:00 PM 4.71 40.478 0.528 8.03 4.61 14.17
2/27/2021 4:00:00 PM 4.74 40.532 0.53 8.04 4.77 14.12
2/27/2021 4:15:00 PM 4.76 40.568 0.528 8.04 4.81 14.08
2/27/2021 4:30:00 PM 4.76 40.568 0.526 8.04 4.96 14.03
2/27/2021 4:45:00 PM 4.75 40.55 0.524 8.04 4.64 13.97
2/27/2021 5:00:00 PM 4.74 40.532 0.524 8.03 4.89 13.91
2/27/2021 5:15:00 PM 4.71 40.478 0.522 8.03 4.63 13.83
2/27/2021 5:30:00 PM 4.68 40.424 0.522 8.02 5.1 13.75
2/27/2021 5:45:00 PM 4.66 40.388 0.52 8.01 4.99 13.66
2/27/2021 6:00:00 PM 4.63 40.334 0.519 7.99 4.91 13.56
2/27/2021 6:15:00 PM 4.58 40.244 0.519 7.98 5.28 13.45
2/27/2021 6:30:00 PM 4.53 40.154 0.518 7.96 5.44 13.34
2/27/2021 6:45:00 PM 4.47 40.046 0.517 7.94 5.83 13.25
2/27/2021 7:00:00 PM 4.41 39.938 0.516 7.93 5.98 13.17
2/27/2021 7:15:00 PM 4.35 39.83 0.514 7.91 6.64 13.1
2/27/2021 7:30:00 PM 4.28 39.704 0.512 7.89 6.22 13.02
2/27/2021 7:45:00 PM 4.2 39.56 0.51 7.89 6.3 12.97
2/27/2021 8:00:00 PM 4.14 39.452 0.509 7.86 6.01 12.9
2/27/2021 8:15:00 PM 4.08 39.344 0.507 7.87 6.34 12.84
2/27/2021 8:30:00 PM 4.02 39.236 0.506 7.85 7.12 12.8
2/27/2021 8:45:00 PM 3.98 39.164 0.505 7.84 7.49 12.75
2/27/2021 9:00:00 PM 3.93 39.074 0.505 7.83 6.46 12.71
2/27/2021 9:15:00 PM 3.9 39.02 0.505 7.83 7.11 12.67
2/27/2021 9:30:00 PM 3.87 38.966 0.506 7.8 7.53 12.63
2/27/2021 9:45:00 PM 3.83 38.894 0.506 7.81 7.52 12.6
2/27/2021 10:00:00 PM 3.79 38.822 0.507 7.8 7.84 12.58
2/27/2021 10:15:00 PM 3.75 38.75 0.509 7.79 8.52 12.56
2/27/2021 10:30:00 PM 3.71 38.678 0.511 7.79 7.15 12.55
2/27/2021 10:45:00 PM 3.66 38.588 0.514 7.78 8.08 12.54
2/27/2021 11:00:00 PM 3.6 38.48 0.518 7.77 7.87 12.54
2/27/2021 11:15:00 PM 3.54 38.372 0.523 7.77 7.82 12.55
2/27/2021 11:30:00 PM 3.48 38.264 0.528 7.76 8.24 12.56
2/27/2021 11:45:00 PM 3.41 38.138 0.533 7.75 8.4 12.57
2/28/2021 12:00:00 AM 3.34 38.012 0.538 7.73 8.15 12.58
2/28/2021 12:15:00 AM 3.27 37.886 0.544 7.73 7.62 12.59
2/28/2021 12:30:00 AM 3.19 37.742 0.549 7.71 8.57 12.61
2/28/2021 12:45:00 AM 3.11 37.598 0.555 7.71 9.59 12.63
2/28/2021 1:00:00 AM 3.02 37.436 0.56 7.7 9.21 12.65
2/28/2021 1:15:00 AM 2.94 37.292 0.564 7.69 10.13 12.67
2/28/2021 1:30:00 AM 2.86 37.148 0.567 7.69 10.36 12.69
2/28/2021 1:45:00 AM 2.78 37.004 0.568 7.68 9.43 12.71
2/28/2021 2:00:00 AM 2.71 36.878 0.569 7.67 10.22 12.73
2/28/2021 2:15:00 AM 2.65 36.77 0.568 7.67 10.31 12.74
2/28/2021 2:30:00 AM 2.59 36.662 0.565 7.66 10.95 12.75
2/28/2021 2:45:00 AM 2.53 36.554 0.563 7.64 10.8 12.77
2/28/2021 3:00:00 AM 2.47 36.446 0.559 7.64 10.69 12.8
2/28/2021 3:15:00 AM 2.42 36.356 0.555 7.63 11.48 12.82
2/28/2021 3:30:00 AM 2.36 36.248 0.55 7.62 12.07 12.84
2/28/2021 3:45:00 AM 2.31 36.158 0.545 7.59 12.72 12.86
2/28/2021 4:00:00 AM 2.27 36.086 0.539 7.56 12.27 12.88
2/28/2021 4:15:00 AM 2.22 35.996 0.534 7.54 12.37 12.9
2/28/2021 4:30:00 AM 2.18 35.924 0.528 7.53 13.33 12.93
2/28/2021 4:45:00 AM 2.14 35.852 0.522 7.51 12.83 12.94
2/28/2021 5:00:00 AM 2.09 35.762 0.517 7.5 12.54 12.96
2/28/2021 5:15:00 AM 2.05 35.69 0.513 7.49 12.66 12.97
2/28/2021 5:30:00 AM 2 35.6 0.508 7.47 13.74 13
2/28/2021 5:45:00 AM 1.96 35.528 0.504 7.47 14.13 13.02
2/28/2021 6:00:00 AM 1.91 35.438 0.501 7.46 14.21 13.04
2/28/2021 6:15:00 AM 1.86 35.348 0.498 7.45 14.26 13.07
2/28/2021 6:30:00 AM 1.8 35.24 0.495 7.43 15.39 13.1
2/28/2021 6:45:00 AM 1.73 35.114 0.493 7.42 15.84 13.14
2/28/2021 7:00:00 AM 1.67 35.006 0.491 7.41 15.71 13.18
2/28/2021 7:15:00 AM 1.61 34.898 0.49 7.41 20.02 13.22
2/28/2021 7:30:00 AM 1.55 34.79 0.489 7.39 13.38 13.26
2/28/2021 7:45:00 AM 1.49 34.682 0.489 7.39 18.74 13.3
2/28/2021 8:00:00 AM 1.43 34.574 0.488 7.38 16.16 13.35
2/28/2021 8:15:00 AM 1.39 34.502 0.488 7.38 17.24 13.4
2/28/2021 8:30:00 AM 1.35 34.43 0.488 7.37 16.45 13.45
2/28/2021 8:45:00 AM 1.31 34.358 0.488 7.38 13.53 13.5
2/28/2021 9:00:00 AM 1.29 34.322 0.488 7.39 15.8 13.56
2/28/2021 9:15:00 AM 1.27 34.286 0.488 7.39 14.5 13.61
2/28/2021 9:30:00 AM 1.26 34.268 0.488 7.4 15.41 13.66
2/28/2021 9:45:00 AM 1.25 34.25 0.488 7.4 13.27 13.71
2/28/2021 10:00:00 AM 1.26 34.268 0.488 7.4 13.2 13.77
2/28/2021 10:15:00 AM 1.27 34.286 0.488 7.4 12.59 13.82
2/28/2021 10:30:00 AM 1.29 34.322 0.488 7.41 12.4 13.86
2/28/2021 10:45:00 AM 1.3 34.34